db 

Weather

Daily Weather Data

The below form allows a user to list weather stations stored in the database for each US State. If ALL is chosen in the drop down box, additional weather stations outside of the continental US will be listed. Weather stations are listed by State and then City. Clicking on the name of a Location will open up a new browser window and attempt to find that location using Google Maps.

Station Data

SAN DIEGO INTERNATIONAL AIRPORT
SAN DIEGO, CA

WBAN: 23188
CALLSIGN: SAN
LATITUDE: 32.73      LONGITUDE: -117.16
GMAP: SAN DIEGO INTERNATIONAL AIRPORT


BACK to Previous Screen

<
CALL WBAN Date MaxT MinT AvgT CDD HDD Precip Avg Wind Max Wind Wet Bulb Dew Point
SAN 23188 01-01-00 59 51 55 0 10 0.03 6.4 16 50 46
SAN 23188 01-02-00 60 49 55 0 10 0.01 9.7 21 49 42
SAN 23188 01-03-00 67 45 56 0 9 0 3.6 15 46 36
SAN 23188 01-04-00 67 45 56 0 9 0 4.6 16 47 37
SAN 23188 01-05-00 64 45 55 0 10 0 2.7 9 49 43
SAN 23188 01-06-00 68 43 56 0 9 0 2.9 14 46 35
SAN 23188 01-07-00 64 45 55 0 10 0 3.4 10 47 37
SAN 23188 01-08-00 61 44 53 0 12 0 3.8 15 48 44
SAN 23188 01-09-00 64 44 54 0 11 0 2.6 10 48 42
SAN 23188 01-10-00 62 44 53 0 12 0 2.8 10 49 45
SAN 23188 01-11-00 59 46 0 4.7 14 52 50
SAN 23188 01-12-00 61 52 57 0 8 0 6.1 14 54 52
SAN 23188 01-13-00 72 48 60 0 5 0 5.3 14 54 48
SAN 23188 01-14-00 77 52 65 0 0 0 3.7 11 52 40
SAN 23188 01-15-00 69 55 62 0 3 0 3.5 13 53 44
SAN 23188 01-16-00 68 53 61 0 4 0.03 2.4 13 54 48
SAN 23188 01-17-00 59 68 3 0 6.9 18 60 55
SAN 23188 01-18-00 76 59 0 4.6 14 59 53
SAN 23188 01-19-00 74 56 65 0 0 0 5 16 58 54
SAN 23188 01-20-00 70 58 64 0 1 0 4.6 16 59 57
SAN 23188 01-21-00 62 56 59 0 6 0 5.8 14 56 53
SAN 23188 01-22-00 63 54 59 0 6 0 4.3 11 54 51
SAN 23188 01-23-00 66 51 59 0 6 0 4.6 14 54 51
SAN 23188 01-24-00 76 58 67 2 0 0 3.9 11 57 53
SAN 23188 01-25-00 64 58 61 0 4 0.01 4.8 13 56 56
SAN 23188 01-26-00 62 53 58 0 7 0.02 6.5 13 56 53
SAN 23188 01-27-00 64 47 56 0 9 0 3.7 13 53 50
SAN 23188 01-28-00 61 47 54 0 11 0 4.1 20 52 49
SAN 23188 01-29-00 61 47 54 0 11 4.2 13 53 51
SAN 23188 01-30-00 62 52 57 0 8 0 3.5 11 54 52
SAN 23188 01-31-00 61 53 57 0 8 0.08 6.5 14 55 54
SAN 23188 02-01-00 72 49 61 0 4 0 4.7 15 53 47
SAN 23188 02-02-00 57 0 8.7 18 51 33
SAN 23188 02-03-00 76 50 63 0 2 0 4 11 50 38
SAN 23188 02-04-00 64 52 58 0 7 0 5.3 10 54 50
SAN 23188 02-05-00 64 56 60 0 5 0.02 5.5 15 58 56
SAN 23188 02-06-00 74 53 64 0 1 0 5.3 20 57 55
SAN 23188 02-07-00 74 50 62 0 3 0 4.1 15 56 53
SAN 23188 02-08-00 69 56 63 0 2 6 16 58 55
SAN 23188 02-09-00 62 53 58 0 7 0 4.3 14 56 55
SAN 23188 02-10-00 63 55 59 0 6 0.11 8 22 56 55
SAN 23188 02-11-00 63 55 59 0 6 0.01 4.5 14 55 52
SAN 23188 02-12-00 62 55 59 0 6 0.39 7.8 21 56 53
SAN 23188 02-13-00 62 54 58 0 7 0.1 7.3 13 56 54
SAN 23188 02-14-00 63 57 60 0 5 0.02 5.4 10 58 57
SAN 23188 02-15-00 65 54 60 0 5 0 6.4 17 57 56
SAN 23188 02-16-00 64 55 60 0 5 0.19 9.8 21 56 54
SAN 23188 02-17-00 60 51 56 0 9 0.02 9.1 18 51 47
SAN 23188 02-18-00 64 47 56 0 9 0 2.6 10 51 46
SAN 23188 02-19-00 77 52 65 0 0 0 4 14 52 42
SAN 23188 02-20-00 64 55 60 0 5 0.51 15.9 28 59 57
SAN 23188 02-21-00 61 52 57 0 8 1.59 10.8 25 54 53
SAN 23188 02-22-00 62 50 56 0 9 0 3.9 13 54 52
SAN 23188 02-23-00 61 52 57 0 8 0.7 11.1 24 53 51
SAN 23188 02-24-00 59 53 56 0 9 9.8 17 49 43
SAN 23188 02-25-00 61 52 57 0 8 0 4.3 10 52 48
SAN 23188 02-26-00 63 49 56 0 9 0 5 16 54 52
SAN 23188 02-27-00 61 52 57 0 8 0.02 6.5 17 54 53
SAN 23188 02-28-00 60 53 57 0 8 8 16 52 48
SAN 23188 02-29-00 61 48 0 5.6 14 52 50
SAN 23188 03-01-00 61 53 57 0 8 0.04 4.9 14 51 48
SAN 23188 03-02-00 64 50 57 0 8 0 5.1 16 54 51
SAN 23188 03-03-00 58 53 56 0 9 0.01 5.3 14 54 51
SAN 23188 03-04-00 61 52 57 0 8 0.05 5.8 15 50 46
SAN 23188 03-05-00 59 49 54 0 11 0.64 12.8 38 50 46
SAN 23188 03-06-00 59 45 0.05 6.2 16 46 40
SAN 23188 03-07-00 58 50 54 0 11 0.05 8.4 18 50 47
SAN 23188 03-08-00 59 50 55 0 10 0.06 9 23 51 47
SAN 23188 03-09-00 61 47 54 0 11 0 5.6 15 50 45
SAN 23188 03-10-00 66 49 58 0 7 0 6.3 18 53 49
SAN 23188 03-11-00 51 62 0 3 0 5.4 16 54 46
SAN 23188 03-12-00 64 52 58 0 7 0 5 11 56 54
SAN 23188 03-13-00 61 56 59 0 6 0 7.2 13 55 52
SAN 23188 03-14-00 68 53 61 0 4 0 5.7 15 56 54
SAN 23188 03-15-00 64 54 59 0 6 0 6.5 13 56 55
SAN 23188 03-16-00 62 55 59 0 6 0 6 17 55 53
SAN 23188 03-17-00 66 57 62 0 3 0 7 18 57 55
SAN 23188 03-18-00 70 56 0 4.6 14 59 57
SAN 23188 03-19-00 67 54 61 0 4 0 6.2 13 58 56
SAN 23188 03-20-00 64 55 60 0 5 0.1 8.3 16 55 52
SAN 23188 03-21-00 67 49 58 0 7 0 5.4 16 48 35
SAN 23188 03-22-00 68 50 59 0 6 0 5.3 16 51 43
SAN 23188 03-23-00 66 52 59 0 6 0 5.7 17 54 49
SAN 23188 03-24-00 63 53 58 0 7 0 7.6 16 55 52
SAN 23188 03-25-00 63 54 59 0 6 0 6.8 18 54 50
SAN 23188 03-26-00 65 54 60 0 5 0 7 16 55 52
SAN 23188 03-27-00 61 57 59 0 6 5.6 13 55 53
SAN 23188 03-28-00 62 56 59 0 6 0 8.7 14 53 49
SAN 23188 03-29-00 62 56 59 0 6 0 7 14 54 50
SAN 23188 03-30-00 63 56 60 0 5 0 6.6 14 55 52
SAN 23188 03-31-00 70 51 61 0 4 0 6.9 18 55 50
SAN 23188 04-01-00 52 66 1 0 0 5.6 17 55 45
SAN 23188 04-02-00 68 56 62 0 3 0 5.7 13 56 50
SAN 23188 04-03-00 69 57 63 0 2 0 5.9 13 58 55
SAN 23188 04-04-00 68 56 62 0 3 0 7.7 21 58 56
SAN 23188 04-05-00 66 57 62 0 3 0 5.6 15 56 53
SAN 23188 04-06-00 63 56 60 0 5 0 5.8 13 55 51
SAN 23188 04-07-00 67 58 63 0 2 0 7.1 17 57 54
SAN 23188 04-08-00 68 57 63 0 2 0 7.4 17 57 57
SAN 23188 04-09-00 66 58 62 0 3 0 5.5 14 54 54
SAN 23188 04-10-00 66 58 62 0 3 0 6.2 14 56 52
SAN 23188 04-11-00 71 57 64 0 1 0 5.2 13 59 56
SAN 23188 04-12-00 67 58 63 0 2 0 5.5 13 59 57
SAN 23188 04-13-00 68 56 62 0 3 0 7.8 18 58 55
SAN 23188 04-14-00 66 59 63 0 2 9.9 17 56 52
SAN 23188 04-15-00 65 57 61 0 4 0.04 6.5 16 55 51
SAN 23188 04-16-00 65 56 61 0 4 0 7.3 14 54 49
SAN 23188 04-17-00 65 55 60 0 5 0.41 10.2 24 55 51
SAN 23188 04-18-00 65 56 61 0 4 0.08 9.5 17 54 49
SAN 23188 04-19-00 65 54 60 0 5 0 7.8 17 55 50
SAN 23188 04-20-00 69 55 62 0 3 0 4.6 15 57 54
SAN 23188 04-21-00 63 57 0.01 9.3 16 56 53
SAN 23188 04-22-00 64 58 61 0 4 8.1 14 55 52
SAN 23188 04-23-00 66 58 62 0 3 0 6.6 15 56 52
SAN 23188 04-24-00 67 57 62 0 3 0 6.5 20 58 56
SAN 23188 04-25-00 73 58 66 1 0 0 5.3 16 60 57
SAN 23188 04-26-00 78 60 0 5.8 14 62 59
SAN 23188 04-27-00 65 59 62 0 3 0 8 14 59 56
SAN 23188 04-28-00 65 59 62 0 3 0 6.7 15 56 53
SAN 23188 04-29-00 68 58 63 0 2 0 6.9 17 57 52
SAN 23188 04-30-00 76 58 67 2 0 0 4.9 17 60 56
SAN 23188 05-01-00 76 59 68 3 0 0 6.1 14 62 58
SAN 23188 05-02-00 75 61 68 3 0 6 13 62 59
SAN 23188 05-03-00 69 62 66 1 0 0 7.5 11 61 58
SAN 23188 05-04-00 65 61 63 0 2 0 5.6 11 60 58
SAN 23188 05-05-00 66 61 64 0 1 0 6.3 13 59 56
SAN 23188 05-06-00 67 61 64 0 1 0 4.8 13 58 54
SAN 23188 05-07-00 69 60 65 0 0 0 7.8 16 60 56
SAN 23188 05-08-00 68 62 65 0 0 7 14 61 58
SAN 23188 05-09-00 70 61 66 1 0 0 6.2 15 61 58
SAN 23188 05-10-00 67 60 64 0 1 0 8.7 15 58 54
SAN 23188 05-11-00 68 59 64 0 1 0 8.5 18 55 49
SAN 23188 05-12-00 56 67 2 0 0 6.4 20 57 50
SAN 23188 05-13-00 72 57 65 0 0 0 5.8 15 58 53
SAN 23188 05-14-00 68 58 63 0 2 0 8.2 17 58 54
SAN 23188 05-15-00 69 58 64 0 1 0 8.4 16 58 54
SAN 23188 05-16-00 66 59 63 0 2 0 10.8 18 56 50
SAN 23188 05-17-00 67 57 0 6.7 14 56 52
SAN 23188 05-18-00 70 60 65 0 0 0 5.9 13 59 55
SAN 23188 05-19-00 72 61 67 2 0 0 5.8 14 61 59
SAN 23188 05-20-00 70 59 65 0 0 0 6 11 60 58
SAN 23188 05-21-00 68 58 63 0 2 0 6.4 13 60 57
SAN 23188 05-22-00 65 60 63 0 2 0 6.8 14 53 45
SAN 23188 05-23-00 65 60 63 0 2 7.9 16 60 58
SAN 23188 05-24-00 67 61 64 0 1 0 6.5 11 60 57
SAN 23188 05-25-00 66 61 64 0 1 6.3 11 60 57
SAN 23188 05-26-00 70 61 66 1 0 0 6.7 17 60 57
SAN 23188 05-27-00 72 62 67 2 0 0 5.6 13 63 60
SAN 23188 05-28-00 76 61 0 5.7 11 63 61
SAN 23188 05-29-00 67 61 64 0 1 0 4.8 13 61 59
SAN 23188 05-30-00 67 62 65 0 0 0 6.4 13 60 57
SAN 23188 05-31-00 68 62 65 0 0 0 6.2 13 59 55
SAN 23188 06-01-00 71 63 67 2 0 0 6.1 13 60 57
SAN 23188 06-02-00 71 63 67 2 0 0 6.8 16 61 58
SAN 23188 06-03-00 73 62 68 3 0 0 8.4 16 62 59
SAN 23188 06-04-00 73 62 68 3 0 0 8.4 17 63 60
SAN 23188 06-12-00 72 65 69 4 0 0 14 62 59
SAN 23188 06-13-00 69 63 66 1 0 0 6.1 14 62 59
SAN 23188 06-14-00 67 63 0 5.6 15 61 59
SAN 23188 06-15-00 72 62 67 2 0 0 6.1 13 62 59
SAN 23188 06-16-00 70 64 67 2 0 0 6.9 14 62 58
SAN 23188 06-17-00 70 64 67 2 0 0 7.8 15 61 58
SAN 23188 06-18-00 71 65 68 3 0 0 6.2 13 62 59
SAN 23188 06-19-00 72 65 69 4 0 0 7.5 14 62 58
SAN 23188 06-20-00 73 66 70 5 0 0 7.3 14 63 59
SAN 23188 06-21-00 71 66 69 4 0 8.4 15 64 61
SAN 23188 06-22-00 74 65 70 5 0 0 6.6 13 64 61
SAN 23188 06-23-00 70 64 67 2 0 0 7.4 13 62 59
SAN 23188 06-24-00 73 65 69 4 0 0 7.3 14 64 60
SAN 23188 06-25-00 67 5.5 23 67 64
SAN 23188 06-26-00 78 68 73 8 0 0 8.8 17 68 65
SAN 23188 06-27-00 75 66 71 6 0 0 7.3 15 66 63
SAN 23188 06-28-00 75 65 70 5 0 0 5.8 12 64 62
SAN 23188 06-29-00 73 65 69 4 0 0 6.4 15 64 61
SAN 23188 06-30-00 73 66 70 5 0 0 6.6 13 63 60
SAN 23188 07-01-00 73 65 69 4 0 0 6.5 12 63 59
SAN 23188 07-02-00 72 65 69 4 0 0 6.1 13 63 59
SAN 23188 07-03-00 72 66 69 4 0 0 7.1 14 62 58
SAN 23188 07-04-00 71 64 68 3 0 0 6.5 14 61 56
SAN 23188 07-05-00 71 64 68 3 0 0 6.2 13 61 56
SAN 23188 07-06-00 73 62 68 3 0 0 6 14 62 58
SAN 23188 07-07-00 72 64 68 3 0 0 6.4 15 61 57
SAN 23188 07-08-00 70 63 67 2 0 0 6.2 14 60 56
SAN 23188 07-09-00 71 64 68 3 0 0 5.6 16 61 56
SAN 23188 07-10-00 71 65 68 3 0 0 7.3 15 60 55
SAN 23188 07-11-00 72 65 69 4 0 0 6.5 15 61 57
SAN 23188 07-12-00 73 65 69 4 0 0 7.8 17 62 58
SAN 23188 07-13-00 73 65 69 4 0 0 9.5 17 63 60
SAN 23188 07-14-00 74 64 69 4 0 0 7.1 15 64 61
SAN 23188 07-15-00 73 64 69 4 0 0 7.2 15 63 59
SAN 23188 07-16-00 72 64 68 3 0 0 6.9 15 62 58
SAN 23188 07-17-00 74 64 69 4 0 0 9.2 18 64 60
SAN 23188 07-18-00 77 66 72 7 0 0 6.7 16 66 62
SAN 23188 07-19-00 65 72 7 0 0 6 12 66 63
SAN 23188 07-20-00 74 65 70 5 0 0 5.6 13 64 62
SAN 23188 07-21-00 70 64 0 5.1 12 63 61
SAN 23188 07-22-00 77 64 71 6 0 0 4.5 10 65 62
SAN 23188 07-23-00 76 68 72 7 0 0 5.6 12 66 63
SAN 23188 07-24-00 77 64 71 6 0 0 7.1 14 66 63
SAN 23188 07-25-00 74 67 71 6 0 0 6.6 13 65 63
SAN 23188 07-26-00 72 65 69 4 0 0 6.2 13 63 61
SAN 23188 07-27-00 74 65 70 5 0 0 5.5 13 64 62
SAN 23188 07-28-00 74 65 70 5 0 0 5.8 14 65 63
SAN 23188 07-29-00 74 67 71 6 0 0 6.2 15 66 63
SAN 23188 07-30-00 74 65 70 5 0 0 6.9 13 65 62
SAN 23188 07-31-00 78 65 0 7 15 66 63
SAN 23188 08-01-00 68 77 12 0 0 5.2 18 67 63
SAN 23188 08-02-00 80 69 75 10 0 5.8 17 68 65
SAN 23188 08-03-00 78 69 74 9 0 0 7.6 17 68 65
SAN 23188 08-04-00 77 68 73 8 0 0 8.2 17 67 65
SAN 23188 08-05-00 75 66 71 6 0 0 7.5 15 66 64
SAN 23188 08-06-00 72 65 69 4 0 0 6 12 65 63
SAN 23188 08-07-00 72 66 69 4 0 0 6.2 12 64 62
SAN 23188 08-08-00 75 67 71 6 0 0 7.5 15 66 63
SAN 23188 08-09-00 78 67 73 8 0 0 8.5 18 66 63
SAN 23188 08-10-00 81 67 74 9 0 0 6.9 18 66 62
SAN 23188 08-11-00 80 67 74 9 0 0 6.9 15 67 64
SAN 23188 08-12-00 79 67 73 8 0 0 5 13 68 65
SAN 23188 08-13-00 77 67 72 7 0 0 4.5 13 67 64
SAN 23188 08-14-00 75 69 72 7 0 0 5.4 13 67 64
SAN 23188 08-15-00 77 69 73 8 0 0 4.7 12 68 65
SAN 23188 08-16-00 84 70 0 5.2 13 69 66
SAN 23188 08-17-00 77 70 74 9 0 0 6 14 69 67
SAN 23188 08-18-00 79 69 74 9 0 0 5.8 12 68 65
SAN 23188 08-19-00 79 68 74 9 0 0 4.2 12 68 65
SAN 23188 08-20-00 76 68 72 7 0 0 5.8 12 66 63
SAN 23188 08-21-00 73 67 70 5 0 0 6.3 13 64 60
SAN 23188 08-22-00 75 67 71 6 0 0 6.5 13 64 60
SAN 23188 08-23-00 76 67 72 7 0 0 7.3 15 66 62
SAN 23188 08-24-00 75 70 73 8 0 0 6.7 13 67 64
SAN 23188 08-25-00 75 70 73 8 0 0 7.5 14 67 64
SAN 23188 08-26-00 75 69 72 7 0 0 5.9 13 66 63
SAN 23188 08-27-00 73 68 71 6 0 0 5.9 12 65 62
SAN 23188 08-28-00 71 68 70 5 0 5.8 12 64 62
SAN 23188 08-29-00 69 66 0.01 6.2 13 64 62
SAN 23188 08-30-00 72 65 69 4 0 7.1 13 63 59
SAN 23188 08-31-00 75 66 71 6 0 8 16 62 57
SAN 23188 09-01-00 75 64 70 5 0 0 7.7 16 62 57
SAN 23188 09-02-00 75 64 70 5 0 0 8.7 16 62 58
SAN 23188 09-03-00 75 63 69 4 0 0 6.5 16 63 59
SAN 23188 09-04-00 74 62 68 3 0 0 5.5 13 63 59
SAN 23188 09-05-00 77 63 70 5 0 0 5.2 15 64 60
SAN 23188 09-06-00 78 64 71 6 0 0 6 14 64 61
SAN 23188 09-07-00 80 66 73 8 0 6.8 17 61 54
SAN 23188 09-08-00 73 64 69 4 0 0 8 17 64 61
SAN 23188 09-09-00 74 61 68 3 0 0 5.7 14 62 59
SAN 23188 09-10-00 75 62 69 4 0 0 5.8 15 63 60
SAN 23188 09-11-00 82 63 73 8 0 0 6 16 63 57
SAN 23188 09-12-00 69 0 4.4 12 67 61
SAN 23188 09-13-00 81 70 76 11 0 0 4.9 13 69 66
SAN 23188 09-14-00 77 69 73 8 0 0 8.5 18 69 67
SAN 23188 09-15-00 76 68 72 7 0 0 7.6 17 68 66
SAN 23188 09-16-00 80 66 73 8 0 0 4.9 14 69 67
SAN 23188 09-17-00 79 66 73 8 0 0 5.7 13 68 66
SAN 23188 09-18-00 76 66 71 6 0 0 5.4 12 67 65
SAN 23188 09-19-00 75 67 71 6 0 0 5.9 13 66 63
SAN 23188 09-20-00 72 67 70 5 0 0 9.4 14 64 61
SAN 23188 09-21-00 70 68 69 4 0 0 7.3 12 64 60
SAN 23188 09-22-00 72 67 70 5 0 11.6 18 64 60
SAN 23188 09-23-00 73 65 69 4 0 5.1 12 62 58
SAN 23188 09-24-00 75 61 68 3 0 0 6 17 63 59
SAN 23188 09-25-00 75 62 69 4 0 0 6.4 17 65 63
SAN 23188 09-26-00 74 68 71 6 0 0 6.3 13 65 62
SAN 23188 09-27-00 70 68 69 4 0 0 5.5 13 64 61
SAN 23188 09-28-00 72 67 70 5 0 0 6.8 15 64 61
SAN 23188 09-29-00 71 67 69 4 0 0 5.5 12 63 60
SAN 23188 09-30-00 71 65 0 4.4 13 63 59
SAN 23188 10-01-00 73 64 69 4 0 0 5.8 15 64 62
SAN 23188 10-02-00 73 67 0 6.9 15 65 63
SAN 23188 10-03-00 71 67 69 4 0 0 6.6 16 63 60
SAN 23188 10-04-00 73 63 68 3 0 0 5.6 12 63 59
SAN 23188 10-05-00 69 65 67 2 0 0.01 6.2 16 64 62
SAN 23188 10-06-00 69 64 67 2 0 0.06 6.9 14 64 63
SAN 23188 10-07-00 72 65 69 4 0 0.01 8.1 18 65 64
SAN 23188 10-08-00 72 66 69 4 0 0 5.6 15 65 63
SAN 23188 10-09-00 71 65 68 3 0 0 5.7 14 64 61
SAN 23188 10-10-00 70 61 66 1 0 0.07 9.8 17 61 57
SAN 23188 10-11-00 68 58 63 0 2 0.02 5.6 15 58 54
SAN 23188 10-12-00 69 58 64 0 1 6.2 16 58 54
SAN 23188 10-13-00 69 55 62 0 3 0 5.2 18 58 55
SAN 23188 10-14-00 57 66 1 0 0 4.2 15 61 57
SAN 23188 10-15-00 71 56 64 0 1 0 5.3 13 62 61
SAN 23188 10-16-00 71 60 66 1 0 0 5.7 16 62 61
SAN 23188 10-17-00 70 57 64 0 1 0 3.6 13 62 61
SAN 23188 10-18-00 68 63 66 1 0 0 4.6 14 63 61
SAN 23188 10-19-00 70 64 67 2 0 0 4.1 13 63 61
SAN 23188 10-20-00 69 63 66 1 0 0 6.2 13 63 62
SAN 23188 10-21-00 67 62 65 0 0 0.01 11.3 20 62 60
SAN 23188 10-22-00 69 60 65 0 0 0 6.6 15 60 57
SAN 23188 10-23-00 70 60 65 0 0 6.5 14 61 57
SAN 23188 10-24-00 72 60 66 1 0 0 5.2 14 61 57
SAN 23188 10-25-00 71 59 65 0 0 0 4.5 17 59 56
SAN 23188 10-26-00 67 59 63 0 2 0.07 4.4 13 57 53
SAN 23188 10-27-00 63 57 0.31 7.1 15 57 54
SAN 23188 10-28-00 65 57 61 0 4 0.17 5.8 14 57 54
SAN 23188 10-29-00 67 58 63 0 2 0.5 7 18 57 53
SAN 23188 10-30-00 66 57 62 0 3 0.01 9.6 17 55 48
SAN 23188 10-31-00 67 56 62 0 3 0 6.4 15 55 50
SAN 23188 11-01-00 69 52 61 0 4 0 4.6 16 55 50
SAN 23188 11-02-00 68 55 62 0 3 0 3.4 15 56 52
SAN 23188 11-03-00 73 54 64 0 1 0 4.9 15 54 43
SAN 23188 11-04-00 70 60 4.7 13 56 47
SAN 23188 11-05-00 66 58 62 0 3 0 8.2 14 56 51
SAN 23188 11-06-00 65 58 62 0 3 0 6.4 13 57 53
SAN 23188 11-07-00 71 52 62 0 3 0 5.2 16 51 40
SAN 23188 11-08-00 0 4.6 12 52 43
SAN 23188 11-09-00 62 57 60 0 5 9.4 17 53 49
SAN 23188 11-10-00 62 52 57 0 8 0.26 8.1 20 52 47
SAN 23188 11-11-00 61 50 56 0 9 7 15 50 44
SAN 23188 11-12-00 62 46 54 0 11 0 4.6 15 47 40
SAN 23188 11-13-00 64 45 55 0 10 0 4.2 16 48 41
SAN 23188 11-14-00 60 47 54 0 11 3.8 13 49 44
SAN 23188 11-15-00 62 48 55 0 10 0 3.8 14 49 45
SAN 23188 11-16-00 61 47 54 0 11 0 3.7 12 49 45
SAN 23188 11-17-00 68 48 58 0 7 0 4.6 15 49 39
SAN 23188 11-18-00 67 44 56 0 9 0 3.5 16 47 37
SAN 23188 11-19-00 74 47 61 0 4 0 3.3 12 48 36
SAN 23188 11-20-00 47 62 0 3 0 3.2 16 50 38
SAN 23188 11-21-00 70 54 62 0 3 0 3.9 12 53 46
SAN 23188 11-22-00 61 54 58 0 7 0 5.6 13 53 50
SAN 23188 11-23-00 63 50 57 0 8 0 3.7 15 52 49
SAN 23188 11-24-00 63 48 56 0 9 0 2.7 9 52 48
SAN 23188 11-25-00 66 48 57 0 8 0 3.5 13 53 51
SAN 23188 11-26-00 69 47 58 0 7 0 3.3 14 52 47
SAN 23188 11-27-00 67 49 58 0 7 0 3.2 12 53 49
SAN 23188 11-28-00 65 47 56 0 9 0 3.8 10 54 52
SAN 23188 11-29-00 64 53 59 0 6 0 4.6 14 55 53
SAN 23188 11-30-00 61 53 57 0 8 0 5.8 13 55 53
SAN 23188 12-01-00 62 51 57 0 8 0 3.3 9 54 52
SAN 23188 12-02-00 60 52 56 0 9 0 3.6 10 54 52
SAN 23188 12-03-00 63 46 55 0 10 0 3.7 13 53 52
SAN 23188 12-04-00 75 50 63 0 2 0 3 12 54 48
SAN 23188 12-05-00 76 55 0 4 12 54 44
SAN 23188 12-06-00 71 55 63 0 2 4.9 14 53 43
SAN 23188 12-07-00 69 58 64 0 1 5 17 58 55
SAN 23188 12-08-00 63 58 61 0 4 0 5.3 14 58 56
SAN 23188 12-09-00 64 58 61 0 4 0 5.2 13 57 55
SAN 23188 12-10-00 64 55 60 0 5 0 4.4 14 56 54
SAN 23188 12-11-00 64 51 58 0 7 0 4.6 18 53 51
SAN 23188 12-12-00 61 52 57 0 8 0.01 7.4 25 52 48
SAN 23188 12-13-00 60 48 54 0 11 0 4.4 12 50 46
SAN 23188 12-14-00 62 49 56 0 9 0 3.9 13 51 47
SAN 23188 12-15-00 61 49 55 0 10 0 3.4 14 52 49
SAN 23188 12-16-00 71 48 60 0 5 0 3.5 10 53 47
SAN 23188 12-17-00 75 49 62 0 3 0 2.2 13 46 30
SAN 23188 12-18-00 49 63 0 2 0 3 12 46 26
SAN 23188 12-19-00 74 48 61 0 4 0 3.2 13 43 18
SAN 23188 12-20-00 67 46 57 0 8 0 2.9 12 48 36
SAN 23188 12-21-00 62 47 55 0 10 0 4.3 10 52 51
SAN 23188 12-22-00 63 45 54 0 11 0 3 10 51 49
SAN 23188 12-23-00 59 46 53 0 12 0 3.8 10 50 48
SAN 23188 12-24-00 60 46 0 3.4 10 51 49
SAN 23188 12-25-00 71 44 58 0 7 0 4.1 14 49 42
SAN 23188 12-26-00 69 45 57 0 8 0 3 13 45 31
SAN 23188 12-27-00 73 45 59 0 6 0 4.1 14 46 30
SAN 23188 12-28-00 68 46 57 0 8 0 2.3 9 47 36
SAN 23188 12-29-00 72 45 59 0 6 0 3.1 12 49 39
SAN 23188 12-30-00 69 47 58 0 7 0 2.2 8 50 43
SAN 23188 12-31-00 68 44 56 0 9 0 3 15 50 45
SAN 23188 01-01-01 67 50 59 0 6 0 2.8 9 49 42
SAN 23188 01-02-01 74 44 59 0 6 0 4 17 49 40
SAN 23188 01-03-01 74 48 61 0 4 0 2.9 10 47 32
SAN 23188 01-04-01 49 0 3.6 15 46 23
SAN 23188 01-05-01 68 54 61 0 4 1.8 10 49 36
SAN 23188 01-06-01 67 53 60 0 5 0 3.7 10 52 44
SAN 23188 01-07-01 68 50 59 0 6 0 3.1 10 52 47
SAN 23188 01-08-01 59 53 56 0 9 0.31 5 15 54 52
SAN 23188 01-09-01 60 52 56 0 9 0.34 5.3 15 53 50
SAN 23188 01-10-01 60 51 56 0 9 0.09 9.5 22 52 49
SAN 23188 01-11-01 57 49 53 0 12 1.06 10.7 31 50 48
SAN 23188 01-12-01 55 48 52 0 13 0.82 6.8 17 48 46
SAN 23188 01-13-01 60 46 53 0 12 0 4 16 49 45
SAN 23188 01-14-01 59 45 52 0 13 0 3.2 14 49 45
SAN 23188 01-15-01 59 47 53 0 12 8.5 18 48 43
SAN 23188 01-16-01 58 44 51 0 14 0 6.5 16 44 36
SAN 23188 01-17-01 60 41 51 0 14 0 5.5 18 42 30
SAN 23188 01-18-01 61 42 52 0 13 0 2.8 9 42 30
SAN 23188 01-19-01 65 43 54 0 11 0 2.9 12 45 35
SAN 23188 01-20-01 68 46 57 0 8 0 3.9 10 49 42
SAN 23188 01-21-01 69 47 58 0 7 0 2.8 10 51 43
SAN 23188 01-22-01 62 49 56 0 9 0 2.9 10 52 50
SAN 23188 01-23-01 61 47 54 0 11 0 4.3 16 51 48
SAN 23188 01-24-01 57 47 52 0 13 0.06 4.4 18 50 48
SAN 23188 01-25-01 59 47 53 0 12 0 4.8 14 49 45
SAN 23188 01-26-01 53 45 0.58 5.8 16 47 45
SAN 23188 01-27-01 54 45 50 0 15 0.02 5.3 15 46 43
SAN 23188 01-28-01 59 45 52 0 13 0 4.6 14 48 44
SAN 23188 01-29-01 57 48 53 0 12 0 5.5 15 49 46
SAN 23188 01-30-01 61 45 53 0 12 0 4.4 13 49 45
SAN 23188 01-31-01 62 44 53 0 12 0 4.6 17 44 33
SAN 23188 02-01-01 66 42 54 0 11 0 3.6 15 45 35
SAN 23188 02-02-01 68 45 57 0 8 0 4.3 13 47 34
SAN 23188 02-03-01 78 49 64 0 1 0 3.6 14 51 39
SAN 23188 02-04-01 53 0 3.4 13 56 47
SAN 23188 02-05-01 74 54 64 0 1 0 3.3 10 56 49
SAN 23188 02-06-01 59 53 56 0 9 0 7.2 16 55 53
SAN 23188 02-07-01 56 43 50 0 15 0.06 13.1 23 46 40
SAN 23188 02-08-01 56 42 0 6.1 16 46 42
SAN 23188 02-09-01 58 44 51 0 14 3.8 13 47 42
SAN 23188 02-10-01 57 45 51 0 14 0.01 4.6 16 49 46
SAN 23188 02-11-01 58 47 53 0 12 0.03 6.4 14 50 46
SAN 23188 02-12-01 59 51 55 0 10 15 26 51 47
SAN 23188 02-13-01 58 47 53 0 12 0.57 12.6 33 49 46
SAN 23188 02-14-01 56 45 51 0 14 0.01 4.8 13 47 43
SAN 23188 02-15-01 59 44 52 0 13 0 4 15 48 44
SAN 23188 02-16-01 64 46 55 0 10 0 2.7 12 49 42
SAN 23188 02-17-01 67 50 59 0 6 0 3.2 10 51 45
SAN 23188 02-18-01 63 49 56 0 9 0 3.7 10 54 52
SAN 23188 02-19-01 61 51 56 0 9 7.5 16 55 53
SAN 23188 02-20-01 63 53 58 0 7 0.03 5.3 15 55 53
SAN 23188 02-21-01 64 48 56 0 9 0 5.9 20 53 50
SAN 23188 02-22-01 59 52 56 0 9 7 18 53 51
SAN 23188 02-23-01 56 46 51 0 14 0.36 6.9 25 48 45
SAN 23188 02-24-01 56 44 50 0 15 8.7 17 49 47
SAN 23188 02-25-01 56 51 54 0 11 0.6 9.8 22 52 50
SAN 23188 02-26-01 59 51 55 0 10 0.2 7.2 21 53 51
SAN 23188 02-27-01 59 50 55 0 10 0.28 7.8 15 52 49
SAN 23188 02-28-01 56 49 53 0 12 0.23 7 16 50 48
SAN 23188 03-01-01 63 47 55 0 10 0 6.2 20 51 48
SAN 23188 03-02-01 60 47 0 4.6 12 52 50
SAN 23188 03-03-01 61 53 57 0 8 6.3 12 53 51
SAN 23188 03-04-01 60 54 57 0 8 0 7.5 14 54 52
SAN 23188 03-05-01 65 53 59 0 6 0 11.2 23 55 50
SAN 23188 03-06-01 63 54 59 0 6 0.56 9.2 21 55 54
SAN 23188 03-07-01 62 53 58 0 7 0 4.5 13 54 52
SAN 23188 03-08-01 63 50 57 0 8 0 4.5 12 54 52
SAN 23188 03-09-01 59 52 56 0 9 0.01 9.8 25 53 50
SAN 23188 03-10-01 60 52 56 0 9 0.06 11.4 25 51 48
SAN 23188 03-11-01 59 52 56 0 9 0 6.6 12 51 48
SAN 23188 03-12-01 64 50 57 0 8 0 5.1 20 52 47
SAN 23188 03-13-01 64 49 57 0 8 0 5.2 15 55 52
SAN 23188 03-14-01 61 54 58 0 7 0 7.2 13 55 53
SAN 23188 03-15-01 61 55 58 0 7 0 6.5 16 55 53
SAN 23188 03-16-01 62 55 59 0 6 0 4.6 13 55 52
SAN 23188 03-17-01 65 53 59 0 6 0 5.4 16 56 54
SAN 23188 03-18-01 73 54 64 0 1 0 4 16 59 56
SAN 23188 03-19-01 56 0 5.7 15 60 56
SAN 23188 03-20-01 74 56 65 0 0 0 4.6 17 59 58
SAN 23188 03-21-01 62 55 59 0 6 0 5.6 14 57 56
SAN 23188 03-22-01 64 56 60 0 5 0 6.6 14 55 51
SAN 23188 03-23-01 64 58 61 0 4 0 8.4 18 56 53
SAN 23188 03-24-01 60 57 59 0 6 0 6.8 13 56 55
SAN 23188 03-25-01 66 57 62 0 3 0 7.2 17 57 55
SAN 23188 03-26-01 63 58 61 0 4 0 6.1 13 57 54
SAN 23188 03-27-01 64 55 60 0 5 0 5.5 13 57 55
SAN 23188 03-28-01 61 56 59 0 6 0 6.7 10 57 56
SAN 23188 03-29-01 61 57 59 0 6 0 6.3 10 57 55
SAN 23188 03-30-01 67 60 64 0 1 0 5.2 13 59 56
SAN 23188 03-31-01 66 58 62 0 3 0 5.3 13 58 56
SAN 23188 04-01-01 61 57 59 0 6 6.9 13 56 53
SAN 23188 04-02-01 62 56 59 0 6 0.04 8.5 16 54 50
SAN 23188 04-03-01 60 55 58 0 7 0 10.4 17 50 43
SAN 23188 04-04-01 60 54 57 0 8 8.5 15 48 39
SAN 23188 04-05-01 60 53 57 0 8 7.9 17 47 38
SAN 23188 04-06-01 60 52 56 0 9 0 8.1 16 50 45
SAN 23188 04-07-01 57 53 55 0 10 0.17 12.7 24 50 45
SAN 23188 04-08-01 59 49 54 0 11 0 6.8 16 47 39
SAN 23188 04-09-01 59 48 54 0 11 0.04 8.2 18 47 41
SAN 23188 04-10-01 60 46 0.24 8.2 15 49 44
SAN 23188 04-11-01 59 52 56 0 9 0 8 15 51 46
SAN 23188 04-12-01 62 55 59 0 6 0 8.2 15 52 46
SAN 23188 04-13-01 68 50 59 0 6 0 6.1 17 53 49
SAN 23188 04-14-01 64 53 59 0 6 0 5.3 13 54 50
SAN 23188 04-15-01 64 49 57 0 8 0 6.4 17 54 51
SAN 23188 04-16-01 66 53 60 0 5 0 7.2 17 56 53
SAN 23188 04-17-01 69 52 61 0 4 0 4.9 16 56 53
SAN 23188 04-18-01 66 57 62 0 3 0 4.7 16 58 56
SAN 23188 04-19-01 64 56 60 0 5 0 9.6 18 56 53
SAN 23188 04-20-01 62 54 58 0 7 0.08 8.9 16 53 49
SAN 23188 04-21-01 59 51 55 0 10 0.19 11.5 28 51 48
SAN 23188 04-22-01 63 49 56 0 9 0 5.9 15 53 50
SAN 23188 04-23-01 74 53 64 0 1 0 7.9 16 58 53
SAN 23188 04-24-01 58 0 5.2 16 61 55
SAN 23188 04-25-01 71 56 64 0 1 0 4.6 13 61 60
SAN 23188 04-26-01 64 55 60 0 5 0 5.9 13 58 57
SAN 23188 04-27-01 63 56 60 0 5 0 6.3 13 57 55
SAN 23188 04-28-01 62 56 59 0 6 0 6.2 13 56 53
SAN 23188 04-29-01 65 57 61 0 4 0 6 13 57 54
SAN 23188 04-30-01 65 58 62 0 3 0 5.6 13 58 56
SAN 23188 05-01-01 65 56 61 0 4 0 6.5 13 57 56
SAN 23188 05-02-01 62 56 8.3 17 57 55
SAN 23188 05-03-01 69 59 64 0 1 0 6 16 59 56
SAN 23188 05-04-01 69 59 64 0 1 0 6.8 14 60 57
SAN 23188 05-05-01 69 57 63 0 2 0 6.1 12 59 56
SAN 23188 05-06-01 70 59 65 0 0 0 5.5 12 61 59
SAN 23188 05-07-01 70 58 64 0 1 0 6.5 15 62 60
SAN 23188 05-08-01 58 65 0 0 0 6.5 15 62 60
SAN 23188 05-09-01 70 59 65 0 0 0 6.1 15 61 60
SAN 23188 05-10-01 65 60 63 0 2 0 5.5 14 60 59
SAN 23188 05-11-01 66 59 63 0 2 0 5.5 13 60 59
SAN 23188 05-12-01 64 60 62 0 3 5.9 12 60 58
SAN 23188 05-13-01 67 60 64 0 1 0 8.1 16 59 56
SAN 23188 05-14-01 65 61 63 0 2 0 7.3 17 59 57
SAN 23188 05-15-01 68 60 64 0 1 0 5.8 14 60 58
SAN 23188 05-16-01 67 59 63 0 2 0 5.4 13 60 58
SAN 23188 05-17-01 66 59 63 0 2 0 8.6 16 59 57
SAN 23188 05-18-01 67 61 64 0 1 0 7 14 60 58
SAN 23188 05-19-01 67 60 64 0 1 0 5.6 13 60 58
SAN 23188 05-20-01 70 62 66 1 0 0 6.9 17 61 59
SAN 23188 05-21-01 67 61 64 0 1 0 5.4 13 61 60
SAN 23188 05-22-01 70 62 66 1 0 0 8 18 62 61
SAN 23188 05-23-01 70 61 66 1 0 0 6.3 12 63 61
SAN 23188 05-24-01 67 60 64 0 1 0 8.6 17 61 59
SAN 23188 05-25-01 65 62 64 0 1 0 5.5 13 61 59
SAN 23188 05-26-01 64 61 63 0 2 0 5.2 9 60 58
SAN 23188 05-27-01 66 61 64 0 1 0.01 6.1 12 60 57
SAN 23188 05-28-01 67 60 64 0 1 0.01 8.1 14 59 55
SAN 23188 05-29-01 69 61 65 0 0 0 6.1 15 60 57
SAN 23188 05-30-01 69 61 65 0 0 0 6.4 13 61 59
SAN 23188 05-31-01 70 62 0 6.1 12 62 60
SAN 23188 06-01-01 66 62 64 0 1 0 6.1 13 60 58
SAN 23188 06-02-01 64 62 0 6.7 12 59 57
SAN 23188 06-03-01 65 62 64 0 1 0 8.2 15 58 55
SAN 23188 06-04-01 67 61 64 0 1 0 8.7 14 57 53
SAN 23188 06-05-01 68 62 65 0 0 0 6.4 14 59 56
SAN 23188 06-06-01 69 61 65 0 0 0 5.8 14 60 57
SAN 23188 06-07-01 69 62 66 1 0 0 5 12 61 59
SAN 23188 06-08-01 71 62 67 2 0 0 5.6 12 63 62
SAN 23188 06-09-01 72 64 68 3 0 0 6.5 13 64 63
SAN 23188 06-10-01 70 63 67 2 0 0 5.7 12 63 62
SAN 23188 06-11-01 70 63 67 2 0 0 6.9 12 62 60
SAN 23188 06-12-01 67 62 65 0 0 0 9.6 17 61 59
SAN 23188 06-13-01 69 62 66 1 0 0 8.2 15 62 60
SAN 23188 06-14-01 73 60 67 2 0 0 6.1 14 64 63
SAN 23188 06-15-01 73 62 68 3 0 0 5.4 12 65 63
SAN 23188 06-16-01 73 63 68 3 0 0 5.9 12 65 64
SAN 23188 06-17-01 73 63 68 3 0 0 7.8 18 65 64
SAN 23188 06-18-01 75 62 69 4 0 0 6.2 13 65 64
SAN 23188 06-19-01 76 63 70 5 0 0 5.7 14 66 64
SAN 23188 06-20-01 77 64 71 6 0 0 5.5 12 66 64
SAN 23188 06-21-01 74 65 70 5 0 0 4.9 10 67 65
SAN 23188 06-22-01 66 0 6 15 68 66
SAN 23188 06-23-01 78 66 72 7 0 0 6.4 13 67 65
SAN 23188 06-24-01 73 66 70 5 0 0 5.3 12 65 63
SAN 23188 06-25-01 75 65 70 5 0 0 6.1 13 65 63
SAN 23188 06-26-01 75 66 71 6 0 0 6.3 14 65 63
SAN 23188 06-27-01 76 64 70 5 0 0 9.4 18 65 63
SAN 23188 06-28-01 76 64 70 5 0 0 8.7 18 65 63
SAN 23188 06-29-01 72 64 68 3 0 0 8.4 16 64 62
SAN 23188 06-30-01 74 64 69 4 0 0 5.8 12 65 63
SAN 23188 07-01-01 75 66 71 6 0 0 5.6 15 66 64
SAN 23188 07-02-01 75 66 71 6 0 0 4.9 14 67 66
SAN 23188 07-03-01 67 74 9 0 0 5.1 17 69 67
SAN 23188 07-04-01 78 69 74 9 0 5.3 12 70 69
SAN 23188 07-05-01 80 68 5.8 14 70 69
SAN 23188 07-06-01 76 68 72 7 0 0 6.1 12 68 67
SAN 23188 07-07-01 77 67 72 7 0 0 8.1 16 68 67
SAN 23188 07-08-01 75 67 71 6 0 0 9.6 18 67 65
SAN 23188 07-09-01 72 65 69 4 0 0 8 16 65 63
SAN 23188 07-10-01 72 65 69 4 0 0 9 17 64 61
SAN 23188 07-11-01 72 64 68 3 0 0 9.1 18 63 61
SAN 23188 07-12-01 72 64 68 3 0 0 9.2 18 64 62
SAN 23188 07-13-01 71 64 68 3 0 0 7.3 14 64 62
SAN 23188 07-14-01 68 62 0 6.2 12 62 60
SAN 23188 07-15-01 69 63 66 1 0 0 6.7 14 60 57
SAN 23188 07-16-01 70 63 67 2 0 6.2 13 60 56
SAN 23188 07-17-01 71 63 67 2 0 0 6 13 61 58
SAN 23188 07-18-01 72 63 68 3 0 0 6.5 14 62 59
SAN 23188 07-19-01 73 63 68 3 0 0 6.2 14 62 59
SAN 23188 07-20-01 72 63 68 3 0 0 6.4 14 62 59
SAN 23188 07-21-01 72 65 69 4 0 0 6.4 14 63 60
SAN 23188 07-22-01 73 64 69 4 0 0 7.5 15 63 60
SAN 23188 07-23-01 71 64 68 3 0 0 7.7 14 62 58
SAN 23188 07-24-01 71 64 68 3 0 0 7.1 15 61 58
SAN 23188 07-25-01 72 65 69 4 0 0 7.1 14 62 59
SAN 23188 07-26-01 73 65 69 4 0 0 7.7 16 64 61
SAN 23188 07-27-01 74 67 71 6 0 0 6.7 14 65 62
SAN 23188 07-28-01 74 66 70 5 0 0 6.8 13 65 63
SAN 23188 07-29-01 71 65 68 3 0 0 6.7 12 63 60
SAN 23188 07-30-01 71 65 68 3 0 0 6.3 13 62 59
SAN 23188 07-31-01 71 64 68 3 0 0 6.2 14 62 59
SAN 23188 08-01-01 72 66 69 4 0 0 6.3 13 63 60
SAN 23188 08-02-01 73 65 69 4 0 0 6.2 14 65 63
SAN 23188 08-03-01 73 66 70 5 0 0 7.9 15 65 64
SAN 23188 08-04-01 73 66 70 5 0 0 7.5 15 66 65
SAN 23188 08-05-01 73 65 69 4 0 0 6.9 14 66 65
SAN 23188 08-06-01 75 65 70 5 0 0 7.5 14 68 67
SAN 23188 08-07-01 74 67 71 6 0 0 6.9 14 68 67
SAN 23188 08-08-01 74 66 70 5 0 0 6.6 14 67 66
SAN 23188 08-09-01 74 66 70 5 0 0 7.5 17 67 65
SAN 23188 08-10-01 73 67 70 5 0 0 8.7 16 67 65
SAN 23188 08-11-01 72 65 69 4 0 0 6.4 13 65 64
SAN 23188 08-12-01 73 67 70 5 0 0 5.8 13 66 64
SAN 23188 08-13-01 76 67 72 7 0 0 7.1 16 68 66
SAN 23188 08-14-01 78 68 73 8 0 0 7.4 14 69 67
SAN 23188 08-15-01 75 68 72 7 0 0 7 15 68 67
SAN 23188 08-16-01 75 67 71 6 0 0 7.3 15 67 66
SAN 23188 08-17-01 75 68 72 7 0 0 6.5 16 68 67
SAN 23188 08-18-01 68 74 9 0 0 5.1 12 69 67
SAN 23188 08-19-01 79 68 0 6 10 68 66
SAN 23188 08-20-01 75 66 71 6 0 0 5.7 13 66 64
SAN 23188 08-21-01 71 64 68 3 0 0 6.4 12 63 60
SAN 23188 08-22-01 69 63 66 1 0 0 6.2 13 61 58
SAN 23188 08-23-01 73 66 70 5 0 0 6.9 15 64 61
SAN 23188 08-24-01 73 65 69 4 0 0 6.7 16 65 63
SAN 23188 08-25-01 71 64 68 3 0 0 5.2 10 64 62
SAN 23188 08-26-01 75 63 69 4 0 0 4.6 10 64 62
SAN 23188 08-27-01 72 62 67 2 0 0 4.9 12 64 63
SAN 23188 08-28-01 69 61 0 6.3 14 63 62
SAN 23188 08-29-01 71 63 67 2 0 0 8.3 16 64 63
SAN 23188 08-30-01 73 66 70 5 0 0 7.2 14 65 63
SAN 23188 08-31-01 72 66 69 4 0 0 5.6 12 65 64
SAN 23188 09-01-01 75 65 70 5 0 0 5.4 13 67 65
SAN 23188 09-02-01 75 67 71 6 0 0 7.4 15 68 67
SAN 23188 09-03-01 72 66 69 4 0 0 6.5 13 67 66
SAN 23188 09-04-01 75 66 71 6 0 0 7.6 18 67 66
SAN 23188 09-05-01 74 64 69 4 0 0 5.8 12 66 65
SAN 23188 09-06-01 69 63 66 1 0 0 7.6 14 63 62
SAN 23188 09-07-01 69 63 0 6.9 13 61 58
SAN 23188 09-08-01 71 63 67 2 0 0 6.3 15 62 60
SAN 23188 09-09-01 68 65 67 2 0 7.7 15 64 63
SAN 23188 09-10-01 70 64 67 2 0 0 5.9 14 64 63
SAN 23188 09-11-01 72 64 68 3 0 0 5.9 16 64 62
SAN 23188 09-12-01 73 64 69 4 0 0 7.8 16 65 63
SAN 23188 09-13-01 72 62 67 2 0 0 6.2 15 64 63
SAN 23188 09-14-01 74 62 68 3 0 0 6.9 18 65 64
SAN 23188 09-15-01 74 62 68 3 0 0 5.6 14 65 64
SAN 23188 09-16-01 73 65 69 4 0 0 5.8 12 65 63
SAN 23188 09-17-01 71 63 67 2 0 0 6.4 12 63 61
SAN 23188 09-18-01 71 64 68 3 0 0 6.8 14 64 62
SAN 23188 09-19-01 72 64 68 3 0 0 7.9 16 64 63
SAN 23188 09-20-01 71 64 68 3 0 0 6.8 17 64 63
SAN 23188 09-21-01 72 64 68 3 0 0 8.5 17 65 64
SAN 23188 09-22-01 71 62 67 2 0 0 7.3 15 64 63
SAN 23188 09-23-01 72 62 67 2 0 0 8.2 16 64 63
SAN 23188 09-24-01 79 60 70 5 0 0 7.3 15 66 64
SAN 23188 09-25-01 65 0 6.5 16 67 64
SAN 23188 09-26-01 74 62 68 3 0 0 5.2 12 66 64
SAN 23188 09-27-01 74 61 68 3 0 0 5.2 12 64 63
SAN 23188 09-28-01 75 60 68 3 0 0 5 15 63 62
SAN 23188 09-29-01 76 60 68 3 0 0 4.6 12 63 62
SAN 23188 09-30-01 78 61 70 5 0 0 4.5 21 66 64
SAN 23188 10-01-01 68 0 5.6 17 68 66
SAN 23188 10-02-01 71 65 68 3 0 0 5.6 14 67 66
SAN 23188 10-03-01 72 63 68 3 0 0 5 10 65 64
SAN 23188 10-04-01 72 64 68 3 0 0 5.8 12 65 63
SAN 23188 10-05-01 67 63 65 0 0 0 5.9 13 61 58
SAN 23188 10-06-01 69 63 66 1 0 0 6.1 13 60 56
SAN 23188 10-07-01 71 65 68 3 0 0 6.2 15 61 58
SAN 23188 10-08-01 68 64 66 1 0 0 6 15 62 59
SAN 23188 10-09-01 66 63 65 0 0 0 4.2 12 60 58
SAN 23188 10-10-01 70 63 67 2 0 0 8.5 18 62 60
SAN 23188 10-11-01 71 61 66 1 0 0 5.5 14 62 61
SAN 23188 10-12-01 75 62 69 4 0 0 4.9 13 63 60
SAN 23188 10-13-01 83 56 70 5 0 0 3.9 15 62 60
SAN 23188 10-14-01 75 60 68 3 0 0 3.7 13 63 60
SAN 23188 10-15-01 75 60 68 3 0 0 3.9 10 63 61
SAN 23188 10-16-01 73 59 66 1 0 0 5.7 16 63 61
SAN 23188 10-17-01 70 59 65 0 0 0 6.9 15 61 59
SAN 23188 10-18-01 71 56 64 0 1 0 6.3 17 61 59
SAN 23188 10-19-01 73 59 66 1 0 0 5.4 18 62 61
SAN 23188 10-20-01 69 62 66 1 0 0 5 14 62 60
SAN 23188 10-21-01 68 63 66 1 0 0 4.5 12 62 60
SAN 23188 10-22-01 69 63 66 1 0 0 4.4 13 62 60
SAN 23188 10-23-01 67 62 65 0 0 0 5.3 12 61 59
SAN 23188 10-24-01 67 61 64 0 1 0 4.8 12 61 59
SAN 23188 10-25-01 70 58 64 0 1 0 5.4 13 63 61
SAN 23188 10-26-01 68 59 0 7.5 16 63 62
SAN 23188 10-27-01 69 62 66 1 0 0 5 14 63 61
SAN 23188 10-28-01 68 62 65 0 0 0 5 14 62 59
SAN 23188 10-29-01 72 61 67 2 0 0 7.3 20 62 60
SAN 23188 10-30-01 71 59 65 0 0 0 6.9 20 62 60
SAN 23188 10-31-01 70 63 67 2 0 0 5.9 15 63 61
SAN 23188 11-01-01 67 61 64 0 1 0 5.1 14 60 58
SAN 23188 11-02-01 67 60 64 0 1 0 5.8 15 60 58
SAN 23188 11-03-01 67 59 63 0 2 0 7.2 16 61 59
SAN 23188 11-04-01 70 63 67 2 0 0.24 7.9 20 64 63
SAN 23188 11-05-01 67 61 64 0 1 0.04 5.8 14 62 61
SAN 23188 11-06-01 63 60 62 0 3 0 4 9 61 60
SAN 23188 11-07-01 63 60 62 0 3 0 4.3 9 60 59
SAN 23188 11-08-01 71 55 63 0 2 0 4.6 15 61 60
SAN 23188 11-09-01 65 59 62 0 3 0 4.7 10 61 61
SAN 23188 11-10-01 67 62 65 0 0 0 4.6 13 61 58
SAN 23188 11-11-01 73 61 4.6 14 62 60
SAN 23188 11-12-01 70 59 65 0 0 0.19 5.2 16 62 60
SAN 23188 11-13-01 65 57 61 0 4 0 5.5 14 57 55
SAN 23188 11-14-01 67 53 60 0 5 0 4.3 16 57 54
SAN 23188 11-15-01 70 54 62 0 3 0 3.5 9 58 55
SAN 23188 11-16-01 71 52 62 0 3 0 5 16 58 56
SAN 23188 11-17-01 68 54 61 0 4 0 4.9 13 58 57
SAN 23188 11-18-01 70 53 62 0 3 0 5.1 13 58 56
SAN 23188 11-19-01 71 49 60 0 5 0 3.8 12 56 55
SAN 23188 11-20-01 55 65 0 0 0 3.9 18 58 55
SAN 23188 11-21-01 70 56 63 0 2 0 3.9 12 59 56
SAN 23188 11-22-01 66 60 63 0 2 5.9 14 60 58
SAN 23188 11-23-01 67 57 62 0 3 0 4.3 10 58 55
SAN 23188 11-24-01 64 53 59 0 6 0.36 7.9 22 56 53
SAN 23188 11-25-01 62 54 58 0 7 0 7.6 18 52 45
SAN 23188 11-26-01 63 52 58 0 7 0 4.2 13 51 45
SAN 23188 11-27-01 64 47 56 0 9 0 5.5 17 45 31
SAN 23188 11-28-01 63 44 0 3.4 13 42 26
SAN 23188 11-29-01 60 52 56 0 9 0.12 8.8 24 50 44
SAN 23188 11-30-01 62 52 57 0 8 0 3.7 12 53 50
SAN 23188 12-01-01 62 47 55 0 10 0 3 13 51 47
SAN 23188 12-02-01 62 48 55 0 10 0 3.9 10 52 48
SAN 23188 12-03-01 62 53 58 0 7 0.14 6.1 16 54 51
SAN 23188 12-04-01 61 50 56 0 9 4.3 14 50 46
SAN 23188 12-05-01 62 45 54 0 11 0 4.5 14 49 44
SAN 23188 12-06-01 69 47 58 0 7 0 5 16 51 45
SAN 23188 12-07-01 75 49 62 0 3 0 2.2 10 52 43
SAN 23188 12-08-01 50 0 2.3 10 48 32
SAN 23188 12-09-01 63 48 56 0 9 8 21 48 36
SAN 23188 12-10-01 59 48 54 0 11 0.08 4.9 20 50 47
SAN 23188 12-11-01 59 47 53 0 12 0 4.6 15 48 44
SAN 23188 12-12-01 61 49 55 0 10 0 6.2 14 50 45
SAN 23188 12-13-01 62 46 54 0 11 0 3.1 10 48 42
SAN 23188 12-14-01 58 46 52 0 13 0.04 7.4 21 48 43
SAN 23188 12-15-01 59 45 52 0 13 0 5 17 47 42
SAN 23188 12-16-01 61 43 52 0 13 0 3.1 9 43 31
SAN 23188 12-17-01 62 42 0 3.9 16 47 40
SAN 23188 12-18-01 61 44 53 0 12 0 5 16 50 46
SAN 23188 12-19-01 71 46 59 0 6 0 4.7 13 52 49
SAN 23188 12-20-01 60 46 53 0 12 0 3.9 12 51 49
SAN 23188 12-21-01 58 50 54 0 11 0.19 7.4 21 52 48
SAN 23188 12-22-01 60 47 54 0 11 5.6 15 50 47
SAN 23188 12-23-01 61 48 55 0 10 0.01 3.5 12 52 49
SAN 23188 12-24-01 66 45 56 0 9 0 2.3 14 48 41
SAN 23188 12-25-01 67 45 56 0 9 0 3.3 13 46 36
SAN 23188 12-26-01 64 42 53 0 12 0 3.4 15 47 38
SAN 23188 12-27-01 67 47 57 0 8 0 3.3 13 50 45
SAN 23188 12-28-01 65 48 57 0 8 0 2.3 10 51 46
SAN 23188 12-29-01 65 52 59 0 6 3 10 52 47
SAN 23188 12-30-01 62 56 59 0 6 3.6 9 56 54
SAN 23188 12-31-01 63 56 60 0 5 0 3.8 13 57 55
SAN 23188 01-01-02 62 50 56 0 9 0 3.7 13 54 53
SAN 23188 01-02-02 62 54 58 0 7 0 5.1 13 54 52
SAN 23188 01-03-02 63 56 60 0 5 0.14 3.7 15 56 54
SAN 23188 01-04-02 64 53 59 0 6 0 4.6 15 54 52
SAN 23188 01-05-02 69 49 59 0 6 0 3.7 13 51 45
SAN 23188 01-06-02 67 48 58 0 7 0 3.8 15 50 43
SAN 23188 01-07-02 75 52 0 4.3 15 53 46
SAN 23188 01-08-02 67 51 59 0 6 0 3.8 12 55 52
SAN 23188 01-09-02 61 55 58 0 7 0 6.1 13 55 53
SAN 23188 01-10-02 64 50 57 0 8 0 4.9 16 54 51
SAN 23188 01-11-02 74 48 61 0 4 0 5.4 20 49 37
SAN 23188 01-12-02 49 63 0 2 0 3.2 12 48 32
SAN 23188 01-13-02 63 42 53 0 12 0 2.4 9 50 47
SAN 23188 01-14-02 58 52 55 0 10 0 6.5 13 52 50
SAN 23188 01-15-02 60 57 59 0 6 0 8.9 17 53 49
SAN 23188 01-16-02 61 51 56 0 9 0 4.6 13 51 47
SAN 23188 01-17-02 62 46 54 0 11 0 4.7 15 49 45
SAN 23188 01-18-02 61 45 53 0 12 4.5 16 47 41
SAN 23188 01-19-02 63 44 54 0 11 0 3.5 13 45 35
SAN 23188 01-20-02 63 44 54 0 11 0 5 15 46 37
SAN 23188 01-21-02 64 44 54 0 11 4.1 12 47 38
SAN 23188 01-22-02 59 52 56 0 9 0 9.2 17 51 46
SAN 23188 01-23-02 62 49 56 0 9 0 6.3 20 45 30
SAN 23188 01-24-02 61 43 52 0 13 0 5.2 16 42 24
SAN 23188 01-25-02 67 43 55 0 10 4.5 15 47 35
SAN 23188 01-26-02 61 46 54 0 11 0 4.2 9 50 45
SAN 23188 01-27-02 59 50 55 0 10 0 6.8 13 51 47
SAN 23188 01-28-02 57 50 54 0 11 0.12 6.6 20 49 45
SAN 23188 01-29-02 53 45 49 0 16 0.06 5.5 13 44 39
SAN 23188 01-30-02 56 39 0 6.4 18 40 28
SAN 23188 01-31-02 58 40 49 0 16 0 4.7 15 41 28
SAN 23188 02-01-02 58 41 0 4.4 13 42 31
SAN 23188 02-02-02 61 42 52 0 13 0 3.5 12 46 38
SAN 23188 02-03-02 64 43 54 0 11 0 4.1 16 46 38
SAN 23188 02-04-02 65 43 54 0 11 0 2.9 13 45 34
SAN 23188 02-05-02 68 44 56 0 9 0 2.9 13 46 36
SAN 23188 02-06-02 65 43 54 0 11 0 3.8 10 48 41
SAN 23188 02-07-02 60 46 53 0 12 0 5.2 14 51 48
SAN 23188 02-08-02 64 47 56 0 9 0 4.3 16 51 48
SAN 23188 02-09-02 76 48 62 0 3 0 4.8 14 49 34
SAN 23188 02-10-02 76 49 63 0 2 0 4.7 17 44 19
SAN 23188 02-11-02 75 47 61 0 4 0 5.6 15 46 24
SAN 23188 02-12-02 66 47 57 0 8 0 3.3 10 49 39
SAN 23188 02-13-02 68 45 57 0 8 0 3.3 12 51 48
SAN 23188 02-14-02 61 54 58 0 7 0 4.2 12 53 50
SAN 23188 02-15-02 63 50 57 0 8 0 4.6 15 53 51
SAN 23188 02-16-02 61 56 59 0 6 0 5.2 16 53 49
SAN 23188 02-17-02 58 53 56 0 9 0.17 6.8 16 52 48
SAN 23188 02-18-02 59 50 55 0 10 6.7 16 49 43
SAN 23188 02-19-02 61 47 54 0 11 0 4.6 15 49 45
SAN 23188 02-20-02 63 49 56 0 9 0 5 16 53 49
SAN 23188 02-21-02 79 50 65 0 0 0 4.8 13 55 48
SAN 23188 02-22-02 53 0 3.9 17 51 30
SAN 23188 02-23-02 67 55 61 0 4 0 5.8 16 53 47
SAN 23188 02-24-02 64 55 60 0 5 0 5.9 14 54 51
SAN 23188 02-25-02 65 51 58 0 7 0 4.3 12 55 53
SAN 23188 02-26-02 77 49 63 0 2 0 4.8 16 54 49
SAN 23188 02-27-02 65 52 59 0 6 0 4.1 12 55 54
SAN 23188 02-28-02 58 56 57 0 8 0 7.3 13 53 50
SAN 23188 03-01-02 64 57 61 0 4 0 7.9 18 54 51
SAN 23188 03-02-02 69 52 61 0 4 0 5.5 14 49 34
SAN 23188 03-03-02 68 47 58 0 7 0 4.9 13 43 19
SAN 23188 03-04-02 45 59 0 6 0 5.8 18 46 30
SAN 23188 03-05-02 65 48 57 0 8 0 4.2 14 50 42
SAN 23188 03-06-02 64 50 57 0 8 4.8 14 54 50
SAN 23188 03-07-02 60 56 58 0 7 0.03 6.7 18 56 54
SAN 23188 03-08-02 59 52 56 0 9 0.01 8.4 21 49 43
SAN 23188 03-09-02 69 48 59 0 6 0 4.3 16 52 47
SAN 23188 03-10-02 67 52 60 0 5 0 5.9 17 54 50
SAN 23188 03-11-02 67 51 59 0 6 0 5.2 13 55 51
SAN 23188 03-12-02 63 55 59 0 6 0 6.8 12 55 53
SAN 23188 03-13-02 64 58 61 0 4 0 10.9 23 54 49
SAN 23188 03-14-02 60 53 57 0 8 0 10.8 24 47 37
SAN 23188 03-15-02 62 49 56 0 9 0.02 9.3 21 48 41
SAN 23188 03-16-02 60 50 55 0 10 0.02 13.4 22 48 42
SAN 23188 03-17-02 59 47 0.31 10.7 28 49 43
SAN 23188 03-18-02 60 47 54 0 11 0.06 9 25 48 42
SAN 23188 03-19-02 67 47 57 0 8 0 5.2 15 49 40
SAN 23188 03-20-02 68 48 58 0 7 0 5.2 20 51 44
SAN 23188 03-21-02 68 53 0 4.8 15 54 50
SAN 23188 03-22-02 65 53 59 0 6 0 5.8 17 53 50
SAN 23188 03-23-02 63 54 59 0 6 7.9 16 54 51
SAN 23188 03-24-02 61 54 58 0 7 0.01 9.9 20 52 48
SAN 23188 03-25-02 62 51 57 0 8 0 5.6 16 52 47
SAN 23188 03-26-02 63 52 58 0 7 0 5.8 15 53 50
SAN 23188 03-27-02 58 54 56 0 9 0 5.3 14 52 48
SAN 23188 03-28-02 60 56 58 0 7 0 5.1 12 51 46
SAN 23188 03-29-02 62 53 58 0 7 5.7 17 53 49
SAN 23188 03-30-02 62 56 59 0 6 0 7.2 17 55 52
SAN 23188 03-31-02 61 54 58 0 7 0 6.8 16 55 53
SAN 23188 04-01-02 61 54 58 0 7 0 5.3 12 54 52
SAN 23188 04-02-02 60 55 58 0 7 0 6.3 13 53 50
SAN 23188 04-03-02 61 55 58 0 7 0 7.7 14 53 50
SAN 23188 04-04-02 63 56 60 0 5 0 7.6 16 53 48
SAN 23188 04-05-02 64 55 60 0 5 0 6.2 16 53 48
SAN 23188 04-06-02 62 55 59 0 6 0.09 6.4 17 55 53
SAN 23188 04-07-02 63 57 60 0 5 0 7.2 15 55 51
SAN 23188 04-08-02 65 58 62 0 3 0 6.4 14 56 51
SAN 23188 04-09-02 65 51 58 0 7 0 9 18 57 54
SAN 23188 04-10-02 64 55 60 0 5 0 4.7 14 56 54
SAN 23188 04-11-02 63 56 60 0 5 0 5.3 12 56 54
SAN 23188 04-12-02 61 56 59 0 6 0 6 12 56 54
SAN 23188 04-13-02 66 57 62 0 3 0 5.6 13 57 55
SAN 23188 04-14-02 61 57 59 0 6 0 6.5 15 57 56
SAN 23188 04-15-02 59 56 58 0 7 0.05 11.5 21 55 52
SAN 23188 04-16-02 62 54 58 0 7 0 10.4 16 53 48
SAN 23188 04-17-02 62 55 59 0 6 0.02 9.7 18 53 48
SAN 23188 04-18-02 64 53 59 0 6 0 6.9 17 52 46
SAN 23188 04-19-02 64 52 0 8.5 17 52 46
SAN 23188 04-20-02 64 54 59 0 6 0 7.9 14 54 50
SAN 23188 04-21-02 66 51 59 0 6 0 8.5 18 55 52
SAN 23188 04-22-02 69 54 62 0 3 0 6.7 18 56 52
SAN 23188 04-23-02 58 0 7.1 16 58 55
SAN 23188 04-24-02 64 57 61 0 4 0.22 7.1 14 57 54
SAN 23188 04-25-02 65 58 62 0 3 0 6.7 15 57 53
SAN 23188 04-26-02 64 56 60 0 5 0.25 9.2 20 55 52
SAN 23188 04-27-02 63 56 60 0 5 8.6 15 53 48
SAN 23188 04-28-02 66 53 60 0 5 0 8.2 18 54 50
SAN 23188 04-29-02 66 54 60 0 5 0 6.8 18 55 51
SAN 23188 04-30-02 62 56 59 0 6 8.8 18 54 50
SAN 23188 05-01-02 62 56 59 0 6 0 8.5 15 53 47
SAN 23188 05-02-02 64 54 59 0 6 0 6.8 14 53 48
SAN 23188 05-03-02 64 54 59 0 6 0 7.2 16 55 52
SAN 23188 05-04-02 64 55 60 0 5 0 5.9 15 55 52
SAN 23188 05-05-02 63 57 60 0 5 0 5.1 13 55 51
SAN 23188 05-06-02 64 56 60 0 5 0 6.6 14 55 51
SAN 23188 05-07-02 62 56 6.6 14 55 53
SAN 23188 05-08-02 63 57 60 0 5 0 5.9 14 55 52
SAN 23188 05-09-02 66 57 62 0 3 0 7.7 17 57 54
SAN 23188 05-10-02 65 57 61 0 4 0 9.2 14 56 51
SAN 23188 05-11-02 66 57 62 0 3 0 7 16 55 51
SAN 23188 05-12-02 56 0 6.6 18 60 55
SAN 23188 05-13-02 76 60 68 3 0 0 6.6 17 61 57
SAN 23188 05-14-02 67 60 64 0 1 0 6.6 12 59 56
SAN 23188 05-15-02 62 58 60 0 5 0 8.9 14 56 53
SAN 23188 05-16-02 63 57 60 0 5 6.8 13 56 53
SAN 23188 05-17-02 66 59 63 0 2 0 5 13 57 54
SAN 23188 05-18-02 62 59 61 0 4 0 6.9 12 57 54
SAN 23188 05-19-02 65 58 62 0 3 0 6.8 15 57 54
SAN 23188 05-20-02 66 59 63 0 2 10.1 18 57 53
SAN 23188 05-21-02 65 58 62 0 3 0 10.1 18 54 49
SAN 23188 05-22-02 68 54 61 0 4 0 6.5 16 56 52
SAN 23188 05-23-02 65 58 62 0 3 0 7.2 14 57 54
SAN 23188 05-24-02 64 58 61 0 4 0 6.9 13 56 53
SAN 23188 05-25-02 64 58 61 0 4 0 5.2 14 55 52
SAN 23188 05-26-02 65 59 62 0 3 0 6.2 14 56 52
SAN 23188 05-27-02 67 60 64 0 1 0 6.5 16 57 54
SAN 23188 05-28-02 68 60 64 0 1 0 6 15 59 56
SAN 23188 05-29-02 68 59 64 0 1 0 5.7 13 60 58
SAN 23188 05-30-02 70 58 64 0 1 0 7.1 18 60 58
SAN 23188 05-31-02 69 61 65 0 0 0 5.9 13 61 59
SAN 23188 06-01-02 69 61 65 0 0 0 6.9 15 59 55
SAN 23188 06-02-02 67 60 64 0 1 0 7.2 10 58 53
SAN 23188 06-03-02 65 59 62 0 3 0 8.1 14 56 52
SAN 23188 06-04-02 69 60 65 0 0 0 5.4 13 60 56
SAN 23188 06-05-02 71 61 66 1 0 0 6.5 13 61 59
SAN 23188 06-06-02 69 60 65 0 0 0 5.2 13 61 59
SAN 23188 06-07-02 66 59 63 0 2 0 8.2 17 60 58
SAN 23188 06-08-02 64 59 62 0 3 8.7 15 58 55
SAN 23188 06-09-02 65 59 9.8 16 57 54
SAN 23188 06-10-02 67 61 64 0 1 0 9.2 15 57 53
SAN 23188 06-11-02 67 62 65 0 0 0 6.9 14 58 54
SAN 23188 06-12-02 69 61 65 0 0 0 8.2 17 59 55
SAN 23188 06-13-02 69 62 66 1 0 0 9.7 18 60 57
SAN 23188 06-14-02 70 62 66 1 0 0 8.4 16 61 58
SAN 23188 06-15-02 73 59 66 1 0 0 6.1 12 62 59
SAN 23188 06-16-02 74 61 0 5.5 10 62 60
SAN 23188 06-17-02 72 62 67 2 0 0 5 10 63 60
SAN 23188 06-18-02 71 62 67 2 0 0 7.7 12 61 59
SAN 23188 06-19-02 67 61 64 0 1 0 10.7 16 61 59
SAN 23188 06-20-02 64 61 63 0 2 0 7.1 12 59 57
SAN 23188 06-21-02 68 61 65 0 0 6.8 13 59 56
SAN 23188 06-22-02 71 62 67 2 0 0 7.7 15 60 56
SAN 23188 06-23-02 69 61 65 0 0 0 5.8 13 60 57
SAN 23188 06-24-02 67 60 64 0 1 0 5.7 12 59 56
SAN 23188 06-25-02 60 67 2 0 0 7.9 17 61 59
SAN 23188 06-26-02 70 62 66 1 0 0 7.6 15 61 58
SAN 23188 06-27-02 68 61 65 0 0 0 6.3 13 59 56
SAN 23188 06-28-02 69 60 65 0 0 0 6.8 13 59 56
SAN 23188 06-29-02 67 61 64 0 1 0 7.1 13 59 56
SAN 23188 06-30-02 69 61 65 0 0 0 6 12 60 57
SAN 23188 07-01-02 71 61 66 1 0 0 6.1 13 61 59
SAN 23188 07-02-02 72 63 68 3 0 0 7.2 15 62 60
SAN 23188 07-03-02 70 62 66 1 0 0 8.7 16 61 58
SAN 23188 07-04-02 68 62 65 0 0 0 7.6 13 59 56
SAN 23188 07-05-02 68 62 0 7.6 14 59 56
SAN 23188 07-06-02 68 63 66 1 0 0 4.8 14 60 57
SAN 23188 07-07-02 69 63 66 1 0 0 6 12 62 60
SAN 23188 07-08-02 72 62 67 2 0 0 6.4 13 63 61
SAN 23188 07-09-02 71 62 67 2 0 0 5.7 13 63 61
SAN 23188 07-10-02 70 65 68 3 0 0 5.2 10 64 63
SAN 23188 07-11-02 75 65 70 5 0 0 5 10 65 63
SAN 23188 07-12-02 72 65 69 4 0 0 7 17 65 63
SAN 23188 07-13-02 73 65 69 4 0 0 8.3 17 64 62
SAN 23188 07-14-02 72 65 69 4 0 0 5.9 14 63 61
SAN 23188 07-15-02 71 65 68 3 0 0 6.4 12 64 61
SAN 23188 07-16-02 72 65 69 4 0 0 5.8 12 63 61
SAN 23188 07-17-02 75 65 70 5 0 0 7.2 13 63 60
SAN 23188 07-18-02 71 65 68 3 0 0 6.1 13 63 60
SAN 23188 07-19-02 70 62 66 1 0 0 6.2 13 62 59
SAN 23188 07-20-02 69 62 66 1 0 0 6.4 13 60 57
SAN 23188 07-21-02 70 63 67 2 0 0 5.9 13 61 57
SAN 23188 07-22-02 72 63 68 3 0 0 8.1 17 63 60
SAN 23188 07-23-02 75 66 71 6 0 0 7.5 17 65 62
SAN 23188 07-24-02 67 0 6 12 67 62
SAN 23188 07-25-02 78 67 73 8 0 0 5.2 12 67 64
SAN 23188 07-26-02 72 64 68 3 0 0 6.3 12 64 61
SAN 23188 07-27-02 69 63 66 1 0 0 7.8 14 60 57
SAN 23188 07-28-02 73 65 69 4 0 0 7.3 14 62 58
SAN 23188 07-29-02 72 62 67 2 0 0 9.1 17 63 60
SAN 23188 07-30-02 73 65 69 4 0 0 6 13 63 60
SAN 23188 07-31-02 73 65 69 4 0 0 7 15 64 62
SAN 23188 08-01-02 73 66 70 5 0 0 5.6 12 64 62
SAN 23188 08-02-02 72 65 69 4 0 0 6.2 14 64 62
SAN 23188 08-03-02 71 65 68 3 0 0 6.8 13 64 61
SAN 23188 08-04-02 73 64 69 4 0 0 8.3 17 64 62
SAN 23188 08-05-02 73 65 69 4 0 0 6 12 65 63
SAN 23188 08-06-02 74 64 69 4 0 5.3 12 64 61
SAN 23188 08-07-02 74 64 69 4 0 0 6.3 14 64 61
SAN 23188 08-08-02 75 61 68 3 0 0 8.1 16 65 63
SAN 23188 08-09-02 74 64 69 4 0 0 7.4 15 66 64
SAN 23188 08-10-02 74 63 69 4 0 0 6.4 14 66 64
SAN 23188 08-11-02 74 65 70 5 0 0 5.7 12 66 64
SAN 23188 08-12-02 78 65 72 7 0 5.6 13 65 64
SAN 23188 08-13-02 71 63 67 2 0 0 5.9 13 64 62
SAN 23188 08-14-02 74 65 70 5 0 5.8 14 65 63
SAN 23188 08-15-02 74 66 70 5 0 0 5.5 13 65 62
SAN 23188 08-16-02 73 65 69 4 0 0 7.1 12 64 61
SAN 23188 08-17-02 77 66 72 7 0 6.9 12 64 62
SAN 23188 08-18-02 69 64 67 2 0 0 7.9 14 63 61
SAN 23188 08-19-02 70 64 67 2 0 0 8.1 13 63 61
SAN 23188 08-20-02 72 66 69 4 0 0 7 13 64 61
SAN 23188 08-21-02 73 67 70 5 0 0 6.9 14 63 60
SAN 23188 08-22-02 75 65 70 5 0 7.5 14 63 60
SAN 23188 08-23-02 75 64 70 5 0 0 7.8 17 65 62
SAN 23188 08-24-02 74 63 69 4 0 0 7.4 16 65 63
SAN 23188 08-25-02 74 61 68 3 0 0 7.1 14 65 63
SAN 23188 08-26-02 73 63 68 3 0 0 5.3 13 64 62
SAN 23188 08-27-02 68 62 0 9.3 15 62 60
SAN 23188 08-28-02 70 64 67 2 0 0 7.7 15 62 59
SAN 23188 08-29-02 72 64 68 3 0 0 6.1 13 63 60
SAN 23188 08-30-02 74 64 69 4 0 0 8.4 17 64 62
SAN 23188 08-31-02 66 0 7.5 18 66 63
SAN 23188 09-01-02 68 0 5.8 18 67 60
SAN 23188 09-02-02 81 69 75 10 0 0 5.8 14 68 65
SAN 23188 09-03-02 79 65 72 7 0 0 4.8 14 67 66
SAN 23188 09-04-02 76 66 71 6 0 0 4.9 13 67 66
SAN 23188 09-05-02 73 67 70 5 0 5.6 15 68 66
SAN 23188 09-06-02 76 66 71 6 0 0.13 7.5 17 67 65
SAN 23188 09-07-02 73 65 69 4 0 0.18 5.7 13 64 62
SAN 23188 09-08-02 75 65 70 5 0 0 5.8 15 64 61
SAN 23188 09-09-02 78 64 71 6 0 0 5.2 13 64 59
SAN 23188 09-10-02 82 68 75 10 0 0 6 15 66 61
SAN 23188 09-11-02 77 66 72 7 0 0 5.2 13 67 64
SAN 23188 09-12-02 74 65 70 5 0 0 7.3 17 66 63
SAN 23188 09-13-02 75 65 70 5 0 0 6.7 15 65 63
SAN 23188 09-14-02 75 63 69 4 0 0 6.8 16 65 63
SAN 23188 09-15-02 74 65 70 5 0 0 7.3 15 66 64
SAN 23188 09-16-02 72 63 68 3 0 0 5.5 13 63 61
SAN 23188 09-17-02 68 60 0 7.8 14 60 58
SAN 23188 09-18-02 69 63 66 1 0 0 6.7 14 61 58
SAN 23188 09-19-02 72 62 67 2 0 0 5.6 13 63 61
SAN 23188 09-20-02 75 65 70 5 0 0 7.3 17 65 63
SAN 23188 09-21-02 76 63 70 5 0 0 6.9 16 65 63
SAN 23188 09-22-02 83 64 74 9 0 0 4.9 14 66 64
SAN 23188 09-23-02 83 63 73 8 0 0 4.8 16 66 64
SAN 23188 09-24-02 78 63 71 6 0 0 3.7 10 65 64
SAN 23188 09-25-02 73 63 68 3 0 0 5.8 13 64 62
SAN 23188 09-26-02 73 65 69 4 0 0 7.3 17 64 61
SAN 23188 09-27-02 70 65 68 3 0 0 6.7 15 61 57
SAN 23188 09-28-02 70 65 68 3 0 0 6.1 13 61 58
SAN 23188 09-29-02 72 64 68 3 0 8.1 16 62 58
SAN 23188 09-30-02 71 63 67 2 0 5.6 14 59 54
SAN 23188 10-01-02 66 61 64 0 1 0.01 7.7 16 58 54
SAN 23188 10-02-02 69 57 63 0 2 0 5 15 57 52
SAN 23188 10-03-02 72 57 65 0 0 0 6.5 18 58 53
SAN 23188 10-04-02 74 58 66 1 0 0 4.4 12 59 53
SAN 23188 10-05-02 74 59 67 2 0 0 4.9 16 61 56
SAN 23188 10-06-02 60 0 4.6 13 62 57
SAN 23188 10-07-02 75 61 68 3 0 0 5 13 63 61
SAN 23188 10-08-02 74 60 67 2 0 0 4.6 9 63 61
SAN 23188 10-09-02 71 63 67 2 0 0 5.9 14 63 60
SAN 23188 10-10-02 71 62 67 2 0 0 6.1 16 61 58
SAN 23188 10-11-02 70 64 67 2 0 0 7.2 17 60 56
SAN 23188 10-12-02 69 61 65 0 0 0 5.8 15 61 58
SAN 23188 10-13-02 69 61 65 0 0 0 6.8 16 61 59
SAN 23188 10-14-02 68 62 65 0 0 0 5.8 13 60 57
SAN 23188 10-15-02 66 62 64 0 1 0 4.9 14 58 54
SAN 23188 10-16-02 65 61 63 0 2 6.5 13 56 51
SAN 23188 10-17-02 66 59 63 0 2 0 5.5 10 56 51
SAN 23188 10-18-02 66 62 64 0 1 0 4.1 12 58 54
SAN 23188 10-19-02 68 62 65 0 0 0 4.4 13 59 56
SAN 23188 10-20-02 69 57 63 0 2 0 5.7 16 59 57
SAN 23188 10-21-02 66 48 0 6.5 13 57 53
SAN 23188 10-22-02 65 62 64 0 1 0 3.8 10 56 50
SAN 23188 10-23-02 68 61 65 0 0 0 6.4 17 57 52
SAN 23188 10-24-02 63 60 62 0 3 0 4.1 17 56 52
SAN 23188 10-25-02 66 59 63 0 2 4.7 15 56 51
SAN 23188 10-26-02 64 58 61 0 4 0.03 5.5 13 57 54
SAN 23188 10-27-02 66 57 62 0 3 0 4.3 12 56 51
SAN 23188 10-28-02 68 53 61 0 4 0 4.2 15 56 52
SAN 23188 10-29-02 64 60 62 0 3 0 4.9 13 56 52
SAN 23188 10-30-02 66 60 63 0 2 0 3.8 12 56 50
SAN 23188 10-31-02 66 60 63 0 2 0 6 14 56 52
SAN 23188 11-01-02 66 60 63 0 2 0 4.6 13 58 54
SAN 23188 11-02-02 66 57 62 0 3 0 6.6 17 57 53
SAN 23188 11-03-02 69 53 61 0 4 0 5.4 17 57 55
SAN 23188 11-04-02 65 57 61 0 4 0 5.2 12 57 54
SAN 23188 11-05-02 73 53 63 0 2 0 5 15 56 53
SAN 23188 11-06-02 70 51 61 0 4 0 5.3 16 56 51
SAN 23188 11-07-02 68 54 61 0 4 4.9 14 56 53
SAN 23188 11-08-02 65 60 63 0 2 0.13 11.6 20 60 59
SAN 23188 11-09-02 67 63 65 0 0 0.07 8.8 15 63 62
SAN 23188 11-10-02 67 58 63 0 2 0 5.4 15 58 56
SAN 23188 11-11-02 71 54 63 0 2 0 3.8 14 57 53
SAN 23188 11-12-02 79 55 67 2 0 0 4.6 14 53 40
SAN 23188 11-13-02 73 55 64 0 1 0 3.7 12 55 48
SAN 23188 11-14-02 65 57 61 0 4 0 4.1 9 57 54
SAN 23188 11-15-02 54 70 5 0 0 3.5 17 54 41
SAN 23188 11-16-02 80 52 66 1 0 0 3.2 14 49 28
SAN 23188 11-17-02 72 52 62 0 3 0 3.4 10 52 41
SAN 23188 11-18-02 79 51 65 0 0 0 3.4 13 52 38
SAN 23188 11-19-02 79 52 66 1 0 0 3.5 12 50 32
SAN 23188 11-20-02 82 57 70 5 0 0 3.7 14 53 37
SAN 23188 11-21-02 85 60 0 2.5 9 56 42
SAN 23188 11-22-02 73 54 64 0 1 0 4.5 12 55 48
SAN 23188 11-23-02 63 56 60 0 5 0 3.7 13 55 51
SAN 23188 11-24-02 66 51 0 2.8 15 54 51
SAN 23188 11-25-02 67 54 61 0 4 0 6.3 20 54 47
SAN 23188 11-26-02 71 54 63 0 2 6.5 17 51 38
SAN 23188 11-27-02 71 59 65 0 0 5.7 21 53 41
SAN 23188 11-28-02 75 56 66 1 0 0.02 5.2 31 55 46
SAN 23188 11-29-02 65 58 62 0 3 0.1 3.6 14 57 54
SAN 23188 11-30-02 65 55 60 0 5 0 2.6 10 56 53
SAN 23188 12-01-02 64 51 58 0 7 0 3.5 15 53 50
SAN 23188 12-02-02 68 51 60 0 5 0 2.3 12 53 49
SAN 23188 12-03-02 65 52 59 0 6 0 3.4 12 53 50
SAN 23188 12-04-02 66 50 58 0 7 0 4.5 15 54 50
SAN 23188 12-05-02 75 50 0 3.5 14 52 45
SAN 23188 12-06-02 65 49 57 0 8 0 2.7 10 53 49
SAN 23188 12-07-02 65 56 61 0 4 0 3.9 10 56 52
SAN 23188 12-08-02 67 50 59 0 6 0 4.3 16 55 52
SAN 23188 12-09-02 66 52 59 0 6 0 4.3 15 55 53
SAN 23188 12-10-02 64 54 59 0 6 0 3.7 13 54 51
SAN 23188 12-11-02 66 53 60 0 5 0 3.8 14 53 49
SAN 23188 12-12-02 66 49 58 0 7 0 2.4 8 53 48
SAN 23188 12-13-02 68 51 60 0 5 0 3.8 14 53 49
SAN 23188 12-14-02 67 50 59 0 6 0 3.5 10 52 46
SAN 23188 12-15-02 66 56 61 0 4 0 3.4 12 56 53
SAN 23188 12-16-02 64 54 59 0 6 0.4 10.6 28 56 54
SAN 23188 12-17-02 61 56 59 0 6 0.05 12.3 23 53 49
SAN 23188 12-18-02 60 49 55 0 10 0.05 5.9 20 49 42
SAN 23188 12-19-02 60 44 52 0 13 0 6 14 46 37
SAN 23188 12-20-02 51 55 0 10 0.43 7.5 20 50 45
SAN 23188 12-21-02 57 50 54 0 11 0.82 6.1 15 50 47
SAN 23188 12-22-02 58 50 54 0 11 4 12 49 45
SAN 23188 12-23-02 60 45 53 0 12 0 3.2 10 46 38
SAN 23188 12-24-02 60 44 52 0 13 0 2.3 8 46 38
SAN 23188 12-25-02 61 42 0 3.5 14 45 38
SAN 23188 12-26-02 62 44 53 0 12 0 3.5 14 48 41
SAN 23188 12-27-02 68 46 57 0 8 0 4 13 48 39
SAN 23188 12-28-02 63 47 55 0 10 0 4.3 12 52 47
SAN 23188 12-29-02 61 51 56 0 9 0.23 7.6 20 52 48
SAN 23188 12-30-02 61 49 55 0 10 0 3 14 50 46
SAN 23188 12-31-02 61 49 55 0 10 0 4.9 15 51 48
SAN 23188 01-01-03 67 47 57 0 8 0 2.7 12 51 46
SAN 23188 01-02-03 74 47 61 0 4 0 2.4 14 48 36
SAN 23188 01-03-03 82 50 66 1 0 0 2.7 10 50 36
SAN 23188 01-04-03 77 51 64 0 1 0 2.7 12 51 40
SAN 23188 01-05-03 74 50 62 0 3 0 2.3 9 53 45
SAN 23188 01-06-03 76 51 64 0 1 8.3 30 51 34
SAN 23188 01-07-03 82 60 0 11.2 30 56 42
SAN 23188 01-08-03 66 56 61 0 4 3 12 56 53
SAN 23188 01-09-03 64 53 59 0 6 0 3.7 10 55 52
SAN 23188 01-10-03 64 50 57 0 8 0 3.2 13 54 50
SAN 23188 01-11-03 63 50 57 0 8 0 5.1 17 53 50
SAN 23188 01-12-03 62 53 58 0 7 0 5.8 17 55 52
SAN 23188 01-13-03 62 50 56 0 9 0 5.9 14 53 51
SAN 23188 01-14-03 61 49 0 5.3 13 52 51
SAN 23188 01-15-03 71 46 59 0 6 0 4 12 52 47
SAN 23188 01-16-03 80 49 65 0 0 0 3.4 12 48 30
SAN 23188 01-17-03 77 50 64 0 1 0 3 10 51 40
SAN 23188 01-18-03 71 50 61 0 4 0 4.2 10 54 50
SAN 23188 01-19-03 65 49 57 0 8 3.2 9 55 53
SAN 23188 01-20-03 65 57 61 0 4 0.02 4.8 15 57 54
SAN 23188 01-21-03 66 54 60 0 5 0 5.6 14 55 52
SAN 23188 01-22-03 66 52 59 0 6 0 6.5 20 55 53
SAN 23188 01-23-03 68 55 62 0 3 0 4.9 20 57 55
SAN 23188 01-24-03 68 52 60 0 5 0 3.4 12 54 49
SAN 23188 01-25-03 77 53 65 0 0 0 2.9 15 55 47
SAN 23188 01-26-03 82 55 69 4 0 0 3.8 16 54 41
SAN 23188 01-27-03 79 57 68 3 0 0 2.4 12 55 44
SAN 23188 01-28-03 66 52 59 0 6 0 4.3 14 56 54
SAN 23188 01-29-03 77 56 67 2 0 0 5.9 22 57 54
SAN 23188 01-30-03 77 52 65 0 0 0 4.3 14 55 49
SAN 23188 01-31-03 55 69 4 0 0 3.6 12 56 47
SAN 23188 02-01-03 67 56 62 0 3 0 6 15 57 54
SAN 23188 02-02-03 67 55 61 0 4 0 6.5 17 55 50
SAN 23188 02-03-03 71 49 60 0 5 0 4.1 13 47 31
SAN 23188 02-04-03 69 49 59 0 6 0 3.1 12 48 35
SAN 23188 02-05-03 66 50 58 0 7 0 3.6 10 49 40
SAN 23188 02-06-03 62 48 55 0 10 0 3.6 12 48 39
SAN 23188 02-07-03 64 46 3.5 14 49 40
SAN 23188 02-08-03 61 51 56 0 9 0.03 5.5 15 50 44
SAN 23188 02-09-03 65 49 57 0 8 0 3.9 15 50 43
SAN 23188 02-10-03 49 61 0 4 0 3.7 18 48 32
SAN 23188 02-11-03 64 56 60 0 5 0.52 4.9 25 58 56
SAN 23188 02-12-03 68 59 1.2 8.4 23 59 56
SAN 23188 02-13-03 62 59 61 0 4 0.93 6.7 15 60 59
SAN 23188 02-14-03 65 58 62 0 3 0.35 6.8 13 57 54
SAN 23188 02-15-03 64 56 60 0 5 0 4.5 14 56 52
SAN 23188 02-16-03 64 58 61 0 4 0 6.7 16 56 54
SAN 23188 02-17-03 66 56 61 0 4 0 5.3 16 57 54
SAN 23188 02-18-03 66 55 61 0 4 0 4.2 12 56 53
SAN 23188 02-19-03 63 51 57 0 8 7 21 53 50
SAN 23188 02-20-03 65 53 59 0 6 0 8.9 20 51 43
SAN 23188 02-21-03 69 51 60 0 5 0 3.4 10 54 49
SAN 23188 02-22-03 63 53 58 0 7 0 5.8 12 54 51
SAN 23188 02-23-03 62 56 59 0 6 9.3 16 54 50
SAN 23188 02-24-03 63 58 61 0 4 9.8 18 54 50
SAN 23188 02-25-03 60 53 57 0 8 1.48 9.3 25 53 51
SAN 23188 02-26-03 61 55 58 0 7 0.11 10.4 18 52 46
SAN 23188 02-27-03 59 53 56 0 9 0.26 9.4 22 52 47
SAN 23188 02-28-03 61 54 58 0 7 9.4 17 52 47
SAN 23188 03-01-03 62 52 57 0 8 0 6.8 15 52 47
SAN 23188 03-02-03 65 51 58 0 7 0 6.1 17 52 47
SAN 23188 03-03-03 60 51 56 0 9 4.3 10 51 45
SAN 23188 03-04-03 60 51 56 0 9 0.15 5.6 13 51 48
SAN 23188 03-05-03 62 49 56 0 9 0.01 5 15 52 48
SAN 23188 03-06-03 64 49 57 0 8 0 3.5 13 53 49
SAN 23188 03-07-03 62 49 0 4.1 12 53 49
SAN 23188 03-08-03 64 54 59 0 6 0 5.4 14 55 51
SAN 23188 03-09-03 67 54 61 0 4 0 5.6 15 56 54
SAN 23188 03-10-03 67 52 60 0 5 0 3.8 12 55 52
SAN 23188 03-11-03 66 51 59 0 6 0 5.4 10 56 54
SAN 23188 03-12-03 67 56 62 0 3 0 5 10 57 54
SAN 23188 03-13-03 66 58 62 0 3 0 5.9 12 58 55
SAN 23188 03-14-03 66 59 63 0 2 0 6.5 15 57 54
SAN 23188 03-15-03 64 58 61 0 4 0.8 9.8 26 58 56
SAN 23188 03-16-03 62 56 59 0 6 0.41 11.3 29 54 51
SAN 23188 03-17-03 63 55 59 0 6 15.3 24 53 47
SAN 23188 03-18-03 65 52 59 0 6 0 6.4 21 53 48
SAN 23188 03-19-03 65 51 58 0 7 0 6.2 13 53 49
SAN 23188 03-20-03 62 54 58 0 7 0 7.7 16 54 50
SAN 23188 03-21-03 65 53 59 0 6 0 4.9 17 55 51
SAN 23188 03-22-03 70 54 62 0 3 0 3.5 9 56 51
SAN 23188 03-23-03 63 53 58 0 7 0 5.4 14 55 52
SAN 23188 03-24-03 62 57 60 0 5 0 6.3 13 55 51
SAN 23188 03-25-03 68 58 63 0 2 0 7.3 17 57 53
SAN 23188 03-26-03 73 53 63 0 2 0 5.1 16 58 53
SAN 23188 03-27-03 67 59 63 0 2 0 6.5 16 57 52
SAN 23188 03-28-03 79 56 68 3 0 0 6.4 16 52 34
SAN 23188 03-29-03 77 57 67 2 0 0 6.3 18 51 31
SAN 23188 03-30-03 54 68 3 0 0 5.2 18 52 34
SAN 23188 03-31-03 78 57 0 4 12 0 0
SAN 23188 04-01-03 64 56 60 0 5 0 8.1 14 57 53
SAN 23188 04-02-03 63 57 60 0 5 0 10.9 17 53 47
SAN 23188 04-03-03 62 54 58 0 7 0 8.1 17 51 44
SAN 23188 04-04-03 62 50 0 8.1 18 51 45
SAN 23188 04-05-03 61 54 58 0 7 9.5 20 50 43
SAN 23188 04-06-03 64 50 57 0 8 0 5.5 16 51 45
SAN 23188 04-07-03 72 52 62 0 3 0 5.5 16 55 50
SAN 23188 04-08-03 80 55 0 5.8 17 55 43
SAN 23188 04-09-03 74 56 65 0 0 0 5 16 57 51
SAN 23188 04-10-03 64 58 61 0 4 0 6.6 13 57 55
SAN 23188 04-11-03 67 57 62 0 3 0 5.8 15 57 55
SAN 23188 04-12-03 70 58 64 0 1 0 6.8 15 58 54
SAN 23188 04-13-03 66 59 63 0 2 0.03 7.4 14 59 57
SAN 23188 04-14-03 64 53 59 0 6 1.06 11.2 28 56 54
SAN 23188 04-15-03 62 53 58 0 7 0.03 9.8 21 51 46
SAN 23188 04-16-03 63 50 57 0 8 0 6.9 20 52 47
SAN 23188 04-17-03 61 52 57 0 8 0.27 5.2 14 52 49
SAN 23188 04-18-03 62 55 59 0 6 0 7.8 15 53 48
SAN 23188 04-19-03 66 54 60 0 5 0 7.1 17 55 50
SAN 23188 04-20-03 69 54 62 0 3 0 5.2 13 57 53
SAN 23188 04-21-03 63 56 60 0 5 10.6 16 54 50
SAN 23188 04-22-03 61 53 57 0 8 0.02 12.3 23 51 46
SAN 23188 04-23-03 63 53 58 0 7 0 6.6 15 53 49
SAN 23188 04-24-03 64 57 61 0 4 0 8.1 15 54 50
SAN 23188 04-25-03 66 55 61 0 4 0 8.8 16 56 52
SAN 23188 04-26-03 65 55 60 0 5 0 6.9 16 55 51
SAN 23188 04-27-03 64 56 60 0 5 0 5.8 15 54 50
SAN 23188 04-28-03 67 55 61 0 4 0 8.7 17 55 51
SAN 23188 04-29-03 64 55 60 0 5 0 8.9 18 53 48
SAN 23188 04-30-03 64 53 59 0 6 0 7.7 14 54 50
SAN 23188 05-01-03 65 54 60 0 5 0 6.2 15 55 51
SAN 23188 05-02-03 63 55 59 0 6 0 7.5 15 54 50
SAN 23188 05-03-03 63 56 60 0 5 0.3 10.9 24 57 56
SAN 23188 05-04-03 66 58 62 0 3 0 8.2 18 56 53
SAN 23188 05-05-03 65 57 61 0 4 0 7.5 14 56 52
SAN 23188 05-06-03 61 58 60 0 5 0 9.3 16 55 52
SAN 23188 05-07-03 63 57 60 0 5 8.4 18 55 51
SAN 23188 05-08-03 62 57 60 0 5 0 9.5 17 53 48
SAN 23188 05-09-03 63 55 59 0 6 0 9.1 17 52 46
SAN 23188 05-10-03 66 51 0 6 15 54 49
SAN 23188 05-11-03 69 54 62 0 3 0 5.1 15 56 51
SAN 23188 05-12-03 70 54 62 0 3 0 4.9 12 58 55
SAN 23188 05-13-03 70 60 65 0 0 0 6.4 17 59 57
SAN 23188 05-14-03 65 58 62 0 3 0 8.7 18 57 53
SAN 23188 05-15-03 66 55 61 0 4 0 6.6 14 56 53
SAN 23188 05-16-03 69 57 63 0 2 0 4.6 12 58 56
SAN 23188 05-17-03 68 58 63 0 2 0 6.1 13 59 58
SAN 23188 05-18-03 68 59 64 0 1 0 5.1 12 58 56
SAN 23188 05-19-03 68 57 63 0 2 0 4.8 12 59 57
SAN 23188 05-20-03 71 59 65 0 0 0 4.1 12 61 59
SAN 23188 05-21-03 61 0 4.1 12 63 60
SAN 23188 05-22-03 71 60 66 1 0 0 5.4 13 61 60
SAN 23188 05-23-03 64 60 62 0 3 0 6.2 13 58 56
SAN 23188 05-24-03 64 59 62 0 3 0 6.6 12 57 54
SAN 23188 05-25-03 67 60 64 0 1 0 6.7 14 59 56
SAN 23188 05-26-03 69 61 65 0 0 0 7.1 15 60 58
SAN 23188 05-27-03 69 62 66 1 0 0 5.3 12 62 60
SAN 23188 05-28-03 74 60 67 2 0 0 5.3 13 63 61
SAN 23188 05-29-03 66 60 63 0 2 5.7 10 60 59
SAN 23188 05-30-03 67 61 64 0 1 0 5.3 13 60 58
SAN 23188 05-31-03 65 61 63 0 2 0 5.5 10 59 57
SAN 23188 06-01-03 67 60 64 0 1 0 5.5 13 59 57
SAN 23188 06-02-03 64 59 62 0 3 0 6.1 13 59 57
SAN 23188 06-03-03 65 60 63 0 2 7.3 12 59 57
SAN 23188 06-04-03 69 60 65 0 0 0 5.6 13 59 56
SAN 23188 06-05-03 67 62 65 0 0 0 6.4 12 59 56
SAN 23188 06-06-03 66 62 64 0 1 7.5 14 60 58
SAN 23188 06-07-03 65 60 63 0 2 7.9 12 60 59
SAN 23188 06-08-03 66 60 63 0 2 0 7 12 60 58
SAN 23188 06-09-03 65 61 63 0 2 0 9 15 59 56
SAN 23188 06-10-03 67 62 65 0 0 0 5.9 13 59 55
SAN 23188 06-11-03 70 61 66 1 0 0 7.3 15 59 55
SAN 23188 06-12-03 67 62 65 0 0 0 6.9 13 57 53
SAN 23188 06-13-03 69 62 66 1 0 0 7.2 14 59 55
SAN 23188 06-14-03 71 63 67 2 0 0 6.2 14 61 59
SAN 23188 06-15-03 66 60 63 0 2 0 6 12 60 58
SAN 23188 06-16-03 64 59 62 0 3 0 5.7 12 59 57
SAN 23188 06-17-03 66 60 63 0 2 0 5.3 12 59 57
SAN 23188 06-18-03 64 61 63 0 2 0 6.4 12 59 57
SAN 23188 06-19-03 65 60 63 0 2 8.9 15 59 56
SAN 23188 06-20-03 65 60 63 0 2 8.6 13 58 54
SAN 23188 06-21-03 64 60 7.9 13 58 55
SAN 23188 06-22-03 66 61 64 0 1 0 8.5 15 58 54
SAN 23188 06-23-03 65 61 63 0 2 0 7.1 12 58 54
SAN 23188 06-24-03 67 61 64 0 1 0 7.1 13 58 53
SAN 23188 06-25-03 72 60 66 1 0 0 5.4 13 61 58
SAN 23188 06-26-03 73 61 67 2 0 0 6.8 13 63 61
SAN 23188 06-27-03 71 62 67 2 0 0 7.3 14 62 60
SAN 23188 06-28-03 71 62 67 2 0 0 6.1 13 62 59
SAN 23188 06-29-03 72 63 68 3 0 0 6.9 14 63 60
SAN 23188 06-30-03 63 0 7.1 15 64 62
SAN 23188 07-01-03 71 62 67 2 0 0 5.8 12 63 62
SAN 23188 07-02-03 71 63 67 2 0 0 6.1 13 64 62
SAN 23188 07-03-03 82 66 74 9 0 0 7.1 16 66 62
SAN 23188 07-04-03 83 66 75 10 0 0 4.6 13 66 63
SAN 23188 07-05-03 70 63 67 2 0 0 6.4 12 64 62
SAN 23188 07-06-03 69 63 66 1 0 0 7.5 14 62 60
SAN 23188 07-07-03 69 63 66 1 0 0 7.2 15 0 0
SAN 23188 07-08-03 69 63 0 6.3 14 61 59
SAN 23188 07-09-03 71 62 67 2 0 0 5.6 10 62 60
SAN 23188 07-10-03 72 63 68 3 0 6.3 12 65 64
SAN 23188 07-11-03 76 63 70 5 0 0 6.5 17 64 62
SAN 23188 07-12-03 75 66 71 6 0 0 4.8 10 65 63
SAN 23188 07-13-03 77 65 71 6 0 0 4.8 10 65 63
SAN 23188 07-14-03 72 66 69 4 0 0 5.8 13 65 63
SAN 23188 07-15-03 71 66 69 4 0 0 5.9 13 66 64
SAN 23188 07-16-03 88 66 0 6 14 67 65
SAN 23188 07-17-03 73 68 71 6 0 0 5.1 13 67 65
SAN 23188 07-18-03 71 67 69 4 0 5.9 13 67 65
SAN 23188 07-19-03 78 68 73 8 0 4.8 13 68 66
SAN 23188 07-20-03 78 68 73 8 0 0 6.2 12 67 65
SAN 23188 07-21-03 76 64 70 5 0 0 7.7 16 68 67
SAN 23188 07-22-03 71 67 69 4 0 0 5.6 10 67 66
SAN 23188 07-23-03 74 67 71 6 0 0 5.6 12 66 64
SAN 23188 07-24-03 72 66 69 4 0 0 6 13 65 63
SAN 23188 07-25-03 74 66 70 5 0 0 6.2 13 66 63
SAN 23188 07-26-03 74 68 71 6 0 0 7.4 15 67 65
SAN 23188 07-27-03 75 68 72 7 0 0 8.1 16 68 66
SAN 23188 07-28-03 74 68 71 6 0 7.3 15 67 65
SAN 23188 07-29-03 76 68 72 7 0 0 6.3 13 68 66
SAN 23188 07-30-03 78 68 73 8 0 5.6 13 68 67
SAN 23188 07-31-03 74 69 72 7 0 0 5.8 13 68 66
SAN 23188 08-01-03 76 69 73 8 0 0 7.9 17 68 65
SAN 23188 08-02-03 76 68 72 7 0 0 8 17 67 65
SAN 23188 08-03-03 75 67 71 6 0 0 6.9 16 67 64
SAN 23188 08-04-03 77 67 72 7 0 0 6.9 17 67 65
SAN 23188 08-05-03 77 66 72 7 0 0 7.5 15 67 64
SAN 23188 08-06-03 74 66 70 5 0 0 6.2 16 66 63
SAN 23188 08-07-03 77 65 71 6 0 0 6.5 14 67 64
SAN 23188 08-08-03 79 67 73 8 0 0 5.9 15 68 66
SAN 23188 08-09-03 83 69 76 11 0 0 4.1 10 69 66
SAN 23188 08-10-03 84 71 0 6 16 70 66
SAN 23188 08-11-03 80 70 75 10 0 0 4.9 10 70 68
SAN 23188 08-12-03 81 69 75 10 0 0 6.2 14 70 68
SAN 23188 08-13-03 81 68 75 10 0 0 6.9 15 69 67
SAN 23188 08-14-03 81 70 76 11 0 0 5.3 12 69 67
SAN 23188 08-15-03 82 70 76 11 0 0 5.6 12 70 68
SAN 23188 08-16-03 82 68 75 10 0 0 5.4 12 70 68
SAN 23188 08-17-03 80 70 75 10 0 0 7.1 15 70 68
SAN 23188 08-18-03 75 66 71 6 0 0 7.2 13 67 65
SAN 23188 08-19-03 73 66 70 5 0 0 7 12 65 63
SAN 23188 08-20-03 76 66 71 6 0 0 6 12 67 64
SAN 23188 08-21-03 76 69 73 8 0 0 8.2 15 68 65
SAN 23188 08-22-03 73 68 71 6 0 0 8.8 18 66 64
SAN 23188 08-23-03 75 66 71 6 0 0 7.9 16 67 64
SAN 23188 08-24-03 79 68 74 9 0 0 7.4 15 68 65
SAN 23188 08-25-03 76 69 73 8 0 0 7.4 14 68 66
SAN 23188 08-26-03 76 68 72 7 0 0 6.7 13 67 65
SAN 23188 08-27-03 78 68 73 8 0 0 5.7 12 67 65
SAN 23188 08-28-03 78 69 74 9 0 0 6.9 14 68 66
SAN 23188 08-29-03 74 68 71 6 0 0 5.8 13 66 64
SAN 23188 08-30-03 72 67 0 5.2 13 66 64
SAN 23188 08-31-03 76 67 72 7 0 0 5.1 12 66 64
SAN 23188 09-01-03 73 67 70 5 0 0 5.4 12 66 64
SAN 23188 09-02-03 75 67 71 6 0 0 8.1 22 67 65
SAN 23188 09-03-03 76 67 72 7 0 0 9.2 18 67 64
SAN 23188 09-04-03 79 68 74 9 0 0 7.3 18 67 64
SAN 23188 09-05-03 85 70 78 13 0 0 5.3 13 69 65
SAN 23188 09-06-03 86 70 0 4.6 10 70 67
SAN 23188 09-07-03 84 69 77 12 0 0 5.3 13 69 67
SAN 23188 09-08-03 73 66 70 5 0 0 6.6 13 66 64
SAN 23188 09-09-03 71 67 69 4 0 0 9.1 16 63 60
SAN 23188 09-10-03 74 67 71 6 0 0 6.6 13 64 60
SAN 23188 09-11-03 75 66 71 6 0 0 5.7 15 66 64
SAN 23188 09-12-03 75 66 71 6 0 0 7 15 66 65
SAN 23188 09-13-03 74 66 70 5 0 0 5.3 12 66 63
SAN 23188 09-14-03 73 67 70 5 0 0 6.1 15 66 64
SAN 23188 09-15-03 73 66 70 5 0 0 7.9 16 66 64
SAN 23188 09-16-03 73 65 69 4 0 0 6.6 16 65 63
SAN 23188 09-17-03 71 64 68 3 0 0 5.4 13 63 61
SAN 23188 09-18-03 74 65 70 5 0 0 4.9 12 64 61
SAN 23188 09-19-03 76 64 70 5 0 0 5.3 13 65 64
SAN 23188 09-20-03 74 63 69 4 0 5.8 14 65 64
SAN 23188 09-21-03 74 64 69 4 0 0 5.8 13 66 64
SAN 23188 09-22-03 74 64 69 4 0 0 8.3 17 66 65
SAN 23188 09-23-03 69 63 66 1 0 6.5 14 64 63
SAN 23188 09-24-03 69 66 68 3 0 0 5.7 12 64 62
SAN 23188 09-25-03 71 65 68 3 0 0 7.6 16 64 63
SAN 23188 09-26-03 69 64 67 2 0 0 4.3 10 64 63
SAN 23188 09-27-03 69 63 66 1 0 0 4.9 9 64 63
SAN 23188 09-28-03 68 63 0 4.4 9 64 63
SAN 23188 09-29-03 71 65 68 3 0 0 4.6 13 65 63
SAN 23188 09-30-03 71 65 68 3 0 0 5.8 12 64 63
SAN 23188 10-01-03 73 64 69 4 0 0 8.9 18 64 62
SAN 23188 10-02-03 66 62 64 0 1 0 6.3 10 60 58
SAN 23188 10-03-03 68 62 65 0 0 0 7.4 14 60 57
SAN 23188 10-04-03 69 62 66 1 0 0 4.2 12 61 59
SAN 23188 10-05-03 68 64 66 1 0 0 5.7 14 63 61
SAN 23188 10-06-03 67 64 66 1 0 0 4.7 10 63 62
SAN 23188 10-07-03 71 64 68 3 0 0 4.6 12 63 61
SAN 23188 10-08-03 72 62 67 2 0 0 6.9 16 64 62
SAN 23188 10-09-03 71 63 67 2 0 0 6.9 15 64 63
SAN 23188 10-10-03 67 64 66 1 0 5.6 13 64 64
SAN 23188 10-11-03 70 65 68 3 0 0 4.9 9 65 63
SAN 23188 10-12-03 75 63 69 4 0 0 5.2 15 65 62
SAN 23188 10-13-03 72 62 67 2 0 0 4 13 63 62
SAN 23188 10-14-03 75 63 69 4 0 0 5 12 63 62
SAN 23188 10-15-03 72 65 69 4 0 0 4.9 12 63 61
SAN 23188 10-16-03 73 62 68 3 0 5.3 13 63 61
SAN 23188 10-17-03 76 61 69 4 0 0 6.4 15 65 63
SAN 23188 10-18-03 75 64 70 5 0 0 4.4 12 66 65
SAN 23188 10-19-03 76 64 70 5 0 0 3.3 10 66 64
SAN 23188 10-20-03 82 63 73 8 0 0 4.6 14 65 60
SAN 23188 10-21-03 83 63 73 8 0 0 4.3 13 65 60
SAN 23188 10-22-03 76 62 69 4 0 0 4.7 21 65 63
SAN 23188 10-23-03 79 61 70 5 0 0 4.7 12 65 64
SAN 23188 10-24-03 71 61 66 1 0 0 3.6 10 64 63
SAN 23188 10-25-03 73 60 67 2 0 0 4.6 13 63 62
SAN 23188 10-26-03 88 63 0 4.1 16 58 44
SAN 23188 10-27-03 79 62 71 6 0 0 1.6 13 56 44
SAN 23188 10-28-03 79 58 69 4 0 0 2.9 9 59 51
SAN 23188 10-29-03 68 59 64 0 1 0 8.7 14 62 61
SAN 23188 10-30-03 68 61 65 0 0 0 10.1 20 59 55
SAN 23188 10-31-03 64 59 0 7 14 54 46
SAN 23188 11-01-03 65 54 60 0 5 0.31 6.2 13 56 52
SAN 23188 11-02-03 64 56 60 0 5 6.4 15 53 47
SAN 23188 11-03-03 65 57 61 0 4 0.01 7.5 15 54 48
SAN 23188 11-04-03 63 55 59 0 6 0 3.6 13 54 49
SAN 23188 11-05-03 64 50 57 0 8 0 4.1 14 53 48
SAN 23188 11-06-03 67 55 61 0 4 0 4.2 12 56 52
SAN 23188 11-07-03 68 57 63 0 2 0 4.8 14 58 55
SAN 23188 11-08-03 72 53 63 0 2 0 3.7 14 57 52
SAN 23188 11-09-03 68 56 62 0 3 0 4.5 14 60 57
SAN 23188 11-10-03 69 62 66 1 0 0.02 4.9 15 62 60
SAN 23188 11-11-03 67 60 64 0 1 2.6 13 61 59
SAN 23188 11-12-03 65 61 63 0 2 0.21 6.7 15 60 59
SAN 23188 11-13-03 68 57 63 0 2 0 5 13 58 54
SAN 23188 11-14-03 66 54 60 0 5 0 4.2 15 57 55
SAN 23188 11-15-03 65 54 60 0 5 0.04 3.7 15 56 53
SAN 23188 11-16-03 64 56 60 0 5 0.01 7.3 17 55 52
SAN 23188 11-17-03 65 54 60 0 5 3.9 12 55 52
SAN 23188 11-18-03 53 0 3.5 15 56 50
SAN 23188 11-19-03 76 54 65 0 0 0 4 15 58 53
SAN 23188 11-20-03 67 57 62 0 3 0 4.8 10 59 57
SAN 23188 11-21-03 63 59 61 0 4 0 4.4 10 56 52
SAN 23188 11-22-03 66 52 59 0 6 0 6.7 18 50 38
SAN 23188 11-23-03 68 46 57 0 8 0 3 10 45 29
SAN 23188 11-24-03 64 47 0 2.4 13 49 39
SAN 23188 11-25-03 62 54 58 0 7 4.4 13 53 48
SAN 23188 11-26-03 62 54 58 0 7 0 5.4 12 52 46
SAN 23188 11-27-03 77 49 63 0 2 0 3.6 16 50 37
SAN 23188 11-28-03 73 50 62 0 3 0 4.1 15 47 28
SAN 23188 11-29-03 73 52 63 0 2 0 2.1 13 50 38
SAN 23188 11-30-03 68 47 58 0 7 0 2.6 10 49 40
SAN 23188 12-01-03 64 53 59 0 6 0 3.6 10 54 49
SAN 23188 12-02-03 64 50 57 0 8 0 4.2 15 55 53
SAN 23188 12-03-03 65 52 59 0 6 0 3.5 13 55 54
SAN 23188 12-04-03 62 50 56 0 9 0 4.2 10 55 55
SAN 23188 12-05-03 65 50 58 0 7 0 3.5 10 55 53
SAN 23188 12-06-03 64 49 57 0 8 0 3.8 13 54 53
SAN 23188 12-07-03 63 56 60 0 5 0.09 4.7 10 58 58
SAN 23188 12-08-03 65 54 60 0 5 0.01 5.6 14 55 51
SAN 23188 12-09-03 72 49 61 0 4 0 3.5 12 51 41
SAN 23188 12-10-03 64 54 59 0 6 4.4 12 53 49
SAN 23188 12-11-03 62 53 58 0 7 0.02 11.2 25 53 48
SAN 23188 12-12-03 62 47 55 0 10 0 2.3 9 49 44
SAN 23188 12-13-03 63 47 55 0 10 0 3.1 12 50 45
SAN 23188 12-14-03 64 47 56 0 9 3 12 51 48
SAN 23188 12-15-03 64 48 56 0 9 0 3.3 14 49 42
SAN 23188 12-16-03 70 46 58 0 7 0 3 12 45 30
SAN 23188 12-17-03 73 43 58 0 7 0 3.3 13 45 27
SAN 23188 12-18-03 71 47 59 0 6 0 1.5 9 48 37
SAN 23188 12-19-03 71 47 59 0 6 0 2 12 50 40
SAN 23188 12-20-03 66 50 58 0 7 2.4 10 51 42
SAN 23188 12-21-03 65 54 60 0 5 0 3.8 13 57 55
SAN 23188 12-22-03 48 0 3.7 9 54 49
SAN 23188 12-23-03 64 51 58 0 7 0.02 3.1 21 51 44
SAN 23188 12-24-03 65 50 58 0 7 0.07 4.3 12 54 52
SAN 23188 12-25-03 62 55 59 0 6 0.4 13.9 30 58 57
SAN 23188 12-26-03 58 54 56 0 9 0 13.5 24 48 40
SAN 23188 12-27-03 58 46 52 0 13 0 4.5 13 45 37
SAN 23188 12-28-03 60 40 0 2.7 14 42 32
SAN 23188 12-29-03 59 43 51 0 14 0 1.5 8 44 35
SAN 23188 12-30-03 61 49 55 0 10 0 2.6 8 47 40
SAN 23188 12-31-03 64 43 54 0 11 0 2.8 14 45 36
SAN 23188 01-01-04 63 43 53 0 12 0 1.7 8 47 39
SAN 23188 01-02-04 62 47 55 0 10 0.09 5.1 13 51 47
SAN 23188 01-03-04 59 51 55 0 10 0.02 8.1 18 49 42
SAN 23188 01-04-04 60 46 0 3.6 13 44 33
SAN 23188 01-05-04 65 43 54 0 11 0 3.5 12 44 31
SAN 23188 01-06-04 64 44 54 0 11 0 2.8 9 47 37
SAN 23188 01-07-04 65 52 59 0 6 2.3 9 53 49
SAN 23188 01-08-04 66 47 57 0 8 0 3.2 8 51 47
SAN 23188 01-09-04 68 48 58 0 7 0 4.2 15 52 48
SAN 23188 01-10-04 68 48 58 0 7 0 3.4 13 52 48
SAN 23188 01-11-04 62 48 55 0 10 0 3 10 52 50
SAN 23188 01-12-04 64 53 59 0 6 0 3 13 54 52
SAN 23188 01-13-04 73 50 62 0 3 0 3.3 14 54 48
SAN 23188 01-14-04 74 50 0 2.7 14 53 46
SAN 23188 01-15-04 62 53 58 0 7 0 6.3 13 55 53
SAN 23188 01-16-04 62 52 57 0 8 0 2.8 13 54 52
SAN 23188 01-17-04 61 53 57 0 8 0 3.6 14 53 50
SAN 23188 01-18-04 61 54 58 0 7 0 3.6 14 53 50
SAN 23188 01-19-04 62 54 58 0 7 0 4.1 16 54 51
SAN 23188 01-20-04 62 56 59 0 6 6.6 14 54 50
SAN 23188 01-21-04 67 52 60 0 5 4.2 18 51 45
SAN 23188 01-22-04 68 47 58 0 7 0 4.1 13 48 38
SAN 23188 01-23-04 68 49 59 0 6 0 4.3 16 51 44
SAN 23188 01-24-04 59 51 55 0 10 6.6 14 51 47
SAN 23188 01-25-04 60 52 56 0 9 0.15 4.5 14 53 50
SAN 23188 01-26-04 62 48 55 0 10 0 3.2 13 51 48
SAN 23188 01-27-04 61 49 55 0 10 0 4.4 15 52 49
SAN 23188 01-28-04 62 53 58 0 7 0.06 5.8 13 54 52
SAN 23188 01-29-04 64 49 57 0 8 0 3.9 14 53 50
SAN 23188 01-30-04 61 51 56 0 9 0 5.2 12 53 50
SAN 23188 01-31-04 62 53 58 0 7 0.02 7.7 18 53 49
SAN 23188 02-01-04 62 48 55 0 10 0 3 12 51 47
SAN 23188 02-02-04 62 48 55 0 10 0.19 5.9 21 52 48
SAN 23188 02-03-04 61 52 57 0 8 0.19 11.3 22 52 49
SAN 23188 02-04-04 61 52 57 0 8 4.9 14 53 49
SAN 23188 02-05-04 64 48 56 0 9 0 3.5 14 51 46
SAN 23188 02-06-04 69 46 58 0 7 0 4.3 16 48 37
SAN 23188 02-07-04 65 47 56 0 9 0 4.1 14 0 0
SAN 23188 02-08-04 69 47 58 0 7 0 4.7 15 48 36
SAN 23188 02-09-04 68 45 57 0 8 0 3.5 14 46 32
SAN 23188 02-10-04 68 45 57 0 8 0 4.6 14 46 32
SAN 23188 02-11-04 64 46 55 0 10 0 3 12 49 41
SAN 23188 02-12-04 68 47 58 0 7 0 3.4 13 48 37
SAN 23188 02-13-04 65 45 55 0 10 0 3.8 15 44 27
SAN 23188 02-14-04 63 48 56 0 9 0.06 3.1 14 48 39
SAN 23188 02-15-04 62 46 0 6 16 50 45
SAN 23188 02-16-04 67 51 59 0 6 0 5.1 16 54 51
SAN 23188 02-17-04 70 53 0 4.3 13 55 51
SAN 23188 02-18-04 62 52 57 0 8 0.23 7.6 23 54 52
SAN 23188 02-19-04 63 53 58 0 7 0 5.3 16 54 52
SAN 23188 02-20-04 61 55 58 0 7 5.7 13 54 51
SAN 23188 02-21-04 59 53 56 0 9 0.02 7.6 18 52 48
SAN 23188 02-22-04 61 51 56 0 9 1.16 9.1 24 55 53
SAN 23188 02-23-04 61 53 57 0 8 0.21 5.6 20 53 50
SAN 23188 02-24-04 62 52 57 0 8 0 4.4 13 53 49
SAN 23188 02-25-04 65 50 58 0 7 0 5.6 12 53 48
SAN 23188 02-26-04 61 54 58 0 7 0.74 8.8 21 0 0
SAN 23188 02-27-04 61 53 57 0 8 0.01 9.6 21 0 0
SAN 23188 02-28-04 62 51 57 0 8 0 5.2 17 0 0
SAN 23188 02-29-04 61 49 55 0 10 0 5.4 14 0 0
SAN 23188 03-01-04 64 51 58 0 7 0.07 7.2 18 52 48
SAN 23188 03-02-04 60 52 0.14 8.2 24 51 47
SAN 23188 03-03-04 67 51 59 0 6 0 4.2 13 53 47
SAN 23188 03-04-04 63 57 60 0 5 0 10.4 21 56 53
SAN 23188 03-05-04 65 57 61 0 4 0 6.8 13 55 51
SAN 23188 03-06-04 68 54 61 0 4 0 5.7 18 57 54
SAN 23188 03-07-04 81 54 68 3 0 0 4 14 58 50
SAN 23188 03-08-04 84 59 72 7 0 0 4.2 16 58 45
SAN 23188 03-09-04 79 60 70 5 0 0 4.5 12 60 54
SAN 23188 03-10-04 64 57 61 0 4 0 6 10 58 57
SAN 23188 03-11-04 65 58 62 0 3 0 4.7 12 58 57
SAN 23188 03-12-04 62 58 60 0 5 0 6.9 13 57 55
SAN 23188 03-13-04 66 59 63 0 2 0 6.3 17 57 54
SAN 23188 03-14-04 65 55 60 0 5 0 6.9 17 58 56
SAN 23188 03-18-04 63 59 61 0 4 0 9 57 55
SAN 23188 03-19-04 66 58 62 0 3 0.18 6.4 14 56 53
SAN 23188 03-20-04 68 57 63 0 2 0 6.8 20 57 54
SAN 23188 03-21-04 64 58 61 0 4 0 7.7 16 57 54
SAN 23188 03-22-04 67 57 62 0 3 0 4.6 13 57 54
SAN 23188 03-23-04 63 59 61 0 4 0 7.8 13 57 53
SAN 23188 03-24-04 66 60 63 0 2 0 5.9 14 57 53
SAN 23188 03-25-04 68 56 62 0 3 0 5.3 14 57 53
SAN 23188 03-26-04 65 60 63 0 2 0.01 7.6 16 57 52
SAN 23188 03-27-04 69 56 63 0 2 0 5.7 15 56 50
SAN 23188 03-28-04 85 57 71 6 0 0 5.1 15 56 42
SAN 23188 03-29-04 60 0 4.5 18 55 34
SAN 23188 03-30-04 68 59 64 0 1 0 5.2 13 58 53
SAN 23188 03-31-04 65 59 62 0 3 0 8.4 16 56 51
SAN 23188 04-01-04 65 54 60 0 5 0.3 7 16 55 50
SAN 23188 04-02-04 65 54 60 0 5 0 7.6 16 55 50
SAN 23188 04-03-04 67 59 63 0 2 0 6.5 14 56 49
SAN 23188 04-04-04 70 61 66 1 0 0 5.5 15 58 52
SAN 23188 04-05-04 68 62 65 0 0 0 5.8 14 58 53
SAN 23188 04-06-04 65 60 63 0 2 0 6.5 15 55 48
SAN 23188 04-07-04 65 61 63 0 2 0 6.2 14 56 50
SAN 23188 04-08-04 66 61 64 0 1 0 5.9 10 57 52
SAN 23188 04-09-04 69 61 65 0 0 0 6.6 15 57 52
SAN 23188 04-10-04 69 61 65 0 0 0 6.3 15 58 53
SAN 23188 04-11-04 72 62 67 2 0 0 8.5 21 59 54
SAN 23188 04-12-04 72 59 66 1 0 0 5.2 15 59 55
SAN 23188 04-13-04 68 58 63 0 2 0 7.1 16 56 52
SAN 23188 04-14-04 68 60 64 0 1 0 5.4 12 56 50
SAN 23188 04-15-04 66 58 62 0 3 0 5.8 14 56 51
SAN 23188 04-16-04 67 60 64 0 1 0 7.8 15 55 48
SAN 23188 04-17-04 63 55 0.3 8.4 26 53 46
SAN 23188 04-18-04 66 56 61 0 4 7.1 16 53 46
SAN 23188 04-19-04 67 57 62 0 3 0 6.7 18 55 48
SAN 23188 04-20-04 68 59 64 0 1 0.02 6.1 17 56 51
SAN 23188 04-21-04 68 62 65 0 0 0 6.9 13 58 53
SAN 23188 04-22-04 66 60 63 0 2 7.5 13 57 52
SAN 23188 04-23-04 77 58 68 3 0 0 5.5 16 57 48
SAN 23188 04-24-04 76 60 68 3 0 0 4.8 13 58 48
SAN 23188 04-25-04 76 61 69 4 0 0 5.4 14 61 56
SAN 23188 04-26-04 62 0 5.8 18 61 52
SAN 23188 04-27-04 83 59 71 6 0 0 5.8 15 60 55
SAN 23188 04-28-04 68 59 64 0 1 0 12.3 21 59 56
SAN 23188 04-29-04 66 61 64 0 1 0 8.4 16 55 48
SAN 23188 04-30-04 70 58 64 0 1 0 7.5 18 58 53
SAN 23188 05-01-04 81 60 71 6 0 0 6.4 18 60 53
SAN 23188 05-02-04 63 78 13 0 0 6.2 17 60 46
SAN 23188 05-03-04 93 69 0 5.7 18 61 47
SAN 23188 05-04-04 79 63 71 6 0 0 5.8 16 64 60
SAN 23188 05-05-04 75 61 68 3 0 0 6.1 13 61 57
SAN 23188 05-06-04 82 62 72 7 0 0 6.7 18 62 55
SAN 23188 05-07-04 74 66 70 5 0 0 5.7 14 63 59
SAN 23188 05-08-04 77 63 70 5 0 0 5.3 15 62 56
SAN 23188 05-09-04 77 64 71 6 0 0 5.6 13 61 56
SAN 23188 05-10-04 68 64 66 1 0 0 11 21 59 54
SAN 23188 05-11-04 71 62 67 2 0 0 8.7 14 58 52
SAN 23188 05-12-04 70 61 66 1 0 0 7.9 13 58 51
SAN 23188 05-13-04 77 63 70 5 0 0 6.1 14 61 55
SAN 23188 05-14-04 77 62 70 5 0 0 6.3 17 63 58
SAN 23188 05-15-04 74 63 69 4 0 0 6.5 14 61 57
SAN 23188 05-16-04 68 63 66 1 0 0 10.8 15 59 54
SAN 23188 05-17-04 68 64 66 1 0 0 9.9 15 59 53
SAN 23188 05-18-04 72 63 68 3 0 0 7.3 17 60 54
SAN 23188 05-19-04 69 64 67 2 0 0 7 13 59 53
SAN 23188 05-20-04 69 64 67 2 0 0 6.8 14 58 51
SAN 23188 05-21-04 67 63 65 0 0 0 7.8 14 57 50
SAN 23188 05-22-04 68 63 66 1 0 0 7.6 15 57 51
SAN 23188 05-23-04 68 63 66 1 0 0 8.3 15 58 52
SAN 23188 05-24-04 68 62 65 0 0 0 8.7 16 56 49
SAN 23188 05-25-04 67 63 0 7.6 15 55 48
SAN 23188 05-26-04 70 63 67 2 0 7.9 16 57 50
SAN 23188 05-27-04 69 63 66 1 0 0 7.3 15 59 54
SAN 23188 05-28-04 67 64 66 1 0 0 6.2 16 59 55
SAN 23188 05-29-04 71 64 68 3 0 0 7.6 16 60 55
SAN 23188 05-30-04 75 63 69 4 0 0 4.7 14 62 58
SAN 23188 05-31-04 82 64 73 8 0 0 4.3 12 63 58
SAN 23188 06-01-04 73 65 69 4 0 0 6.2 13 62 58
SAN 23188 06-02-04 71 64 68 3 0 0 7.1 15 61 57
SAN 23188 06-03-04 72 65 69 4 0 0 5.8 13 62 58
SAN 23188 06-04-04 74 66 70 5 0 0 6.3 13 63 59
SAN 23188 06-05-04 60 68 3 0 0 6.6 13 62 58
SAN 23188 06-06-04 70 64 67 2 0 0 10.9 20 61 57
SAN 23188 06-07-04 69 65 67 2 0 0 9.4 16 61 56
SAN 23188 06-08-04 69 64 67 2 0 0 8.6 14 59 54
SAN 23188 06-09-04 71 64 68 3 0 0 9.6 17 58 52
SAN 23188 06-10-04 73 64 69 4 0 0 6.2 13 60 54
SAN 23188 06-11-04 69 64 67 2 0 0 6.6 12 60 55
SAN 23188 06-12-04 70 64 67 2 0 0 5.7 13 60 55
SAN 23188 06-13-04 69 64 67 2 0 0 6.3 14 60 55
SAN 23188 06-14-04 69 64 67 2 0 0 6.9 14 60 55
SAN 23188 06-15-04 70 64 67 2 0 0 8.7 14 60 55
SAN 23188 06-16-04 70 65 68 3 0 0 8.4 18 61 56
SAN 23188 06-17-04 69 66 68 3 0 0 5.9 13 61 57
SAN 23188 06-18-04 69 65 67 2 0 0 7.3 13 61 56
SAN 23188 06-19-04 71 66 69 4 0 0 7.7 16 61 56
SAN 23188 06-20-04 71 65 68 3 0 0 6.9 15 61 57
SAN 23188 06-21-04 68 64 0 6.8 13 60 55
SAN 23188 06-22-04 70 64 67 2 0 0 6.1 14 60 55
SAN 23188 06-23-04 74 66 70 5 0 0 6.2 13 62 57
SAN 23188 06-24-04 74 61 68 3 0 0 7.4 14 63 59
SAN 23188 06-25-04 75 65 70 5 0 0 5.5 13 63 59
SAN 23188 06-26-04 72 64 68 3 0 0 5.4 14 61 58
SAN 23188 06-27-04 70 64 67 2 0 0 10.1 20 61 57
SAN 23188 06-28-04 69 65 67 2 0 0 9.7 15 60 55
SAN 23188 06-29-04 72 65 69 4 0 0 6.8 14 59 53
SAN 23188 06-30-04 73 66 0 7.3 14 59 52
SAN 23188 07-01-04 74 65 70 5 0 0 6.9 15 61 54
SAN 23188 07-02-04 74 67 71 6 0 0 6.3 13 62 56
SAN 23188 07-03-04 74 66 70 5 0 0 5.8 14 62 57
SAN 23188 07-04-04 74 66 70 5 0 0 6.8 14 62 57
SAN 23188 07-05-04 75 67 71 6 0 0 7.7 15 63 59
SAN 23188 07-06-04 73 67 70 5 0 0 6.7 15 63 59
SAN 23188 07-07-04 73 67 70 5 0 0 6.5 12 63 59
SAN 23188 07-08-04 74 67 71 6 0 0 6.8 14 62 57
SAN 23188 07-09-04 75 67 71 6 0 0 8.5 17 63 58
SAN 23188 07-10-04 74 68 71 6 0 0 8.4 16 64 59
SAN 23188 07-11-04 76 66 71 6 0 0 6.1 14 64 60
SAN 23188 07-12-04 78 67 73 8 0 0 6.4 12 65 61
SAN 23188 07-13-04 78 66 72 7 0 0 6.1 14 66 62
SAN 23188 07-14-04 81 68 75 10 0 0 5.4 13 67 63
SAN 23188 07-15-04 84 73 79 14 0 0 5.1 12 68 63
SAN 23188 07-16-04 72 0 5.3 12 66 59
SAN 23188 07-17-04 83 71 77 12 0 0 4.9 10 68 64
SAN 23188 07-18-04 83 72 78 13 0 0 5.7 12 68 64
SAN 23188 07-19-04 81 70 76 11 0 0 7 15 68 64
SAN 23188 07-20-04 82 69 76 11 0 0 5.6 13 68 64
SAN 23188 07-21-04 76 67 72 7 0 0 7.1 14 66 63
SAN 23188 07-22-04 74 67 71 6 0 0 7.3 13 64 60
SAN 23188 07-23-04 74 67 71 6 0 0 6.9 14 64 61
SAN 23188 07-24-04 73 67 70 5 0 0 6.6 14 64 62
SAN 23188 07-25-04 76 67 72 7 0 0 6.9 16 66 63
SAN 23188 07-26-04 75 67 71 6 0 0 5.7 12 65 62
SAN 23188 07-27-04 76 67 72 7 0 0 6.1 13 64 61
SAN 23188 07-28-04 74 66 70 5 0 0 6.5 14 63 58
SAN 23188 07-29-04 74 66 70 5 0 0 6.6 15 63 58
SAN 23188 07-30-04 74 67 71 6 0 0 6.1 14 63 59
SAN 23188 07-31-04 73 67 0 6.1 13 63 58
SAN 23188 08-01-04 72 66 69 4 0 0 6.9 13 63 59
SAN 23188 08-02-04 73 67 70 5 0 0 6.2 14 62 57
SAN 23188 08-03-04 74 67 71 6 0 0 7 14 62 58
SAN 23188 08-04-04 70 66 0 5.7 14 63 59
SAN 23188 08-05-04 73 65 69 4 0 0 6.1 12 62 59
SAN 23188 08-06-04 76 63 70 5 0 0 6.4 14 64 61
SAN 23188 08-07-04 76 65 71 6 0 0 6.1 13 66 62
SAN 23188 08-08-04 75 68 72 7 0 0 7.2 15 65 62
SAN 23188 08-09-04 75 67 71 6 0 0 7 15 66 63
SAN 23188 08-10-04 67 73 8 0 0 5.4 12 67 64
SAN 23188 08-11-04 77 69 73 8 0 0 6.4 14 66 63
SAN 23188 08-12-04 76 67 72 7 0 0 6.6 14 65 62
SAN 23188 08-13-04 78 68 0 5.8 15 65 62
SAN 23188 08-14-04 75 68 72 7 0 0 6.2 13 65 61
SAN 23188 08-15-04 73 67 70 5 0 0 6.6 14 64 60
SAN 23188 08-16-04 72 66 69 4 0 0 5.3 12 63 59
SAN 23188 08-17-04 75 66 71 6 0 0 4.8 12 64 61
SAN 23188 08-18-04 74 67 71 6 0 0 6.2 13 65 61
SAN 23188 08-19-04 75 67 71 6 0 0 5.4 13 64 60
SAN 23188 08-20-04 74 68 71 6 0 0 5.5 13 64 60
SAN 23188 08-21-04 74 68 71 6 0 0 6.5 14 63 58
SAN 23188 08-22-04 75 67 71 6 0 0 6.9 18 63 58
SAN 23188 08-23-04 75 67 71 6 0 0 7.6 17 63 58
SAN 23188 08-24-04 75 67 71 6 0 0 6.1 14 63 58
SAN 23188 08-25-04 75 67 71 6 0 0 5.9 12 64 60
SAN 23188 08-26-04 74 67 71 6 0 0 6.1 13 64 60
SAN 23188 08-27-04 74 67 71 6 0 0 6.5 13 63 59
SAN 23188 08-28-04 76 66 71 6 0 0 4.9 10 64 60
SAN 23188 08-29-04 76 67 72 7 0 0 6.7 16 65 61
SAN 23188 08-30-04 77 66 72 7 0 0 7.5 15 65 61
SAN 23188 08-31-04 77 66 72 7 0 0 8 16 66 63
SAN 23188 09-01-04 78 66 72 7 0 0 4.2 10 67 64
SAN 23188 09-02-04 78 66 72 7 0 0 7.5 17 66 63
SAN 23188 09-03-04 71 67 69 4 0 0 10.4 18 62 58
SAN 23188 09-04-04 78 63 71 6 0 0 5.2 16 64 60
SAN 23188 09-05-04 67 0 6.2 17 64 53
SAN 23188 09-06-04 82 68 75 10 0 0 4.2 13 65 59
SAN 23188 09-07-04 82 69 76 11 0 0 5.3 12 67 62
SAN 23188 09-08-04 78 72 75 10 0 0 7.1 14 69 67
SAN 23188 09-09-04 81 72 77 12 0 0 4.5 12 70 67
SAN 23188 09-10-04 82 72 77 12 0 0 5.8 14 70 67
SAN 23188 09-11-04 85 73 79 14 0 0 4.7 13 71 68
SAN 23188 09-12-04 78 69 74 9 0 0 5 13 68 65
SAN 23188 09-13-04 74 68 71 6 0 0 9 14 64 60
SAN 23188 09-14-04 74 70 72 7 0 0 9.2 14 64 59
SAN 23188 09-15-04 76 70 73 8 0 0 6.4 13 64 58
SAN 23188 09-16-04 77 70 74 9 0 0 6 15 66 61
SAN 23188 09-17-04 78 70 74 9 0 0 6.5 16 67 63
SAN 23188 09-18-04 76 69 73 8 0 0 6.7 15 64 60
SAN 23188 09-19-04 72 66 69 4 0 0 10.7 17 60 54
SAN 23188 09-20-04 74 65 70 5 0 0 7.5 17 60 53
SAN 23188 09-21-04 84 61 73 8 0 0 5.1 17 59 48
SAN 23188 09-22-04 86 63 75 10 0 0 5.4 18 56 38
SAN 23188 09-23-04 86 66 76 11 0 0 4.6 15 59 45
SAN 23188 09-24-04 81 63 72 7 0 0 4.6 14 62 55
SAN 23188 09-25-04 76 65 71 6 0 0 4.8 15 65 62
SAN 23188 09-26-04 75 65 70 5 0 0 5.5 15 65 62
SAN 23188 09-27-04 73 65 69 4 0 0 5.9 17 63 60
SAN 23188 09-28-04 70 64 67 2 0 0 5.8 14 60 55
SAN 23188 09-29-04 73 66 70 5 0 0 6.4 14 60 53
SAN 23188 09-30-04 70 64 4.8 12 60 55
SAN 23188 10-01-04 72 65 69 4 0 0 6.2 16 61 56
SAN 23188 10-02-04 71 62 67 2 0 0 6.1 13 61 57
SAN 23188 10-03-04 71 64 68 3 0 0 7.6 17 62 59
SAN 23188 10-04-04 71 64 68 3 0 0 6 16 62 59
SAN 23188 10-05-04 71 63 67 2 0 0 5 15 62 58
SAN 23188 10-06-04 72 61 67 2 0 0 4.4 12 62 59
SAN 23188 10-07-04 72 62 67 2 0 0 5.3 13 62 60
SAN 23188 10-08-04 76 62 69 4 0 0 5.4 15 63 61
SAN 23188 10-09-04 70 62 66 1 0 0 5.5 15 62 58
SAN 23188 10-10-04 69 63 66 1 0 0 7.4 14 59 54
SAN 23188 10-11-04 71 61 66 1 0 0 3.9 12 60 56
SAN 23188 10-12-04 72 65 69 4 0 0 5.5 14 62 58
SAN 23188 10-13-04 73 65 69 4 0 0 5.6 13 62 58
SAN 23188 10-14-04 72 62 67 2 0 0 5.6 16 62 60
SAN 23188 10-15-04 70 64 67 2 0 0 5.6 12 61 57
SAN 23188 10-16-04 70 64 67 2 0 0 5.8 12 60 56
SAN 23188 10-17-04 71 65 68 3 0 0.09 10.2 18 64 61
SAN 23188 10-18-04 70 67 0.13 9.4 17 64 62
SAN 23188 10-19-04 69 64 67 2 0 0.58 11.2 23 64 62
SAN 23188 10-20-04 69 60 65 0 0 0.95 11.4 30 61 60
SAN 23188 10-21-04 67 59 63 0 2 0.07 5.4 16 57 52
SAN 23188 10-22-04 68 57 63 0 2 0 5.4 14 56 51
SAN 23188 10-23-04 69 56 63 0 2 0 4.4 14 57 53
SAN 23188 10-24-04 69 57 63 0 2 0 3.7 13 58 54
SAN 23188 10-25-04 67 62 65 0 0 5.4 15 58 53
SAN 23188 10-26-04 67 60 64 0 1 0.01 9.6 25 57 51
SAN 23188 10-27-04 63 55 2.7 8.1 26 56 53
SAN 23188 10-28-04 65 57 61 0 4 0.45 4.8 13 55 51
SAN 23188 10-29-04 66 54 60 0 5 0 3.7 14 54 48
SAN 23188 11-01-04 74 56 65 0 0 0 4.7 14 54 45
SAN 23188 11-02-04 71 53 62 0 3 0 4.2 15 52 42
SAN 23188 11-03-04 69 52 61 0 4 0 4.8 12 53 45
SAN 23188 11-04-04 64 55 60 0 5 0 6.5 14 52 43
SAN 23188 11-05-04 64 52 58 0 7 0 2.6 10 51 45
SAN 23188 11-06-04 69 51 60 0 5 0 3.5 10 53 46
SAN 23188 11-07-04 65 57 61 0 4 0.12 3.6 15 55 50
SAN 23188 11-08-04 66 57 62 0 3 0.01 4.7 13 57 53
SAN 23188 11-09-04 66 57 62 0 3 0 4.5 15 56 51
SAN 23188 11-10-04 66 53 60 0 5 0 5.3 15 56 52
SAN 23188 11-11-04 68 56 62 0 3 0 5.2 16 56 52
SAN 23188 11-12-04 67 58 63 0 2 4.6 14 57 53
SAN 23188 11-13-04 68 57 63 0 2 0.04 4.9 10 56 53
SAN 23188 11-14-04 75 53 64 0 1 0 5.7 16 55 48
SAN 23188 11-15-04 54 0 4.3 14 54 42
SAN 23188 11-16-04 73 56 65 0 0 0 3.3 9 55 47
SAN 23188 11-17-04 71 56 64 0 1 0 2.7 13 56 50
SAN 23188 11-18-04 71 54 63 0 2 0 3.1 14 57 53
SAN 23188 11-19-04 65 54 60 0 5 0 5 12 57 54
SAN 23188 11-20-04 64 60 62 0 3 0 7.4 15 56 50
SAN 23188 11-21-04 61 48 55 0 10 0.13 8 35 49 42
SAN 23188 11-22-04 61 48 55 0 10 4.6 12 47 40
SAN 23188 11-23-04 63 49 56 0 9 0 3.5 12 50 44
SAN 23188 11-24-04 66 50 58 0 7 0 3.5 14 53 48
SAN 23188 11-25-04 67 50 59 0 6 0 3.2 12 54 49
SAN 23188 11-26-04 65 58 62 0 3 0 5.2 10 56 51
SAN 23188 11-27-04 63 55 59 0 6 0.03 6.1 18 55 51
SAN 23188 11-28-04 65 51 58 0 7 0 6 17 48 37
SAN 23188 11-29-04 63 43 53 0 12 5.6 16 41 24
SAN 23188 11-30-04 61 41 0 4.7 15 41 26
SAN 23188 12-01-04 61 42 52 0 13 0 3.6 14 43 33
SAN 23188 12-02-04 81 43 62 0 3 0 3.3 14 45 34
SAN 23188 12-03-04 64 45 55 0 10 0 2.4 10 45 33
SAN 23188 12-04-04 58 46 0.45 4.6 12 47 40
SAN 23188 12-05-04 57 51 54 0 11 0.34 8.5 20 48 43
SAN 23188 12-06-04 61 50 56 0 9 0 2.9 12 50 46
SAN 23188 12-07-04 59 50 55 0 10 0 3.5 14 50 46
SAN 23188 12-08-04 63 53 58 0 7 0.06 5.4 13 55 52
SAN 23188 12-09-04 64 51 58 0 7 0 5.9 15 55 52
SAN 23188 12-10-04 75 51 63 0 2 0.01 3.3 12 56 51
SAN 23188 12-11-04 64 53 59 0 6 0 3 12 54 52
SAN 23188 12-12-04 61 53 57 0 8 0 4 9 54 52
SAN 23188 12-13-04 62 55 59 0 6 0 7.2 16 55 52
SAN 23188 12-14-04 70 50 60 0 5 0.01 4.3 12 55 52
SAN 23188 12-15-04 70 50 60 0 5 0.01 2.6 13 54 52
SAN 23188 12-16-04 76 50 63 0 2 0.01 2.3 10 51 40
SAN 23188 12-17-04 77 54 66 1 0 0 5 22 49 29
SAN 23188 12-18-04 48 0 2.2 16 48 33
SAN 23188 12-19-04 77 51 64 0 1 0 2.9 14 49 33
SAN 23188 12-20-04 65 50 58 0 7 0 4.3 9 52 46
SAN 23188 12-21-04 63 55 59 0 6 0 5.1 14 53 48
SAN 23188 12-22-04 66 50 58 0 7 0 3.2 13 51 44
SAN 23188 12-23-04 64 47 56 0 9 0 3.5 13 43 25
SAN 23188 12-24-04 73 49 61 0 4 0 6.1 17 44 23
SAN 23188 12-25-04 63 44 54 0 11 0 3.2 10 46 36
SAN 23188 12-26-04 61 49 55 0 10 0 2.4 10 50 44
SAN 23188 12-27-04 64 55 60 0 5 0 10.6 22 53 46
SAN 23188 12-28-04 64 57 61 0 4 1.27 15 30 57 54
SAN 23188 12-29-04 63 55 59 0 6 1.6 12.1 46 55 52
SAN 23188 12-30-04 62 53 58 0 7 0.02 3.6 12 52 48
SAN 23188 12-31-04 60 51 56 0 9 0.27 6.8 22 52 49
SAN 23188 01-01-05 61 47 54 0 11 0.01 2.6 14 48 42
SAN 23188 01-02-05 59 47 53 0 12 0 4.6 13 48 42
SAN 23188 01-03-05 60 52 56 0 9 1.08 5.3 16 52 48
SAN 23188 01-04-05 54 47 0.6 7.1 16 47 44
SAN 23188 01-05-05 61 47 54 0 11 0 3.2 12 48 43
SAN 23188 01-06-05 59 45 52 0 13 0 2.6 13 47 42
SAN 23188 01-07-05 56 50 53 0 12 0.57 12 28 50 47
SAN 23188 01-08-05 63 56 60 0 5 0.2 13.1 23 57 56
SAN 23188 01-09-05 64 60 62 0 3 0.76 10.3 20 60 58
SAN 23188 01-10-05 62 58 60 0 5 0.03 6.8 17 59 58
SAN 23188 01-11-05 61 53 57 0 8 0.81 14.4 24 53 48
SAN 23188 01-12-05 62 50 56 0 9 4.8 14 50 45
SAN 23188 01-13-05 63 47 55 0 10 0 3.3 14 49 43
SAN 23188 01-14-05 65 49 57 0 8 0 2.5 13 50 45
SAN 23188 01-15-05 69 46 58 0 7 0 4 14 50 42
SAN 23188 01-16-05 76 47 62 0 3 0 3.1 12 50 38
SAN 23188 01-17-05 79 50 65 0 0 0 2.9 13 52 43
SAN 23188 01-18-05 81 53 67 2 0 0 4.7 15 53 41
SAN 23188 01-19-05 54 0 3.6 15 54 42
SAN 23188 01-20-05 71 56 64 0 1 0 4.1 10 54 46
SAN 23188 01-21-05 67 56 62 0 3 0 3.5 10 55 51
SAN 23188 01-22-05 70 53 62 0 3 0 4.1 14 55 53
SAN 23188 01-23-05 74 53 64 0 1 0 4.3 13 56 52
SAN 23188 01-24-05 69 57 63 0 2 0 4.8 13 57 53
SAN 23188 01-25-05 66 57 62 0 3 0.01 2.4 10 57 54
SAN 23188 01-26-05 64 58 61 0 4 0.01 5.3 12 58 55
SAN 23188 01-27-05 64 55 60 0 5 0.01 3.5 12 55 51
SAN 23188 01-28-05 63 52 58 0 7 0.41 7.1 21 53 50
SAN 23188 01-29-05 62 53 58 0 7 7.9 18 50 43
SAN 23188 01-30-05 63 48 56 0 9 0 3.7 15 49 43
SAN 23188 01-31-05 67 47 57 0 8 0 3.1 14 50 42
SAN 23188 02-01-05 69 48 59 0 6 0 4.2 15 49 39
SAN 23188 02-02-05 73 50 62 0 3 0 7.4 23 47 27
SAN 23188 02-03-05 73 57 0 9.7 23 47 25
SAN 23188 02-04-05 51 63 0 2 0 5.9 18 50 36
SAN 23188 02-05-05 63 49 0 5 12 52 46
SAN 23188 02-06-05 60 56 58 0 7 8.1 17 52 46
SAN 23188 02-07-05 62 54 58 0 7 0.02 6.2 12 52 48
SAN 23188 02-08-05 64 52 58 0 7 0 5 16 52 47
SAN 23188 02-09-05 70 51 61 0 4 0 3.4 14 52 44
SAN 23188 02-10-05 66 57 62 0 3 0.2 4.2 18 53 47
SAN 23188 02-11-05 67 55 61 0 4 1.19 11.7 20 57 54
SAN 23188 02-12-05 61 56 59 0 6 0.25 9.4 18 56 54
SAN 23188 02-13-05 66 58 62 0 3 4.5 15 57 54
SAN 23188 02-14-05 63 55 59 0 6 0 3.5 12 55 51
SAN 23188 02-15-05 63 53 58 0 7 3.1 9 53 48
SAN 23188 02-16-05 70 51 61 0 4 0 3.9 13 54 48
SAN 23188 02-17-05 68 55 62 0 3 0.04 3.8 14 56 52
SAN 23188 02-18-05 65 57 61 0 4 0.53 10.3 20 56 53
SAN 23188 02-19-05 64 59 62 0 3 0.11 11.4 23 57 54
SAN 23188 02-20-05 64 55 60 0 5 10.1 22 56 52
SAN 23188 02-21-05 62 55 59 0 6 2.18 10.5 24 56 53
SAN 23188 02-22-05 64 56 60 0 5 0.88 13.3 25 55 51
SAN 23188 02-23-05 62 54 58 0 7 0.43 5.5 22 53 48
SAN 23188 02-24-05 64 51 58 0 7 0 4.2 13 53 49
SAN 23188 02-25-05 64 54 59 0 6 0 3.9 15 54 49
SAN 23188 02-26-05 64 58 61 0 4 0 5.7 15 54 48
SAN 23188 02-27-05 65 55 60 0 5 0 5.4 16 54 49
SAN 23188 02-28-05 64 54 59 0 6 5.2 17 54 49
SAN 23188 03-01-05 65 58 62 0 3 0 7.3 15 56 51
SAN 23188 03-02-05 65 57 61 0 4 6.9 15 55 51
SAN 23188 03-03-05 64 56 60 0 5 0.01 5.4 13 55 50
SAN 23188 03-04-05 62 55 59 0 6 1.12 8 16 54 51
SAN 23188 03-05-05 63 54 59 0 6 0.29 7.8 21 53 49
SAN 23188 03-06-05 64 56 60 0 5 4.5 12 55 51
SAN 23188 03-07-05 67 55 61 0 4 0 4.8 14 56 53
SAN 23188 03-08-05 65 57 61 0 4 0 5.8 13 56 53
SAN 23188 03-09-05 65 56 61 0 4 0 5.8 16 56 54
SAN 23188 03-10-05 66 57 62 0 3 0 4.2 12 57 54
SAN 23188 03-11-05 63 58 61 0 4 0 4 9 57 54
SAN 23188 03-12-05 63 58 61 0 4 4.7 10 56 53
SAN 23188 03-13-05 62 59 61 0 4 0 6.9 13 54 48
SAN 23188 03-14-05 66 56 61 0 4 0.02 5.2 18 55 52
SAN 23188 03-15-05 77 50 64 0 1 0 5.2 20 50 35
SAN 23188 03-16-05 73 51 62 0 3 0 3.9 14 50 37
SAN 23188 03-17-05 66 57 62 0 3 0 6.4 13 56 51
SAN 23188 03-18-05 63 56 60 0 5 0.01 7.8 20 54 48
SAN 23188 03-19-05 66 53 60 0 5 0.06 8.7 17 56 53
SAN 23188 03-20-05 66 58 62 0 3 9.7 17 56 51
SAN 23188 03-21-05 66 57 62 0 3 0 6.8 15 55 50
SAN 23188 03-22-05 66 56 61 0 4 0.47 7.1 21 56 52
SAN 23188 03-23-05 64 55 60 0 5 0.06 11.2 20 53 46
SAN 23188 03-24-05 62 55 0.07 6.4 14 52 46
SAN 23188 03-25-05 64 55 60 0 5 0 5 14 53 47
SAN 23188 03-26-05 70 51 61 0 4 0 5.2 15 53 47
SAN 23188 03-27-05 73 55 64 0 1 0 3.6 12 54 46
SAN 23188 03-28-05 65 57 61 0 4 0.01 9.9 21 55 50
SAN 23188 03-29-05 65 56 61 0 4 0 6.5 14 54 48
SAN 23188 03-30-05 68 57 63 0 2 0 8.7 18 54 48
SAN 23188 03-31-05 55 0 4.6 17 53 40
SAN 23188 04-01-05 76 56 66 1 0 0 6.9 18 50 30
SAN 23188 04-02-05 77 56 67 2 0 0 4.2 12 53 39
SAN 23188 04-03-05 65 58 62 0 3 0 6.1 14 55 49
SAN 23188 04-04-05 64 56 60 0 5 9.1 18 52 45
SAN 23188 04-05-05 81 53 67 2 0 0 5.1 15 54 45
SAN 23188 04-06-05 58 0 4.5 16 57 48
SAN 23188 04-07-05 70 57 64 0 1 0 10 21 55 50
SAN 23188 04-08-05 64 56 60 0 5 9.3 22 53 47
SAN 23188 04-09-05 63 56 60 0 5 0 9.4 22 52 45
SAN 23188 04-10-05 67 53 60 0 5 0 5.1 14 53 46
SAN 23188 04-11-05 71 54 63 0 2 0 4.8 14 54 48
SAN 23188 04-12-05 70 55 63 0 2 0 6 16 56 51
SAN 23188 04-13-05 67 55 61 0 4 0 5.1 14 55 51
SAN 23188 04-14-05 67 54 61 0 4 0 6.2 16 54 50
SAN 23188 04-15-05 69 53 61 0 4 0 4.5 12 55 50
SAN 23188 04-16-05 68 56 62 0 3 0 5.6 13 57 52
SAN 23188 04-17-05 63 57 60 0 5 0 5.8 12 55 51
SAN 23188 04-18-05 63 56 60 0 5 0.03 10.2 16 54 49
SAN 23188 04-19-05 61 56 59 0 6 9.1 16 51 45
SAN 23188 04-20-05 67 52 60 0 5 0 5.1 15 53 47
SAN 23188 04-21-05 68 54 61 0 4 0 6.8 17 56 50
SAN 23188 04-22-05 62 56 0.04 4.9 14 55 52
SAN 23188 04-23-05 66 53 60 0 5 0.01 5.6 16 54 49
SAN 23188 04-24-05 65 58 62 0 3 8.8 15 55 51
SAN 23188 04-25-05 65 56 61 0 4 0 5.3 14 54 49
SAN 23188 04-26-05 66 56 61 0 4 0 5.9 14 55 51
SAN 23188 04-27-05 65 59 62 0 3 0 7.9 15 55 49
SAN 23188 04-28-05 66 58 62 0 3 0.51 10.5 24 57 53
SAN 23188 04-29-05 68 58 63 0 2 8 17 56 51
SAN 23188 04-30-05 67 56 62 0 3 0 6.5 17 57 52
SAN 23188 05-01-05 67 59 63 0 2 0 6.2 16 57 52
SAN 23188 05-02-05 69 59 64 0 1 0 5.9 15 57 53
SAN 23188 05-03-05 68 60 64 0 1 0 5.8 15 57 53
SAN 23188 05-04-05 66 61 64 0 1 0 8.2 14 57 53
SAN 23188 05-05-05 67 61 64 0 1 0.12 9.4 16 59 55
SAN 23188 05-06-05 68 60 64 0 1 0 9.1 16 57 52
SAN 23188 05-07-05 67 58 63 0 2 0 7.6 16 55 49
SAN 23188 05-08-05 68 57 63 0 2 0 6.5 15 56 51
SAN 23188 05-09-05 70 59 65 0 0 0 7.9 15 57 52
SAN 23188 05-10-05 68 60 64 0 1 0 8.5 18 55 47
SAN 23188 05-11-05 70 56 63 0 2 0 5.9 16 55 48
SAN 23188 05-12-05 76 58 67 2 0 0 6.2 18 58 52
SAN 23188 05-13-05 75 62 69 4 0 0 5.5 15 61 56
SAN 23188 05-14-05 62 71 6 0 0 4.8 13 62 57
SAN 23188 05-15-05 71 61 66 1 0 0 6.8 12 60 57
SAN 23188 05-16-05 66 62 64 0 1 10 18 59 55
SAN 23188 05-17-05 69 62 66 1 0 0 7 13 59 54
SAN 23188 05-18-05 71 62 67 2 0 0 6.8 15 60 55
SAN 23188 05-19-05 75 61 68 3 0 0 6.8 18 61 56
SAN 23188 05-20-05 75 64 70 5 0 0 6.4 16 63 60
SAN 23188 05-21-05 78 63 0 5.2 12 63 59
SAN 23188 05-22-05 68 58 0 6.5 12 60 58
SAN 23188 05-23-05 69 59 64 0 1 0 6.4 13 59 56
SAN 23188 05-24-05 67 61 64 0 1 0 6.4 12 59 56
SAN 23188 05-25-05 71 63 67 2 0 0 7.5 15 61 57
SAN 23188 05-26-05 71 62 67 2 0 0 7.5 15 60 56
SAN 23188 05-27-05 69 62 66 1 0 0 6.6 12 59 54
SAN 23188 05-28-05 69 62 66 1 0 0 7.1 14 59 54
SAN 23188 05-29-05 71 62 67 2 0 0 7.3 14 59 54
SAN 23188 05-30-05 68 62 65 0 0 0 6.9 14 58 53
SAN 23188 05-31-05 70 63 67 2 0 0 6.2 13 59 54
SAN 23188 06-01-05 72 62 67 2 0 0 6.8 14 59 54
SAN 23188 06-02-05 67 62 65 0 0 0 9.2 15 59 55
SAN 23188 06-03-05 71 63 67 2 0 0.02 9 17 60 56
SAN 23188 06-04-05 68 61 65 0 0 0 7.5 13 59 56
SAN 23188 06-05-05 67 63 65 0 0 0 7.8 14 59 54
SAN 23188 06-06-05 62 70 5 0 0 7.6 17 59 54
SAN 23188 06-07-05 71 61 66 1 0 0 8.4 13 58 53
SAN 23188 06-08-05 71 62 67 2 0 0 6.5 13 60 55
SAN 23188 06-09-05 67 62 65 0 0 8.1 15 59 56
SAN 23188 06-10-05 67 63 65 0 0 0 6.4 12 60 57
SAN 23188 06-11-05 68 62 65 0 0 0 6.9 13 60 56
SAN 23188 06-12-05 66 63 65 0 0 0 7.7 13 59 56
SAN 23188 06-13-05 72 63 68 3 0 0 6.4 14 62 58
SAN 23188 06-14-05 66 63 65 0 0 5.7 12 62 59
SAN 23188 06-15-05 67 63 65 0 0 0 5.5 12 60 57
SAN 23188 06-16-05 68 62 0 6.2 13 59 55
SAN 23188 06-17-05 71 63 67 2 0 0 9.5 16 61 56
SAN 23188 06-18-05 71 63 67 2 0 0 8.3 17 59 53
SAN 23188 06-19-05 72 60 66 1 0 0 6.9 16 60 55
SAN 23188 06-20-05 74 62 68 3 0 0 7.2 17 62 57
SAN 23188 06-21-05 76 64 70 5 0 0 8.1 17 62 58
SAN 23188 06-22-05 75 64 0 5.2 12 63 59
SAN 23188 06-23-05 71 63 67 2 0 0 6.6 14 60 56
SAN 23188 06-24-05 72 61 67 2 0 0 7.6 15 61 57
SAN 23188 06-25-05 70 62 66 1 0 0 6.8 14 58 53
SAN 23188 06-26-05 70 63 67 2 0 0 6.7 16 58 52
SAN 23188 06-27-05 71 63 67 2 0 0 6.4 14 59 53
SAN 23188 06-28-05 71 63 67 2 0 0 7.2 15 59 53
SAN 23188 06-29-05 71 63 67 2 0 0 7.6 16 61 57
SAN 23188 06-30-05 70 62 66 1 0 0 7.8 16 60 57
SAN 23188 07-01-05 71 61 66 1 0 6.9 14 60 57
SAN 23188 07-02-05 72 63 68 3 0 0 6.1 13 61 57
SAN 23188 07-03-05 71 63 67 2 0 0 6.2 13 61 57
SAN 23188 07-04-05 71 62 67 2 0 0 7.1 13 60 56
SAN 23188 07-05-05 71 63 67 2 0 0 6.8 14 61 57
SAN 23188 07-06-05 70 64 67 2 0 0 5.3 12 60 56
SAN 23188 07-07-05 72 64 68 3 0 0 6.6 13 61 57
SAN 23188 07-08-05 69 63 66 1 0 0 6.8 12 60 57
SAN 23188 07-09-05 70 63 67 2 0 0 6.6 13 60 57
SAN 23188 07-10-05 70 63 67 2 0 0 6.3 13 60 57
SAN 23188 07-11-05 69 63 0 6.4 13 61 58
SAN 23188 07-12-05 70 64 67 2 0 0 5.9 12 62 59
SAN 23188 07-13-05 76 63 70 5 0 0 9.3 20 64 61
SAN 23188 07-14-05 80 65 73 8 0 0 6.3 15 64 61
SAN 23188 07-15-05 72 64 68 3 0 0 5.4 12 62 59
SAN 23188 07-16-05 73 64 69 4 0 0 5.9 12 62 59
SAN 23188 07-17-05 75 65 70 5 0 0 7.3 14 63 60
SAN 23188 07-18-05 74 65 70 5 0 0 7.2 14 64 61
SAN 23188 07-19-05 73 65 69 4 0 6.2 12 64 61
SAN 23188 07-20-05 68 77 12 0 4.2 15 66 62
SAN 23188 07-21-05 82 70 76 11 0 0 6.5 15 68 64
SAN 23188 07-22-05 85 70 0 7.2 14 68 64
SAN 23188 07-23-05 74 68 71 6 0 0.01 7.5 13 65 62
SAN 23188 07-24-05 76 67 72 7 0 0 5.8 12 65 61
SAN 23188 07-25-05 77 68 73 8 0 0 5.9 13 66 62
SAN 23188 07-26-05 76 68 72 7 0 0 6.3 13 66 62
SAN 23188 07-27-05 76 69 73 8 0 0 7.1 14 66 63
SAN 23188 07-28-05 77 69 73 8 0 0 8.8 18 66 63
SAN 23188 07-29-05 75 68 72 7 0 0 8.7 17 66 63
SAN 23188 07-30-05 77 69 73 8 0 0 8.4 16 67 63
SAN 23188 07-31-05 76 68 72 7 0 0 8.4 16 66 63
SAN 23188 08-01-05 75 68 72 7 0 0 7.9 15 65 62
SAN 23188 08-02-05 75 66 71 6 0 0 6.7 13 64 61
SAN 23188 08-03-05 75 66 71 6 0 0 5.9 12 64 61
SAN 23188 08-04-05 75 67 71 6 0 0 6.3 13 65 61
SAN 23188 08-05-05 75 67 71 6 0 0 5.2 12 64 61
SAN 23188 08-06-05 76 68 72 7 0 0 6.2 14 65 62
SAN 23188 08-07-05 76 69 73 8 0 0 7.3 14 66 62
SAN 23188 08-08-05 76 68 72 7 0 0 6.7 15 66 63
SAN 23188 08-09-05 79 68 74 9 0 0 6.2 13 66 63
SAN 23188 08-10-05 75 68 72 7 0 4.7 12 65 61
SAN 23188 08-11-05 76 67 72 7 0 0 6.1 13 65 62
SAN 23188 08-12-05 72 67 70 5 0 0 6.7 12 63 60
SAN 23188 08-13-05 71 66 69 4 0 0 6.4 12 62 58
SAN 23188 08-14-05 72 65 69 4 0 0 6.2 14 61 56
SAN 23188 08-15-05 72 66 69 4 0 0 6.3 13 61 56
SAN 23188 08-16-05 75 65 70 5 0 0 6.4 16 63 58
SAN 23188 08-17-05 75 66 71 6 0 0 6.9 16 64 60
SAN 23188 08-18-05 75 66 71 6 0 0 6.4 15 63 58
SAN 23188 08-19-05 75 64 70 5 0 0 7.3 17 62 58
SAN 23188 08-20-05 74 65 70 5 0 0 8.7 16 64 60
SAN 23188 08-21-05 74 65 70 5 0 0 8.5 17 64 61
SAN 23188 08-22-05 74 64 69 4 0 0 6.3 13 63 60
SAN 23188 08-23-05 71 62 67 2 0 0 5.8 12 61 58
SAN 23188 08-24-05 75 63 69 4 0 0 5.7 13 64 60
SAN 23188 08-25-05 68 76 11 0 0 7.3 16 66 61
SAN 23188 08-26-05 84 69 0 0 16 67 61
SAN 23188 08-27-05 82 71 0 6.9 16 68 63
SAN 23188 08-28-05 80 68 74 9 0 6.6 15 68 65
SAN 23188 08-29-05 79 67 73 8 0 0 4.9 12 67 64
SAN 23188 08-30-05 75 65 70 5 0 0 6 12 65 63
SAN 23188 08-31-05 72 65 69 4 0 0 6.1 12 0 0
SAN 23188 09-01-05 74 65 70 5 0 0 5.8 13 63 59
SAN 23188 09-02-05 74 64 69 4 0 0 6.9 15 63 60
SAN 23188 09-03-05 75 63 69 4 0 0 7.1 16 63 60
SAN 23188 09-04-05 75 64 70 5 0 0 6.5 16 64 61
SAN 23188 09-05-05 79 62 71 6 0 0 5 14 64 60
SAN 23188 09-06-05 77 59 68 3 0 0 6.8 16 64 60
SAN 23188 09-07-05 75 62 69 4 0 0 6.3 15 63 60
SAN 23188 09-08-05 73 66 70 5 0 0 5.8 16 63 59
SAN 23188 09-09-05 72 65 69 4 0 0 7.3 16 61 56
SAN 23188 09-10-05 70 66 68 3 0 0 6.6 13 61 56
SAN 23188 09-11-05 70 64 67 2 0 0 6.3 14 60 54
SAN 23188 09-12-05 71 62 67 2 0 0 5.5 14 59 54
SAN 23188 09-13-05 71 63 67 2 0 0 5.4 16 59 53
SAN 23188 09-14-05 70 62 66 1 0 0 7.2 16 59 54
SAN 23188 09-15-05 72 63 68 3 0 0 6.6 14 60 56
SAN 23188 09-16-05 72 64 68 3 0 0 7.1 16 60 55
SAN 23188 09-17-05 72 64 68 3 0 0 6 14 61 57
SAN 23188 09-18-05 69 62 66 1 0 0 5.2 10 60 57
SAN 23188 09-19-05 72 64 68 3 0 0.01 5.9 12 62 58
SAN 23188 09-20-05 77 66 72 7 0 0.09 7.7 18 65 62
SAN 23188 09-21-05 74 64 69 4 0 0 7.7 17 63 59
SAN 23188 09-22-05 75 61 68 3 0 0 5.1 14 62 59
SAN 23188 09-23-05 70 61 66 1 0 0 5.6 13 61 58
SAN 23188 09-24-05 71 63 67 2 0 0 5.5 15 60 56
SAN 23188 09-25-05 71 59 0 5.5 14 60 55
SAN 23188 09-26-05 79 62 71 6 0 0 7.4 18 61 55
SAN 23188 09-27-05 76 62 69 4 0 0 7.9 20 61 55
SAN 23188 09-28-05 59 0 5.7 15 59 51
SAN 23188 09-29-05 82 63 73 8 0 0 2.4 14 64 60
SAN 23188 09-30-05 78 62 70 5 0 0 3.3 16 64 61
SAN 23188 10-01-05 76 63 70 5 0 0 5.8 14 64 61
SAN 23188 10-02-05 72 64 68 3 0 0 5.4 12 61 57
SAN 23188 10-03-05 72 63 68 3 0 0 5.8 16 60 56
SAN 23188 10-04-05 72 60 66 1 0 0 5.8 17 60 55
SAN 23188 10-05-05 83 61 72 7 0 0 3.6 13 60 54
SAN 23188 10-06-05 64 0 3.2 14 56 37
SAN 23188 10-07-05 78 61 70 5 0 0 4.2 10 59 51
SAN 23188 10-08-05 67 62 65 0 0 0 9.6 15 58 53
SAN 23188 10-09-05 70 58 64 0 1 0 3.6 13 57 52
SAN 23188 10-10-05 73 59 66 1 0 0 3.8 12 60 56
SAN 23188 10-11-05 70 62 66 1 0 0 5.8 16 61 58
SAN 23188 10-12-05 69 61 65 0 0 0 6.7 15 60 57
SAN 23188 10-13-05 74 58 66 1 0 0 5.3 14 62 59
SAN 23188 10-14-05 86 60 73 8 0 0 3.4 13 61 52
SAN 23188 10-15-05 68 62 65 0 0 0 7.6 17 60 57
SAN 23188 10-16-05 68 60 64 0 1 0.01 8.9 16 57 51
SAN 23188 10-17-05 66 60 63 0 2 0.44 4.7 15 57 54
SAN 23188 10-18-05 68 60 64 0 1 0.01 6.4 14 58 54
SAN 23188 10-19-05 69 57 63 0 2 0 6.9 18 58 54
SAN 23188 10-20-05 69 61 65 0 0 0 6.3 14 60 56
SAN 23188 10-21-05 65 62 64 0 1 0 4.6 12 60 57
SAN 23188 10-22-05 64 62 63 0 2 5.4 10 60 57
SAN 23188 10-23-05 65 61 63 0 2 5.5 12 59 57
SAN 23188 10-24-05 64 61 63 0 2 4.7 12 59 56
SAN 23188 10-25-05 67 61 64 0 1 6.1 15 58 54
SAN 23188 10-26-05 67 60 64 0 1 0 5.7 15 58 54
SAN 23188 10-27-05 69 61 65 0 0 0 6.5 15 58 53
SAN 23188 10-28-05 68 60 64 0 1 0 4.8 13 57 53
SAN 23188 10-29-05 69 56 63 0 2 0 5.2 14 57 53
SAN 23188 10-30-05 69 57 0 4.9 15 59 56
SAN 23188 10-31-05 84 56 70 5 0 0 3.9 17 58 49
SAN 23188 11-01-05 85 60 0 2.9 10 55 39
SAN 23188 11-02-05 69 59 64 0 1 0 3.9 13 58 54
SAN 23188 11-03-05 67 61 64 0 1 0 5 13 58 53
SAN 23188 11-04-05 67 56 62 0 3 0 3.7 14 56 51
SAN 23188 11-05-05 67 56 62 0 3 0 4 13 57 53
SAN 23188 11-06-05 66 54 60 0 5 0 4 10 57 54
SAN 23188 11-07-05 65 58 62 0 3 0 4.9 10 57 54
SAN 23188 11-08-05 65 61 63 0 2 0 7.4 17 58 54
SAN 23188 11-09-05 67 62 65 0 0 0 6.2 16 58 54
SAN 23188 11-10-05 66 60 63 0 2 0.03 5.5 13 57 53
SAN 23188 11-11-05 65 56 61 0 4 0.06 4.9 13 56 52
SAN 23188 11-12-05 66 53 60 0 5 0 4.5 14 56 52
SAN 23188 11-13-05 68 53 61 0 4 0 4.1 16 56 54
SAN 23188 11-14-05 68 52 60 0 5 0 2.8 13 55 53
SAN 23188 11-15-05 76 52 64 0 1 0 4.2 13 56 53
SAN 23188 11-16-05 78 51 65 0 0 0 3.2 13 50 34
SAN 23188 11-17-05 80 52 66 1 0 0 3.5 13 49 32
SAN 23188 11-18-05 82 53 68 3 0 0 2.9 13 50 31
SAN 23188 11-19-05 80 51 66 1 0 0 3.9 14 48 26
SAN 23188 11-20-05 83 53 68 3 0 0 3.8 12 50 30
SAN 23188 11-21-05 79 55 67 2 0 0 3.4 13 50 31
SAN 23188 11-22-05 78 55 67 2 0 0 2.4 12 53 39
SAN 23188 11-23-05 71 59 65 0 0 0 3.8 14 58 52
SAN 23188 11-24-05 66 55 61 0 4 0 3.7 13 57 54
SAN 23188 11-25-05 64 56 60 0 5 0.01 4.8 10 57 54
SAN 23188 11-26-05 64 55 60 0 5 0.02 7.3 15 56 52
SAN 23188 11-27-05 65 49 57 0 8 0 3.7 15 48 38
SAN 23188 11-28-05 67 47 57 0 8 0 3.2 12 46 31
SAN 23188 11-29-05 65 49 0 4.1 13 50 42
SAN 23188 11-30-05 67 58 63 0 2 0 5.5 15 56 51
SAN 23188 12-01-05 64 55 60 0 5 0 5 12 56 53
SAN 23188 12-02-05 67 52 60 0 5 0.05 5.5 14 56 53
SAN 23188 12-03-05 67 54 61 0 4 0.03 5 16 54 49
SAN 23188 12-04-05 67 47 57 0 8 0 4 15 47 36
SAN 23188 12-05-05 65 44 55 0 10 0 3.5 17 44 29
SAN 23188 12-06-05 68 44 56 0 9 0 3 14 45 32
SAN 23188 12-07-05 64 45 55 0 10 0 2.4 9 46 35
SAN 23188 12-08-05 66 50 58 0 7 0 2.7 12 48 37
SAN 23188 12-09-05 74 55 65 0 0 0 2 12 48 30
SAN 23188 12-10-05 72 51 62 0 3 0 3.5 13 47 29
SAN 23188 12-11-05 67 50 59 0 6 0 2.2 9 49 36
SAN 23188 12-12-05 62 51 57 0 8 0 2.7 10 52 46
SAN 23188 12-13-05 62 49 56 0 9 0 4 15 50 46
SAN 23188 12-14-05 60 48 0 4 14 51 48
SAN 23188 12-15-05 60 53 57 0 8 0 3.8 13 52 48
SAN 23188 12-16-05 61 50 56 0 9 0 4.2 12 50 45
SAN 23188 12-17-05 61 52 57 0 8 0 3.9 12 50 45
SAN 23188 12-18-05 61 52 57 0 8 0 3.8 15 50 44
SAN 23188 12-19-05 72 48 60 0 5 0 3.1 15 52 46
SAN 23188 12-20-05 70 49 60 0 5 0 3.5 16 52 46
SAN 23188 12-21-05 56 0 3.5 16 54 46
SAN 23188 12-22-05 65 55 60 0 5 0 5.8 14 57 55
SAN 23188 12-23-05 67 55 61 0 4 4.3 12 57 55
SAN 23188 12-24-05 62 52 57 0 8 0 3.3 9 54 53
SAN 23188 12-25-05 63 54 59 0 6 0 4.8 13 54 51
SAN 23188 12-26-05 64 57 61 0 4 0 5.8 14 56 53
SAN 23188 12-27-05 65 53 59 0 6 0 5.6 14 55 52
SAN 23188 12-28-05 66 55 61 0 4 0 5.9 17 55 52
SAN 23188 12-29-05 63 54 59 0 6 0 5 12 54 50
SAN 23188 12-30-05 63 51 57 0 8 0 2.4 13 53 49
SAN 23188 12-31-05 61 53 57 0 8 0.17 5 12 55 53
SAN 23188 01-01-06 63 56 60 0 5 0.06 5.5 14 56 54
SAN 23188 01-02-06 63 54 59 0 6 0.3 12.9 29 57 54
SAN 23188 01-03-06 62 50 56 0 9 0 6.7 18 51 48
SAN 23188 01-04-06 73 48 61 0 4 0 3.2 14 52 46
SAN 23188 01-05-06 77 52 65 0 0 0 2 10 52 41
SAN 23188 01-06-06 51 0 2.2 9 51 36
SAN 23188 01-07-06 64 53 59 0 6 0 3.5 12 53 48
SAN 23188 01-08-06 62 48 55 0 10 0 3.4 13 51 49
SAN 23188 01-09-06 76 48 62 0 3 0 3.1 10 51 40
SAN 23188 01-10-06 71 48 60 0 5 0 2.7 13 46 29
SAN 23188 01-11-06 66 47 57 0 8 0 1.8 10 50 42
SAN 23188 01-12-06 64 51 58 0 7 0 3.4 10 52 49
SAN 23188 01-13-06 62 47 55 0 10 0 3.2 9 52 50
SAN 23188 01-14-06 63 54 59 0 6 5.3 14 53 50
SAN 23188 01-15-06 60 49 55 0 10 8.9 16 49 43
SAN 23188 01-16-06 63 42 53 0 12 0 5.1 15 44 34
SAN 23188 01-17-06 67 45 56 0 9 0 3.2 10 45 31
SAN 23188 01-18-06 63 47 55 0 10 0 4.9 14 49 42
SAN 23188 01-19-06 61 50 56 0 9 0 6.9 20 49 42
SAN 23188 01-20-06 66 45 56 0 9 0 4.4 15 45 32
SAN 23188 01-21-06 62 43 0 3.5 14 43 31
SAN 23188 01-22-06 67 43 55 0 10 0 3.1 13 44 31
SAN 23188 01-23-06 68 44 56 0 9 0 2.7 12 45 28
SAN 23188 01-24-06 64 48 56 0 9 0 5.8 17 49 41
SAN 23188 01-25-06 61 50 56 0 9 0 4.5 13 50 43
SAN 23188 01-26-06 61 49 55 0 10 0 3.7 14 49 44
SAN 23188 01-27-06 61 52 57 0 8 4.8 14 51 46
SAN 23188 01-28-06 62 47 55 0 10 0 2.9 10 50 45
SAN 23188 01-29-06 61 49 55 0 10 0 2.9 9 51 47
SAN 23188 01-30-06 62 50 56 0 9 0 3.3 14 51 47
SAN 23188 01-31-06 63 54 59 0 6 0 5.8 17 53 48
SAN 23188 02-01-06 64 52 58 0 7 0 4.2 12 53 48
SAN 23188 02-02-06 66 50 58 0 7 0 3.1 10 52 47
SAN 23188 02-03-06 63 51 57 0 8 0 5.2 14 54 51
SAN 23188 02-04-06 60 54 57 0 8 0 6.4 15 53 51
SAN 23188 02-05-06 64 55 60 0 5 0 4.7 13 55 52
SAN 23188 02-06-06 77 49 63 0 2 0 4.4 12 51 40
SAN 23188 02-07-06 79 48 64 0 1 0 4 17 46 23
SAN 23188 02-08-06 80 51 0 4.5 14 48 27
SAN 23188 02-09-06 65 51 58 0 7 0 5.5 13 52 46
SAN 23188 02-10-06 64 52 58 0 7 0 4 10 54 51
SAN 23188 02-11-06 70 50 60 0 5 0 5.4 13 54 49
SAN 23188 02-12-06 78 49 64 0 1 0 4.2 16 50 35
SAN 23188 02-13-06 71 52 62 0 3 0 2.9 10 52 43
SAN 23188 02-14-06 61 52 57 0 8 8.1 18 53 50
SAN 23188 02-15-06 62 53 58 0 7 0 10.7 21 51 43
SAN 23188 02-16-06 61 49 55 0 10 0 6.4 16 47 39
SAN 23188 02-17-06 59 51 55 0 10 0.07 5.8 15 47 39
SAN 23188 02-18-06 59 51 55 0 10 0.08 6.1 14 48 41
SAN 23188 02-19-06 59 50 55 0 10 0.19 6.1 20 48 42
SAN 23188 02-20-06 58 45 0 3.8 16 44 36
SAN 23188 02-21-06 59 52 56 0 9 0 16 46 36
SAN 23188 02-22-06 63 46 55 0 10 0 4.8 13 48 40
SAN 23188 02-23-06 67 47 57 0 8 0 4.7 16 49 40
SAN 23188 02-24-06 66 52 59 0 6 0 5.2 14 53 49
SAN 23188 02-25-06 66 47 57 0 8 0 5 17 52 45
SAN 23188 02-26-06 52 64 0 1 0 3.6 9 52 41
SAN 23188 02-27-06 68 52 60 0 5 0.35 4.4 14 50 39
SAN 23188 02-28-06 65 56 61 0 4 0.42 5.6 23 56 53
SAN 23188 03-01-06 64 53 59 0 6 0 4.9 14 52 48
SAN 23188 03-02-06 61 50 56 0 9 0 4.6 16 50 44
SAN 23188 03-03-06 61 50 56 0 9 0.05 6.4 16 50 44
SAN 23188 03-04-06 61 50 56 0 9 0 4.1 15 48 41
SAN 23188 03-05-06 63 48 56 0 9 0 5.8 15 49 43
SAN 23188 03-06-06 66 53 60 0 5 4.6 17 52 46
SAN 23188 03-07-06 63 56 60 0 5 0.05 10.7 20 53 47
SAN 23188 03-08-06 62 54 58 0 7 0 8.7 16 51 44
SAN 23188 03-09-06 60 52 56 0 9 9.8 21 50 44
SAN 23188 03-10-06 59 50 55 0 10 0.09 13.5 25 48 41
SAN 23188 03-11-06 57 47 0.22 13.7 29 46 40
SAN 23188 03-12-06 59 51 55 0 10 0.06 8.8 20 46 37
SAN 23188 03-13-06 59 48 54 0 11 0.04 6.7 17 48 41
SAN 23188 03-14-06 62 47 55 0 10 0 6.7 18 49 42
SAN 23188 03-15-06 62 53 58 0 7 6.7 16 50 44
SAN 23188 03-16-06 63 50 57 0 8 0 5.1 16 50 44
SAN 23188 03-17-06 63 52 58 0 7 0.06 6.5 17 51 46
SAN 23188 03-18-06 61 52 57 0 8 0.03 10.2 18 49 41
SAN 23188 03-19-06 60 49 55 0 10 0.02 9.2 17 49 42
SAN 23188 03-20-06 61 51 56 0 9 0 9 16 50 43
SAN 23188 03-21-06 60 52 56 0 9 0.32 8.1 21 49 42
SAN 23188 03-22-06 64 48 56 0 9 0 5.8 20 49 42
SAN 23188 03-23-06 51 0 6.7 17 52 42
SAN 23188 03-24-06 68 52 60 0 5 0 5.1 16 53 47
SAN 23188 03-25-06 65 54 60 0 5 0 5.6 15 55 51
SAN 23188 03-26-06 62 56 59 0 6 0.02 6 12 53 48
SAN 23188 03-27-06 63 55 59 0 6 5.5 13 52 47
SAN 23188 03-28-06 66 55 61 0 4 0.32 9 21 54 48
SAN 23188 03-29-06 63 54 59 0 6 0.08 6.5 15 52 46
SAN 23188 03-30-06 65 56 61 0 4 0 6.8 16 52 45
SAN 23188 03-31-06 62 56 59 0 6 4 13 52 45
SAN 23188 04-01-06 66 56 61 0 4 0 6.8 14 53 47
SAN 23188 04-02-06 66 52 59 0 6 0 6.7 16 52 44
SAN 23188 04-03-06 73 56 65 0 0 3.3 12 54 45
SAN 23188 04-04-06 70 57 64 0 1 0.41 9.1 22 57 51
SAN 23188 04-05-06 63 57 60 0 5 0.1 14.2 29 52 46
SAN 23188 04-06-06 63 53 58 0 7 5.3 15 51 45
SAN 23188 04-07-06 63 51 0 5.5 14 52 46
SAN 23188 04-08-06 69 52 61 0 4 0 5.8 16 53 47
SAN 23188 04-09-06 65 54 60 0 5 0 6 16 53 47
SAN 23188 04-10-06 66 54 60 0 5 5.1 14 53 46
SAN 23188 04-11-06 68 59 64 0 1 0 6.3 14 55 48
SAN 23188 04-12-06 69 56 63 0 2 0 5.2 12 55 49
SAN 23188 04-13-06 57 65 0 0 0 6.2 16 56 48
SAN 23188 04-14-06 67 59 63 0 2 0.27 7.4 17 57 54
SAN 23188 04-15-06 66 58 62 0 3 0.05 7 16 56 51
SAN 23188 04-16-06 67 59 63 0 2 7.2 20 55 48
SAN 23188 04-17-06 65 56 61 0 4 9.1 17 52 45
SAN 23188 04-18-06 69 53 61 0 4 0 5.8 18 54 47
SAN 23188 04-19-06 72 57 65 0 0 0 3.9 14 56 50
SAN 23188 04-20-06 72 57 65 0 0 0 4.1 13 57 50
SAN 23188 04-21-06 68 61 65 0 0 0 7 15 56 51
SAN 23188 04-22-06 65 60 63 0 2 8.4 17 54 47
SAN 23188 04-23-06 66 55 61 0 4 0.04 6 15 52 45
SAN 23188 04-24-06 67 54 61 0 4 0 7.8 16 53 47
SAN 23188 04-25-06 64 57 61 0 4 0 7 16 54 49
SAN 23188 04-26-06 65 58 62 0 3 8.1 16 53 46
SAN 23188 04-27-06 62 57 60 0 5 0.01 7.1 16 54 50
SAN 23188 04-28-06 71 59 65 0 0 0 7.2 13 57 52
SAN 23188 04-29-06 69 59 64 0 1 0 7.4 15 58 53
SAN 23188 04-30-06 70 60 0 8 14 58 54
SAN 23188 05-01-06 0 7.1 13 58 54
SAN 23188 05-02-06 68 61 65 0 0 0 6.7 14 58 54
SAN 23188 05-03-06 66 61 64 0 1 0 6.5 12 57 53
SAN 23188 05-04-06 67 62 65 0 0 0 6.9 14 55 48
SAN 23188 05-05-06 66 61 64 0 1 0 9.8 16 56 50
SAN 23188 05-06-06 66 60 63 0 2 0 6.8 15 57 52
SAN 23188 05-07-06 68 60 64 0 1 0 7 14 57 52
SAN 23188 05-08-06 65 60 63 0 2 0 6.6 12 57 54
SAN 23188 05-09-06 66 60 63 0 2 0 6.9 13 57 52
SAN 23188 05-10-06 69 61 65 0 0 0 6.2 16 59 55
SAN 23188 05-11-06 68 62 65 0 0 0 5.9 13 60 57
SAN 23188 05-12-06 64 61 63 0 2 0 6.3 13 58 55
SAN 23188 05-13-06 66 60 63 0 2 0 5.4 12 57 53
SAN 23188 05-14-06 67 60 64 0 1 0 5.8 13 58 54
SAN 23188 05-15-06 68 60 64 0 1 0 6 14 58 54
SAN 23188 05-16-06 68 61 65 0 0 0 6.7 14 59 55
SAN 23188 05-17-06 65 62 64 0 1 0 5.5 10 59 56
SAN 23188 05-18-06 68 61 65 0 0 0 5.1 12 59 56
SAN 23188 05-19-06 69 62 66 1 0 0 6.4 13 59 55
SAN 23188 05-20-06 70 63 67 2 0 0 5.3 13 59 54
SAN 23188 05-21-06 68 62 65 0 0 0 9.2 16 59 54
SAN 23188 05-22-06 68 58 0.77 7.5 24 57 52
SAN 23188 05-23-06 72 59 66 1 0 0 8.6 22 58 52
SAN 23188 05-24-06 75 62 69 4 0 0 5.9 17 61 57
SAN 23188 05-25-06 70 63 67 2 0 0 8.8 14 60 56
SAN 23188 05-26-06 68 62 65 0 0 0 11.7 17 58 53
SAN 23188 05-27-06 67 61 64 0 1 9.3 16 57 52
SAN 23188 05-28-06 72 58 65 0 0 0 6.1 16 57 50
SAN 23188 05-29-06 74 58 66 1 0 0 5 13 57 50
SAN 23188 05-30-06 74 60 67 2 0 0 5.1 15 60 55
SAN 23188 05-31-06 63 0 5.1 14 62 58
SAN 23188 06-01-06 73 65 69 4 0 0 6.3 13 61 56
SAN 23188 06-02-06 77 63 70 5 0 0 6.4 14 63 59
SAN 23188 06-03-06 82 64 73 8 0 0 6.9 14 65 60
SAN 23188 06-04-06 72 63 68 3 0 0 5.9 13 62 59
SAN 23188 06-05-06 73 64 69 4 0 0 8 15 62 59
SAN 23188 06-06-06 70 65 68 3 0 5 13 62 59
SAN 23188 06-07-06 68 65 67 2 0 6.1 12 62 58
SAN 23188 06-08-06 70 66 68 3 0 0 5.6 12 62 58
SAN 23188 06-09-06 67 63 0 6 10 60 57
SAN 23188 06-10-06 72 63 68 3 0 0 7.7 15 59 53
SAN 23188 06-11-06 70 63 67 2 0 0 8 15 58 52
SAN 23188 06-12-06 72 64 68 3 0 0 8.6 15 58 51
SAN 23188 06-13-06 75 65 70 5 0 0 8.7 21 62 56
SAN 23188 06-14-06 78 63 71 6 0 0 6.1 17 62 57
SAN 23188 06-15-06 73 66 70 5 0 0 8.2 13 62 58
SAN 23188 06-16-06 80 65 73 8 0 0 6.4 12 65 60
SAN 23188 06-17-06 74 66 70 5 0 0 7.2 12 64 60
SAN 23188 06-18-06 74 66 70 5 0 0 5.9 12 63 60
SAN 23188 06-19-06 75 67 71 6 0 0 6 13 63 59
SAN 23188 06-20-06 75 66 71 6 0 0 5.4 14 63 58
SAN 23188 06-21-06 74 67 71 6 0 0 5.8 12 62 57
SAN 23188 06-22-06 72 66 69 4 0 0 6 14 62 57
SAN 23188 06-23-06 75 66 71 6 0 0 8.2 17 0 0
SAN 23188 06-24-06 76 68 72 7 0 0 9.2 18 65 61
SAN 23188 06-25-06 82 69 76 11 0 0 8.5 18 66 62
SAN 23188 06-26-06 82 69 76 11 0 7.5 20 67 62
SAN 23188 06-27-06 69 7.9 21 67 61
SAN 23188 06-28-06 83 70 77 12 0 0 6.7 13 66 61
SAN 23188 06-29-06 81 69 75 10 0 0 7.1 15 66 62
SAN 23188 06-30-06 80 69 75 10 0 0 7.1 14 66 62
SAN 23188 07-01-06 83 70 77 12 0 0 5.5 14 67 62
SAN 23188 07-02-06 79 68 74 9 0 0 5.9 13 67 64
SAN 23188 07-03-06 80 71 76 11 0 0 5.8 12 67 64
SAN 23188 07-04-06 79 69 74 9 0 0 5.9 13 66 62
SAN 23188 07-05-06 78 69 74 9 0 0 6 13 66 62
SAN 23188 07-06-06 77 70 74 9 0 0 6.6 14 65 61
SAN 23188 07-07-06 79 69 74 9 0 0 5.6 13 66 62
SAN 23188 07-08-06 81 71 76 11 0 0 5.9 13 68 63
SAN 23188 07-09-06 79 69 74 9 0 0 6.5 15 67 63
SAN 23188 07-10-06 76 68 0 6.3 13 65 61
SAN 23188 07-11-06 79 68 74 9 0 0 7.1 14 66 62
SAN 23188 07-12-06 82 69 76 11 0 0 6.8 16 67 63
SAN 23188 07-13-06 83 71 77 12 0 0 4.9 14 69 64
SAN 23188 07-14-06 82 70 76 11 0 0 8.1 18 68 64
SAN 23188 07-15-06 86 72 79 14 0 0 6.5 17 69 65
SAN 23188 07-16-06 80 72 76 11 0 0.02 7.6 15 69 66
SAN 23188 07-17-06 78 72 75 10 0 0 6.1 14 68 65
SAN 23188 07-18-06 79 72 76 11 0 0 5.8 13 68 64
SAN 23188 07-19-06 79 72 76 11 0 0 6.3 12 68 64
SAN 23188 07-20-06 80 72 76 11 0 0 7.8 16 68 64
SAN 23188 07-21-06 82 73 78 13 0 0 8.9 16 70 66
SAN 23188 07-22-06 99 74 8 17 72 68
SAN 23188 07-23-06 83 73 78 13 0 5.4 15 71 68
SAN 23188 07-24-06 85 74 80 15 0 0.01 6.3 21 72 69
SAN 23188 07-25-06 76 73 75 10 0 0 6.2 14 69 67
SAN 23188 07-26-06 84 73 79 14 0 5.3 12 71 68
SAN 23188 07-27-06 86 75 81 16 0 0 5.4 12 71 67
SAN 23188 07-28-06 83 76 80 15 0 0 6.4 13 72 70
SAN 23188 07-29-06 80 66 73 8 0 0.01 6.9 13 71 69
SAN 23188 07-30-06 80 72 76 11 0 7.6 13 70 66
SAN 23188 08-01-06 78 70 74 9 0 0 7 13 66 61
SAN 23188 08-02-06 78 72 75 10 0 0 8.1 15 66 61
SAN 23188 08-03-06 73 69 71 6 0 0.01 6.4 9 65 61
SAN 23188 08-04-06 76 70 73 8 0 0 7.4 14 63 57
SAN 23188 08-05-06 78 67 73 8 0 0 8.5 17 64 59
SAN 23188 08-06-06 78 71 75 10 0 0 9.4 20 65 60
SAN 23188 08-07-06 78 70 74 9 0 0 9.1 17 65 59
SAN 23188 08-08-06 79 68 74 9 0 0 7.7 16 66 61
SAN 23188 08-09-06 80 70 75 10 0 0 7.2 17 67 63
SAN 23188 08-10-06 79 71 75 10 0 0 5.9 12 68 64
SAN 23188 08-11-06 80 71 76 11 0 0 6.4 12 67 63
SAN 23188 08-12-06 78 70 74 9 0 0 6.4 14 65 60
SAN 23188 08-13-06 76 70 73 8 0 0 7.5 14 64 59
SAN 23188 08-14-06 76 69 73 8 0 0 7.5 17 64 58
SAN 23188 08-15-06 75 69 72 7 0 0 8.6 16 63 58
SAN 23188 08-16-06 75 68 72 7 0 0 7.5 15 63 58
SAN 23188 08-17-06 76 67 72 7 0 0 6.8 14 63 58
SAN 23188 08-18-06 78 69 74 9 0 0 6.9 17 65 60
SAN 23188 08-19-06 75 68 72 7 0 0 7.5 16 64 59
SAN 23188 08-20-06 76 68 72 7 0 0 9 18 64 59
SAN 23188 08-21-06 75 69 72 7 0 0 7.8 16 65 61
SAN 23188 08-22-06 80 69 75 10 0 0 6.3 14 67 63
SAN 23188 08-23-06 70 0 5.6 12 68 64
SAN 23188 08-24-06 80 68 74 9 0 0 5 12 67 63
SAN 23188 08-25-06 77 69 73 8 0 0 6 12 65 61
SAN 23188 08-26-06 78 68 73 8 0 0 7 15 65 61
SAN 23188 08-27-06 80 67 74 9 0 0 7.8 17 66 62
SAN 23188 08-28-06 78 67 73 8 0 0 7.3 15 66 62
SAN 23188 08-29-06 76 66 71 6 0 0 6 13 65 61
SAN 23188 08-30-06 76 63 5.4 12 64 61
SAN 23188 08-31-06 77 66 72 7 0 0 5.7 14 66 63
SAN 23188 09-01-06 76 65 71 6 0 0 7.3 17 66 63
SAN 23188 09-02-06 80 65 73 8 0 0 7.5 17 67 63
SAN 23188 09-03-06 83 69 76 11 0 0 7.6 16 68 64
SAN 23188 09-04-06 84 70 77 12 0 0 7.9 17 67 62
SAN 23188 09-05-06 69 0 7.3 16 68 64
SAN 23188 09-06-06 80 67 74 9 0 0 5.2 12 67 63
SAN 23188 09-07-06 71 66 69 4 0 0 6.8 13 63 60
SAN 23188 09-08-06 73 65 69 4 0 0 6.3 13 62 57
SAN 23188 09-09-06 72 63 68 3 0 0 5.9 14 60 55
SAN 23188 09-10-06 73 61 67 2 0 0 4.9 14 61 56
SAN 23188 09-11-06 75 67 71 6 0 0 8 17 64 61
SAN 23188 09-12-06 78 67 73 8 0 0 7.5 16 66 63
SAN 23188 09-13-06 74 66 70 5 0 0 5.5 12 63 60
SAN 23188 09-14-06 71 65 68 3 0 0 7 13 61 56
SAN 23188 09-15-06 71 65 68 3 0 0 7.3 15 60 54
SAN 23188 09-16-06 74 61 68 3 0 0 6.6 20 60 54
SAN 23188 09-17-06 79 61 70 5 0 0 3.5 12 62 58
SAN 23188 09-18-06 84 62 73 8 0 0 5.1 21 60 50
SAN 23188 09-19-06 80 63 72 7 0 0 4.9 16 62 56
SAN 23188 09-20-06 75 65 70 5 0 0 4.8 15 63 59
SAN 23188 09-21-06 70 63 0 6.9 13 60 56
SAN 23188 09-22-06 72 66 69 4 0 0 9.8 17 61 56
SAN 23188 09-23-06 74 66 70 5 0 0 5.8 14 61 56
SAN 23188 09-24-06 76 62 69 4 0 0 6.8 21 62 58
SAN 23188 09-25-06 72 65 69 4 0 0 6 14 63 59
SAN 23188 09-26-06 72 65 69 4 0 0 7.2 16 62 59
SAN 23188 09-27-06 73 65 69 4 0 0 7.7 17 63 60
SAN 23188 09-28-06 76 64 70 5 0 0 6.9 15 63 60
SAN 23188 09-29-06 72 63 68 3 0 0 6.8 16 63 60
SAN 23188 09-30-06 73 64 69 4 0 0 5.7 16 62 59
SAN 23188 10-01-06 74 63 69 4 0 0 5.8 15 63 59
SAN 23188 10-02-06 74 65 70 5 0 0 6.5 16 63 59
SAN 23188 10-03-06 73 64 69 4 0 0 6.5 17 61 56
SAN 23188 10-04-06 70 62 66 1 0 0 5.4 14 59 54
SAN 23188 10-05-06 71 61 66 1 0 0 8 18 59 55
SAN 23188 10-06-06 69 62 66 1 0 0 6.4 16 57 51
SAN 23188 10-07-06 69 58 64 0 1 0 5.4 15 57 52
SAN 23188 10-08-06 69 59 64 0 1 0 3.6 13 58 54
SAN 23188 10-09-06 68 63 66 1 0 0 4.9 10 59 54
SAN 23188 10-10-06 71 63 67 2 0 0 6.9 15 59 54
SAN 23188 10-11-06 69 61 65 0 0 0 4.6 14 58 53
SAN 23188 10-12-06 71 59 65 0 0 0 4 13 57 52
SAN 23188 10-13-06 70 61 66 1 0 0.02 6.4 16 58 53
SAN 23188 10-14-06 68 59 64 0 1 0.74 6 14 59 55
SAN 23188 10-15-06 66 62 64 0 1 5.1 13 58 53
SAN 23188 10-16-06 66 63 65 0 0 0 6.1 13 58 54
SAN 23188 10-17-06 67 60 64 0 1 0 6.3 14 56 50
SAN 23188 10-18-06 73 57 65 0 0 0 4.3 15 56 49
SAN 23188 10-19-06 79 57 68 3 0 0 3.5 16 53 37
SAN 23188 10-20-06 80 58 69 4 0 0 4.1 13 56 44
SAN 23188 10-21-06 74 57 66 1 0 0 3.5 12 60 56
SAN 23188 10-22-06 78 59 69 4 0 0 4.6 13 60 56
SAN 23188 10-23-06 78 57 68 3 0 0 4.3 13 60 54
SAN 23188 10-24-06 69 61 65 0 0 0 4.3 12 60 57
SAN 23188 10-25-06 67 60 64 0 1 0 4.8 13 59 56
SAN 23188 10-26-06 58 0 4.2 14 55 42
SAN 23188 10-27-06 80 55 68 3 0 0 4.5 15 50 27
SAN 23188 10-28-06 80 55 68 3 0 0 2.8 12 54 39
SAN 23188 10-29-06 69 57 63 0 2 0 4.8 13 58 55
SAN 23188 10-30-06 66 59 0 4.6 14 55 50
SAN 23188 10-31-06 67 60 64 0 1 0 6.1 16 56 50
SAN 23188 11-01-06 68 60 64 0 1 0 6.8 17 57 52
SAN 23188 11-02-06 71 56 64 0 1 0 5.9 16 59 56
SAN 23188 11-03-06 68 62 65 0 0 0 6.3 16 60 57
SAN 23188 11-04-06 69 61 65 0 0 0 5.7 16 59 56
SAN 23188 11-05-06 82 56 69 4 0 0 2.6 12 56 45
SAN 23188 11-06-06 85 59 72 7 0 0 3.4 14 55 38
SAN 23188 11-07-06 61 0 3.2 13 56 42
SAN 23188 11-08-06 74 61 68 3 0 0 5 13 57 51
SAN 23188 11-09-06 69 63 66 1 0 0 7 13 59 55
SAN 23188 11-10-06 72 57 65 0 0 0 5.5 17 59 55
SAN 23188 11-11-06 68 60 64 0 1 0.04 5.3 16 58 55
SAN 23188 11-12-06 68 57 63 0 2 4.1 17 57 53
SAN 23188 11-13-06 72 54 63 0 2 0 3.5 13 55 48
SAN 23188 11-14-06 65 59 62 0 3 0.02 3.5 55 59 57
SAN 23188 11-15-06 73 57 65 0 0 0 3.6 12 59 54
SAN 23188 11-16-06 76 54 65 0 0 0 2.8 12 56 48
SAN 23188 11-17-06 70 55 63 0 2 0 2.7 9 58 55
SAN 23188 11-18-06 70 53 62 0 3 0 3.3 12 58 55
SAN 23188 11-19-06 77 56 67 2 0 0 3.3 14 58 54
SAN 23188 11-20-06 80 53 67 2 0 0 2 13 58 53
SAN 23188 11-21-06 68 56 62 0 3 0 4.4 10 57 54
SAN 23188 11-22-06 68 55 62 0 3 0 3.6 12 57 54
SAN 23188 11-23-06 76 56 66 1 0 0 3.1 10 58 54
SAN 23188 11-24-06 70 58 64 0 1 0 5.6 10 57 52
SAN 23188 11-25-06 64 57 61 0 4 0 5.8 12 53 46
SAN 23188 11-26-06 63 53 58 0 7 5.4 10 52 46
SAN 23188 11-27-06 62 55 59 0 6 0.09 8.1 17 53 48
SAN 23188 11-28-06 61 52 57 0 8 8.4 17 49 41
SAN 23188 11-29-06 64 49 57 0 8 0 4.4 14 44 29
SAN 23188 11-30-06 63 42 0 3.5 12 41 22
SAN 23188 12-01-06 67 44 56 0 9 0 4.3 14 45 31
SAN 23188 12-02-06 76 46 61 0 4 0 4.6 12 46 27
SAN 23188 12-03-06 71 46 59 0 6 0 3.6 12 42 19
SAN 23188 12-04-06 72 43 58 0 7 0 3.1 13 42 18
SAN 23188 12-05-06 68 45 57 0 8 0 2.5 8 45 33
SAN 23188 12-06-06 67 44 56 0 9 0 3.9 13 48 39
SAN 23188 12-07-06 74 45 60 0 5 0 3.2 13 49 40
SAN 23188 12-08-06 67 50 59 0 6 0 4.6 7 53 48
SAN 23188 12-09-06 66 51 59 0 6 0.03 4.6 25 53 49
SAN 23188 12-10-06 63 56 60 0 5 0.11 8.1 25 53 48
SAN 23188 12-11-06 64 55 60 0 5 0 14 0 0
SAN 23188 12-12-06 65 50 58 0 7 0 3.6 16 53 49
SAN 23188 12-13-06 68 51 60 0 5 0 4.1 15 53 48
SAN 23188 12-14-06 70 51 61 0 4 0 2.3 10 54 49
SAN 23188 12-15-06 61 54 58 0 7 0 4.5 10 55 52
SAN 23188 12-16-06 60 53 57 0 8 0.16 10 17 51 45
SAN 23188 12-17-06 58 48 53 0 12 0.23 5.8 20 47 41
SAN 23188 12-18-06 58 43 51 0 14 0 4.5 13 43 34
SAN 23188 12-19-06 59 42 51 0 14 0 4.4 17 42 30
SAN 23188 12-20-06 59 43 0 3.3 14 44 35
SAN 23188 12-21-06 60 44 52 0 13 0 3.4 16 46 40
SAN 23188 12-22-06 61 48 55 0 10 0.03 6.1 21 49 44
SAN 23188 12-23-06 67 43 55 0 10 0 2.7 14 47 37
SAN 23188 12-24-06 69 45 57 0 8 0 2.3 9 46 33
SAN 23188 12-25-06 47 0 3.1 12 48 35
SAN 23188 12-26-06 71 48 60 0 5 0 3.1 13 49 38
SAN 23188 12-27-06 61 52 57 0 8 0.15 12.7 32 50 44
SAN 23188 12-28-06 63 47 55 0 10 0 3.4 14 47 40
SAN 23188 12-29-06 64 45 55 0 10 0 2.3 12 45 35
SAN 23188 12-30-06 65 44 55 0 10 0 2.4 9 47 39
SAN 23188 12-31-06 60 45 53 0 12 0 2.8 12 49 44
SAN 23188 01-01-07 61 50 56 0 9 0 3.7 15 51 46
SAN 23188 01-02-07 70 47 59 0 6 0 4 16 48 37
SAN 23188 01-03-07 64 48 56 0 9 0 4.4 10 50 43
SAN 23188 01-04-07 59 55 57 0 8 0.04 8.1 24 52 48
SAN 23188 01-05-07 64 48 56 0 9 0 13.7 26 43 22
SAN 23188 01-06-07 62 47 55 0 10 0 4.6 13 41 18
SAN 23188 01-07-07 44 61 0 4 0 4.5 18 46 30
SAN 23188 01-08-07 73 48 61 0 4 0 3.2 10 48 34
SAN 23188 01-09-07 75 50 0 2.3 16 47 32
SAN 23188 01-10-07 64 50 57 0 8 0 4.6 13 50 43
SAN 23188 01-11-07 59 52 56 0 9 8.9 20 49 43
SAN 23188 01-12-07 56 46 51 0 14 10.6 22 41 26
SAN 23188 01-13-07 52 41 47 0 18 4.4 16 38 21
SAN 23188 01-14-07 54 36 0 3.5 13 36 19
SAN 23188 01-15-07 57 35 46 0 19 0 5.4 17 35 14
SAN 23188 01-16-07 58 37 48 0 17 0 4.3 15 37 18
SAN 23188 01-17-07 57 38 48 0 17 4.1 16 41 29
SAN 23188 01-18-07 60 41 51 0 14 0 4.3 14 45 36
SAN 23188 01-19-07 61 45 53 0 12 3.6 13 45 35
SAN 23188 01-20-07 59 43 51 0 14 0 4.2 14 46 40
SAN 23188 01-21-07 61 49 55 0 10 0 5.1 15 47 37
SAN 23188 01-22-07 63 40 52 0 13 0 5.2 18 42 26
SAN 23188 01-23-07 66 42 54 0 11 0 4.4 12 43 28
SAN 23188 01-24-07 67 44 56 0 9 0 4 16 46 34
SAN 23188 01-25-07 76 47 62 0 3 0 3.2 14 46 27
SAN 23188 01-26-07 62 48 55 0 10 0 6.3 13 50 43
SAN 23188 01-27-07 59 53 56 0 9 0 5.5 12 50 44
SAN 23188 01-28-07 61 51 56 0 9 0 4.5 12 49 43
SAN 23188 01-29-07 61 46 54 0 11 0.13 4.6 15 50 45
SAN 23188 01-30-07 56 50 53 0 12 0.23 4.8 9 50 47
SAN 23188 01-31-07 57 49 53 0 12 0.11 6.2 13 49 45
SAN 23188 02-01-07 59 53 56 0 9 0 5.8 14 49 41
SAN 23188 02-02-07 61 48 55 0 10 0 4.1 15 49 43
SAN 23188 02-03-07 65 46 56 0 9 0 4.6 16 50 44
SAN 23188 02-04-07 80 46 63 0 2 0 3.5 12 50 39
SAN 23188 02-05-07 83 51 67 2 0 0 3.3 16 51 38
SAN 23188 02-06-07 69 50 60 0 5 0 3 12 52 48
SAN 23188 02-07-07 61 48 55 0 10 0 4.8 12 51 47
SAN 23188 02-08-07 66 47 57 0 8 0 2.9 10 50 45
SAN 23188 02-09-07 64 51 58 0 7 0 5 16 53 49
SAN 23188 02-10-07 63 53 58 0 7 6.1 16 54 51
SAN 23188 02-11-07 61 54 58 0 7 0.02 5.5 15 54 52
SAN 23188 02-12-07 61 52 57 0 8 0 5.8 15 51 46
SAN 23188 02-13-07 62 54 58 0 7 0.01 11.6 21 52 46
SAN 23188 02-14-07 64 51 58 0 7 0 4.4 13 51 45
SAN 23188 02-15-07 67 51 59 0 6 0 4.4 14 51 45
SAN 23188 02-16-07 71 59 65 0 0 0 13 0 0
SAN 23188 02-17-07 53 0 2.8 12 52 38
SAN 23188 02-18-07 63 55 59 0 6 0.05 8.9 18 54 49
SAN 23188 02-19-07 58 52 55 0 10 0.7 13 25 52 49
SAN 23188 02-20-07 62 53 58 0 7 0 5.8 13 52 48
SAN 23188 02-21-07 63 50 57 0 8 0 4.3 13 52 47
SAN 23188 02-22-07 59 54 57 0 8 0.14 8.4 17 51 44
SAN 23188 02-23-07 58 50 54 0 11 0.05 10.8 22 47 38
SAN 23188 02-24-07 62 45 54 0 11 0 4.3 16 46 37
SAN 23188 02-25-07 62 46 54 0 11 0 5.6 16 49 43
SAN 23188 02-26-07 61 55 58 0 7 9.1 15 51 46
SAN 23188 02-27-07 60 50 55 0 10 0.09 9.5 20 49 44
SAN 23188 02-28-07 57 47 0.06 10.2 23 46 38
SAN 23188 03-01-07 59 46 0 5.8 16 45 37
SAN 23188 03-02-07 64 45 55 0 10 0 5.3 15 46 37
SAN 23188 03-03-07 75 48 62 0 3 0 2.8 13 46 28
SAN 23188 03-04-07 72 49 61 0 4 0 4.9 15 47 26
SAN 23188 03-05-07 78 53 66 1 0 0 3.6 13 47 25
SAN 23188 03-06-07 78 56 67 2 0 3.4 13 52 38
SAN 23188 03-07-07 73 57 65 0 0 0 6.3 17 56 51
SAN 23188 03-08-07 68 53 61 0 4 0 5.9 13 54 49
SAN 23188 03-09-07 62 55 59 0 6 0 6.2 20 52 47
SAN 23188 03-10-07 62 53 58 0 7 0 4.7 13 53 49
SAN 23188 03-11-07 80 53 67 2 0 0 3.9 12 56 47
SAN 23188 03-12-07 54 0 3.9 14 53 37
SAN 23188 03-13-07 65 55 60 0 5 0 4.5 10 54 49
SAN 23188 03-14-07 63 54 59 0 6 0 4.6 10 53 49
SAN 23188 03-15-07 64 55 60 0 5 0 5.6 14 54 50
SAN 23188 03-16-07 63 54 59 0 6 0 7.5 16 54 52
SAN 23188 03-17-07 62 54 58 0 7 0 6.3 16 54 51
SAN 23188 03-18-07 59 55 57 0 8 5.9 10 53 50
SAN 23188 03-19-07 63 57 60 0 5 0 7.4 12 53 48
SAN 23188 03-20-07 62 55 59 0 6 0.01 6.8 17 53 49
SAN 23188 03-21-07 60 53 57 0 8 0.06 8.5 18 50 44
SAN 23188 03-22-07 62 51 57 0 8 0.02 5.8 14 52 47
SAN 23188 03-23-07 64 56 60 0 5 0 6.8 14 55 51
SAN 23188 03-24-07 66 56 61 0 4 0 5.7 14 54 49
SAN 23188 03-25-07 64 58 61 0 4 0 6.6 16 55 50
SAN 23188 03-26-07 60 57 59 0 6 6.5 12 54 50
SAN 23188 03-27-07 61 55 58 0 7 17.6 32 50 43
SAN 23188 03-28-07 62 50 56 0 9 0 6.2 17 48 40
SAN 23188 03-29-07 66 50 58 0 7 0 5.6 17 50 41
SAN 23188 03-30-07 71 52 62 0 3 0 4.8 16 50 38
SAN 23188 03-31-07 69 52 61 0 4 0 5.5 18 52 45
SAN 23188 04-01-07 65 51 58 0 7 0 5.1 12 53 50
SAN 23188 04-02-07 63 55 59 0 6 0 6.4 12 54 50
SAN 23188 04-03-07 63 56 60 0 5 0 6 14 54 50
SAN 23188 04-04-07 65 56 61 0 4 0 5.1 14 55 51
SAN 23188 04-05-07 65 57 61 0 4 0 5.6 15 55 52
SAN 23188 04-06-07 63 58 61 0 4 0 6.7 13 55 50
SAN 23188 04-07-07 61 57 59 0 6 0 5.5 12 55 51
SAN 23188 04-08-07 62 58 60 0 5 7.9 14 56 53
SAN 23188 04-09-07 64 58 61 0 4 7.9 14 55 51
SAN 23188 04-10-07 66 58 62 0 3 0 6.4 14 56 51
SAN 23188 04-11-07 64 58 61 0 4 0 9.7 16 55 51
SAN 23188 04-12-07 63 57 60 0 5 10.8 26 53 46
SAN 23188 04-13-07 69 52 61 0 4 0 5.2 14 51 42
SAN 23188 04-14-07 65 53 59 0 6 6.1 16 52 46
SAN 23188 04-15-07 61 55 58 0 7 10.8 20 50 44
SAN 23188 04-16-07 63 54 59 0 6 0 7.6 14 52 47
SAN 23188 04-17-07 62 55 59 0 6 0 5.3 14 53 48
SAN 23188 04-18-07 62 55 59 0 6 0 8 20 51 44
SAN 23188 04-19-07 65 50 58 0 7 0 6 15 50 42
SAN 23188 04-20-07 59 51 0.38 7.6 25 49 44
SAN 23188 04-21-07 62 50 56 0 9 0 6.7 15 50 45
SAN 23188 04-22-07 63 52 58 0 7 0.07 5.9 16 52 47
SAN 23188 04-23-07 63 55 59 0 6 0.01 6.9 14 53 48
SAN 23188 04-24-07 68 53 61 0 4 0 6.1 15 54 49
SAN 23188 04-25-07 55 64 0 1 0 4.9 12 56 51
SAN 23188 04-26-07 64 58 61 0 4 0 8 16 54 50
SAN 23188 04-27-07 68 57 63 0 2 0 5.2 13 57 53
SAN 23188 04-28-07 70 57 64 0 1 6.2 12 57 54
SAN 23188 04-29-07 64 59 62 0 3 0 7.2 12 56 53
SAN 23188 04-30-07 67 60 0 6 15 57 53
SAN 23188 05-01-07 64 60 62 0 3 6.1 15 57 53
SAN 23188 05-02-07 66 59 63 0 2 7.2 16 56 52
SAN 23188 05-03-07 65 58 62 0 3 0 8.5 15 54 48
SAN 23188 05-04-07 65 58 62 0 3 0 10 20 54 48
SAN 23188 05-05-07 66 58 62 0 3 0 8.1 18 55 49
SAN 23188 05-06-07 80 55 68 3 0 0 7 20 52 34
SAN 23188 05-07-07 82 59 71 6 0 0 6.1 18 54 35
SAN 23188 05-08-07 62 0 4.6 14 57 41
SAN 23188 05-09-07 76 60 68 3 0 0 6.3 15 60 56
SAN 23188 05-10-07 71 57 64 0 1 0 7.9 17 57 52
SAN 23188 05-11-07 68 58 63 0 2 0 9.2 18 56 52
SAN 23188 05-12-07 64 58 61 0 4 0 6.7 16 53 47
SAN 23188 05-13-07 65 58 62 0 3 0 6.1 13 55 49
SAN 23188 05-14-07 64 58 61 0 4 0 6.2 13 54 49
SAN 23188 05-15-07 63 58 61 0 4 0 5.9 12 54 50
SAN 23188 05-16-07 62 58 60 0 5 0 5.8 12 54 50
SAN 23188 05-17-07 64 57 61 0 4 0 6.3 12 55 51
SAN 23188 05-18-07 65 58 0 0 13 56 52
SAN 23188 05-19-07 64 59 62 0 3 0 7.1 13 56 53
SAN 23188 05-20-07 64 59 62 0 3 0 8.7 14 56 51
SAN 23188 05-21-07 62 58 60 0 5 8.6 15 56 52
SAN 23188 05-22-07 63 59 61 0 4 0 7 13 57 53
SAN 23188 05-23-07 68 60 64 0 1 0 7.8 15 57 53
SAN 23188 05-24-07 68 59 64 0 1 0 7 15 57 53
SAN 23188 05-25-07 66 60 63 0 2 0 6.5 14 57 53
SAN 23188 05-26-07 65 60 63 0 2 0 5.8 14 56 52
SAN 23188 05-27-07 66 59 63 0 2 0 5.4 14 56 51
SAN 23188 05-28-07 65 59 62 0 3 0 6.4 13 55 50
SAN 23188 05-29-07 66 59 63 0 2 0 7.2 14 55 49
SAN 23188 05-30-07 67 59 63 0 2 0 7.7 16 56 51
SAN 23188 05-31-07 66 60 63 0 2 0 7.1 16 56 50
SAN 23188 06-01-07 66 60 63 0 2 0 5.2 14 56 52
SAN 23188 06-02-07 65 60 63 0 2 0 5.4 13 57 53
SAN 23188 06-03-07 68 60 64 0 1 0 6.1 14 57 52
SAN 23188 06-04-07 68 60 64 0 1 0 7.1 15 58 55
SAN 23188 06-05-07 65 59 62 0 3 0 6.9 13 57 53
SAN 23188 06-06-07 67 59 63 0 2 0 9.4 17 55 49
SAN 23188 06-07-07 68 58 63 0 2 0 8 14 56 50
SAN 23188 06-08-07 64 58 0 7.1 14 55 51
SAN 23188 06-09-07 65 58 62 0 3 0 7.3 13 55 50
SAN 23188 06-10-07 65 59 62 0 3 0 6.5 13 56 52
SAN 23188 06-11-07 65 60 63 0 2 0 6.8 13 57 53
SAN 23188 06-12-07 69 62 66 1 0 0 6.1 13 59 54
SAN 23188 06-13-07 72 60 66 1 0 0 6.1 15 60 57
SAN 23188 06-14-07 73 61 67 2 0 0 4.8 10 60 56
SAN 23188 06-15-07 73 62 68 3 0 0 6 12 60 56
SAN 23188 06-16-07 70 62 66 1 0 0 6.8 13 59 55
SAN 23188 06-17-07 71 62 67 2 0 0 6.5 13 59 54
SAN 23188 06-18-07 69 62 66 1 0 0 6.2 13 58 53
SAN 23188 06-19-07 70 61 66 1 0 0 6.9 14 59 54
SAN 23188 06-20-07 74 62 68 3 0 0 9.4 18 61 57
SAN 23188 06-21-07 70 61 66 1 0 0 6.5 14 60 57
SAN 23188 06-22-07 70 61 66 1 0 0 7.2 13 61 58
SAN 23188 06-23-07 69 60 65 0 0 0 8.3 17 60 56
SAN 23188 06-24-07 70 62 66 1 0 0 6.2 14 60 56
SAN 23188 06-25-07 72 61 67 2 0 0 6 12 60 56
SAN 23188 06-26-07 72 64 68 3 0 0 5.9 13 61 56
SAN 23188 06-27-07 73 62 68 3 0 0 5.8 13 61 57
SAN 23188 06-28-07 70 63 67 2 0 0 6.4 12 61 57
SAN 23188 06-29-07 77 65 71 6 0 0 5.8 12 62 58
SAN 23188 06-30-07 65 0 6.5 14 64 61
SAN 23188 07-01-07 83 66 0 6.3 12 64 60
SAN 23188 07-02-07 75 66 71 6 0 0 5.6 13 65 62
SAN 23188 07-03-07 73 65 69 4 0 0 6.7 12 63 61
SAN 23188 07-04-07 73 64 69 4 0 0 5 12 63 60
SAN 23188 07-05-07 74 66 70 5 0 0 5.8 13 64 61
SAN 23188 07-06-07 73 66 70 5 0 0 5 13 63 60
SAN 23188 07-07-07 75 66 71 6 0 0 5.8 13 63 60
SAN 23188 07-08-07 70 64 67 2 0 0 6.9 14 61 58
SAN 23188 07-09-07 71 63 67 2 0 0 6.1 12 60 57
SAN 23188 07-10-07 72 65 69 4 0 0 6.7 14 61 57
SAN 23188 07-11-07 73 65 69 4 0 0 8.5 17 62 57
SAN 23188 07-12-07 73 65 69 4 0 0 8.9 17 63 59
SAN 23188 07-13-07 78 65 72 7 0 0 8.4 18 64 60
SAN 23188 07-14-07 75 67 71 6 0 0 5.8 13 64 61
SAN 23188 07-15-07 72 65 69 4 0 0 6.8 12 62 59
SAN 23188 07-16-07 71 64 68 3 0 0 6.3 13 61 58
SAN 23188 07-17-07 73 64 69 4 0 0 5.8 13 62 58
SAN 23188 07-18-07 74 67 71 6 0 0 7.1 17 63 60
SAN 23188 07-19-07 74 65 70 5 0 0 6.1 12 63 60
SAN 23188 07-20-07 70 64 67 2 0 0 6.3 13 61 59
SAN 23188 07-21-07 70 63 67 2 0 0 5.6 12 61 58
SAN 23188 07-22-07 73 65 69 4 0 0 5.5 12 62 59
SAN 23188 07-23-07 75 66 71 6 0 0 6.1 14 64 60
SAN 23188 07-24-07 75 67 71 6 0 0 5.8 12 64 60
SAN 23188 07-25-07 78 67 73 8 0 0 5.9 10 65 61
SAN 23188 07-26-07 79 68 74 9 0 0 5.8 16 66 63
SAN 23188 07-27-07 80 69 75 10 0 0 6.4 14 67 63
SAN 23188 07-28-07 77 68 73 8 0 0 6 12 65 62
SAN 23188 07-29-07 74 67 71 6 0 0 6.6 13 63 59
SAN 23188 07-30-07 74 66 70 5 0 0 14 63 59
SAN 23188 07-31-07 63 59
SAN 23188 08-01-07 75 67 71 6 0 0 5.4 13 64 60
SAN 23188 08-02-07 78 70 74 9 0 0 6.9 14 66 62
SAN 23188 08-03-07 77 68 73 8 0 0 7 13 66 62
SAN 23188 08-04-07 73 68 71 6 0 0 6.2 13 64 60
SAN 23188 08-05-07 74 68 71 6 0 0 7.3 13 63 58
SAN 23188 08-06-07 74 69 72 7 0 0 6.9 15 63 58
SAN 23188 08-07-07 73 68 71 6 0 0 5.9 13 62 57
SAN 23188 08-08-07 75 67 71 6 0 0 7 14 63 59
SAN 23188 08-09-07 74 67 71 6 0 0 5.8 14 63 59
SAN 23188 08-10-07 74 67 71 6 0 0 5.8 13 63 59
SAN 23188 08-11-07 74 67 71 6 0 0 6.3 13 64 60
SAN 23188 08-12-07 76 68 72 7 0 0 6.9 15 66 62
SAN 23188 08-13-07 79 68 74 9 0 0 5.9 14 67 63
SAN 23188 08-14-07 83 69 76 11 0 0 5.9 13 68 64
SAN 23188 08-15-07 81 70 76 11 0 0 6.4 13 68 65
SAN 23188 08-16-07 79 71 75 10 0 0 5.5 10 68 64
SAN 23188 08-17-07 78 70 74 9 0 0 6 13 67 64
SAN 23188 08-18-07 81 70 76 11 0 0 5.8 12 68 64
SAN 23188 08-19-07 81 69 75 10 0 0 5.2 13 68 64
SAN 23188 08-20-07 83 71 77 12 0 0 5.9 16 69 64
SAN 23188 08-21-07 82 70 76 11 0 0 4.9 12 68 63
SAN 23188 08-22-07 74 68 71 6 0 0 7.4 12 65 61
SAN 23188 08-23-07 73 67 70 5 0 0 13 63 59
SAN 23188 08-24-07 75 67 71 6 0 0 5 13 64 60
SAN 23188 08-25-07 76 69 73 8 0 0 8.4 18 66 63
SAN 23188 08-26-07 85 71 78 13 0 0 8.1 23 67 63
SAN 23188 08-27-07 79 70 75 10 0 0 7.4 17 67 63
SAN 23188 08-28-07 81 69 75 10 0 0 7.6 17 67 63
SAN 23188 08-29-07 80 69 75 10 0 0 6.7 17 67 63
SAN 23188 08-30-07 80 70 75 10 0 0 3.9 10 68 64
SAN 23188 08-31-07 84 72 78 13 0 0 5.7 13 69 64
SAN 23188 09-01-07 85 72 79 14 0 0 4.1 10 70 66
SAN 23188 09-02-07 89 73 81 16 0 0 3.8 15 71 66
SAN 23188 09-03-07 91 74 83 18 0 0 5.8 17 72 67
SAN 23188 09-04-07 80 71 76 11 0 0 5.1 9 70 66
SAN 23188 09-05-07 72 67 70 5 0 0 6.1 12 64 60
SAN 23188 09-06-07 73 67 70 5 0 0 6.4 13 62 57
SAN 23188 09-07-07 74 65 70 5 0 0 6.9 17 62 58
SAN 23188 09-08-07 74 66 70 5 0 0 7.7 15 63 58
SAN 23188 09-09-07 74 65 70 5 0 0 7.3 16 63 58
SAN 23188 09-10-07 77 63 70 5 0 0 7.1 18 62 58
SAN 23188 09-11-07 79 64 72 7 0 0 6.8 17 63 58
SAN 23188 09-12-07 78 66 72 7 0 0 7.8 17 63 57
SAN 23188 09-13-07 76 66 71 6 0 0 4.7 16 64 59
SAN 23188 09-14-07 74 66 70 5 0 0 4.6 12 64 60
SAN 23188 09-15-07 75 65 70 5 0 0 4 14 63 59
SAN 23188 09-16-07 73 59 66 1 0 0 5 13 61 57
SAN 23188 09-17-07 70 65 68 3 0 0 7.2 13 59 53
SAN 23188 09-18-07 71 63 67 2 0 0 5.8 13 59 54
SAN 23188 09-19-07 68 64 66 1 0 0 7.9 14 58 52
SAN 23188 09-20-07 69 62 66 1 0 7.1 16 56 49
SAN 23188 09-21-07 71 59 65 0 0 0 8 21 57 50
SAN 23188 09-22-07 70 62 66 1 0 0.05 7.4 18 58 53
SAN 23188 09-23-07 70 60 65 0 0 0 5.2 15 58 52
SAN 23188 09-24-07 72 60 66 1 0 0 6.5 16 59 55
SAN 23188 09-25-07 72 61 67 2 0 0 3.6 12 61 58
SAN 23188 09-26-07 75 62 69 4 0 0 4.1 14 63 59
SAN 23188 09-27-07 72 62 67 2 0 0 4.2 12 62 59
SAN 23188 09-28-07 69 63 66 1 0 6.6 14 60 55
SAN 23188 09-29-07 59 53
SAN 23188 09-30-07
SAN 23188 10-01-07 76 64 70 5 0 0 4.1 15 63 59
SAN 23188 10-02-07 76 62 69 4 0 0 4.4 16 62 58
SAN 23188 10-03-07 76 64 70 5 0 0 3.8 12 62 58
SAN 23188 10-04-07 69 64 67 2 0 0 9 15 60 56
SAN 23188 10-05-07 67 61 64 0 1 11.1 21 55 47
SAN 23188 10-06-07 69 57 63 0 2 0 7.7 17 55 47
SAN 23188 10-07-07 87 55 71 6 0 0 3.6 16 52 34
SAN 23188 10-08-07 81 57 69 4 0 0 3.4 13 51 29
SAN 23188 10-09-07 74 57 66 1 0 0 4.1 14 55 46
SAN 23188 10-10-07 69 58 64 0 1 0 7.3 21 58 53
SAN 23188 10-11-07 69 61 65 0 0 0 4.8 12 58 54
SAN 23188 10-12-07 67 60 64 0 1 0.03 4.8 14 57 52
SAN 23188 10-13-07 67 60 64 0 1 0.21 6.9 17 59 56
SAN 23188 10-14-07 68 60 64 0 1 0 5.5 16 59 55
SAN 23188 10-15-07 65 62 64 0 1 0 6.5 14 58 55
SAN 23188 10-16-07 67 61 64 0 1 0 6.4 15 57 52
SAN 23188 10-17-07 67 59 63 0 2 0.13 4.2 13 58 54
SAN 23188 10-18-07 70 57 64 0 1 0 4.8 18 57 52
SAN 23188 10-19-07 77 59 68 3 0 0 3 12 60 54
SAN 23188 10-20-07 69 59 64 0 1 0 4.3 10 60 57
SAN 23188 10-21-07 84 57 71 6 0 0 3.9 12 57 45
SAN 23188 10-22-07 82 63 73 8 0 0 4.3 12 50 22
SAN 23188 10-23-07 84 61 73 8 0 0 3 13 53 32
SAN 23188 10-24-07 88 63 76 11 0 0 2.2 10 56 38
SAN 23188 10-25-07 81 62 72 7 0 0 1.8 9 58 47
SAN 23188 10-26-07 66 58 62 0 3 0 3.5 10 58 56
SAN 23188 10-27-07 76 61 69 4 0 3.2 12 60 55
SAN 23188 10-28-07 79 59 69 4 0 0 3.8 14 59 53
SAN 23188 10-29-07 77 62 70 5 0 0 3.4 16 61 56
SAN 23188 10-30-07 58 55
SAN 23188 10-31-07
SAN 23188 11-01-07 63 58 61 0 4 0 2.5 10 57 54
SAN 23188 11-02-07 65 59 62 0 3 0 4.5 10 57 54
SAN 23188 11-03-07 66 58 62 0 3 0 5.2 13 57 54
SAN 23188 11-04-07 65 56 61 0 4 0 4.6 14 57 54
SAN 23188 11-05-07 63 58 61 0 4 0 4.7 14 56 53
SAN 23188 11-06-07 62 59 61 0 4 0 6.2 12 56 53
SAN 23188 11-07-07 63 59 61 0 4 0 5 10 56 53
SAN 23188 11-08-07 61 59 60 0 5 0 4.4 9 56 52
SAN 23188 11-09-07 63 59 61 0 4 0 4.7 14 56 51
SAN 23188 11-10-07 66 57 62 0 3 0 3.5 13 55 51
SAN 23188 11-11-07 64 54 59 0 6 0.04 3.9 12 56 53
SAN 23188 11-12-07 71 59 65 0 0 0 4.6 14 58 53
SAN 23188 11-13-07 80 57 69 4 0 0 3.4 15 55 43
SAN 23188 11-14-07 84 58 71 6 0 0 2.5 12 55 41
SAN 23188 11-15-07 81 57 69 4 0 0 3.9 14 57 49
SAN 23188 11-16-07 63 57 60 0 5 0 3.6 9 57 54
SAN 23188 11-17-07 63 59 61 0 4 0 3.4 9 56 52
SAN 23188 11-18-07 62 57 60 0 5 0 5.7 13 55 53
SAN 23188 11-19-07 62 54 58 0 7 0 3.7 14 54 52
SAN 23188 11-20-07 60 54 57 0 8 0 4.5 9 54 52
SAN 23188 11-21-07 64 57 61 0 4 0 4.7 10 55 51
SAN 23188 11-22-07 63 55 59 0 6 0 4 10 53 47
SAN 23188 11-23-07 62 52 57 0 8 0 4 15 52 46
SAN 23188 11-24-07 72 47 60 0 5 0 3.3 14 49 40
SAN 23188 11-25-07 65 49 57 0 8 0 2.5 10 49 38
SAN 23188 11-26-07 71 51 61 0 4 0 2.3 15 49 37
SAN 23188 11-27-07 69 51 60 0 5 0 2.4 10 50 42
SAN 23188 11-28-07 74 51 63 0 2 0 2.5 9 49 33
SAN 23188 11-29-07 71 52 62 0 3 0 1.9 9 49 31
SAN 23188 11-30-07 66 55 61 0 4 0.93 9.1 24 58 54
SAN 23188 12-01-07 60 52 56 0 9 0.01 8 20 50 43
SAN 23188 12-02-07 60 47 54 0 11 0 3.2 15 48 42
SAN 23188 12-03-07 65 46 56 0 9 0 4.7 15 50 43
SAN 23188 12-04-07 67 47 57 0 8 0 2.5 12 51 46
SAN 23188 12-05-07 65 51 58 0 7 0 5.1 13 54 52
SAN 23188 12-06-07 64 55 60 0 5 0 10.4 21 55 52
SAN 23188 12-07-07 60 54 57 0 8 0.18 13.2 24 53 48
SAN 23188 12-08-07 58 47 53 0 12 0.28 9.2 20 48 43
SAN 23188 12-09-07 57 46 52 0 13 0.07 3.4 12 45 40
SAN 23188 12-10-07 61 43 52 0 13 0 3.8 13 45 38
SAN 23188 12-11-07 62 48 55 0 10 0.09 5.7 15 47 40
SAN 23188 12-12-07 61 44 53 0 12 0 2.9 14 44 35
SAN 23188 12-13-07 59 43 51 0 14 0 1.6 12 45 37
SAN 23188 12-14-07 61 43 52 0 13 0 3.5 12 46 39
SAN 23188 12-15-07 64 44 54 0 11 0 2.6 12 46 37
SAN 23188 12-16-07 62 44 53 0 12 0 2.6 13 47 40
SAN 23188 12-17-07 60 46 53 0 12 0 2.5 13 49 45
SAN 23188 12-18-07 61 47 54 0 11 3.1 13 50 46
SAN 23188 12-19-07 60 55 58 0 7 0.11 4.6 10 55 52
SAN 23188 12-20-07 61 54 58 0 7 0.04 5.9 15 53 49
SAN 23188 12-21-07 62 48 55 0 10 0 5.1 14 46 37
SAN 23188 12-22-07 62 41 52 0 13 0 3.1 16 43 31
SAN 23188 12-23-07 66 42 54 0 11 0 2.3 17 45 33
SAN 23188 12-24-07 72 47 60 0 5 0 2.1 12 48 38
SAN 23188 12-25-07 67 46 57 0 8 0 2.1 13 45 33
SAN 23188 12-26-07 59 42 51 0 14 0 3.9 15 44 32
SAN 23188 12-27-07 56 44 50 0 15 0 5.6 15 38 19
SAN 23188 12-28-07 57 43 50 0 15 0.02 2.8 12 43 31
SAN 23188 12-29-07 57 50 54 0 11 4 12 49 46
SAN 23188 12-30-07 58 45 52 0 13 0 2.6 10 48 44
SAN 23188 12-31-07 66 45 56 0 9 0 1.6 7 49 44
SAN 23188 01-01-08 70 44 57 0 8 0 1.9 8 43 27
SAN 23188 01-02-08 68 48 58 0 7 0 2.2 7 44 26
SAN 23188 01-03-08 62 51 57 0 8 0 4.2 15 49 39
SAN 23188 01-04-08 60 55 58 0 7 0.01 8.8 21 53 50
SAN 23188 01-05-08 57 54 56 0 9 0.88 12.2 28 54 53
SAN 23188 01-06-08 57 50 54 0 11 0.37 9.1 26 52 51
SAN 23188 01-07-08 56 49 53 0 12 0.35 8.5 26 51 49
SAN 23188 01-08-08 56 45 51 0 14 0 2.5 10 48 44
SAN 23188 01-09-08 58 47 53 0 12 0 2.7 15 49 46
SAN 23188 01-10-08 58 46 52 0 13 0 3.4 13 49 46
SAN 23188 01-11-08 59 47 53 0 12 0 2.2 10 50 48
SAN 23188 01-12-08 63 45 54 0 11 0 2.1 10 50 48
SAN 23188 01-13-08 72 46 59 0 6 0 2.2 12 49 39
SAN 23188 01-14-08 76 46 61 0 4 0 5.1 16 47 31
SAN 23188 01-15-08 63 46 55 0 10 0 3.4 9 47 38
SAN 23188 01-16-08 57 47 52 0 13 0 3.5 9 49 46
SAN 23188 01-17-08 67 44 56 0 9 0 4.6 18 42 26
SAN 23188 01-18-08 62 43 53 0 12 0 2.2 9 42 27
SAN 23188 01-19-08 65 43 54 0 11 0 2.8 13 44 34
SAN 23188 01-20-08 58 43 51 0 14 0 4.1 12 47 41
SAN 23188 01-21-08 55 50 53 0 12 0.1 4.7 14 49 44
SAN 23188 01-22-08 59 50 55 0 10 0.08 4.1 12 49 43
SAN 23188 01-23-08 61 45 53 0 12 0.68 7.9 22 47 41
SAN 23188 01-24-08 57 47 52 0 13 0.07 9 20 48 42
SAN 23188 01-25-08 59 51 55 0 10 0 7.6 20 48 41
SAN 23188 01-26-08 66 50 58 0 7 0.32 3.8 17 50 43
SAN 23188 01-27-08 62 56 59 0 6 0.4 14.7 31 56 53
SAN 23188 01-28-08 57 52 55 0 10 0.08 23 50 46
SAN 23188 01-29-08 56 47 52 0 13 0 2.7 10 46 39
SAN 23188 01-30-08 57 47 52 0 13 0 3.3 16 46 40
SAN 23188 01-31-08 60 45 53 0 12 0 3.3 14 46 38
SAN 23188 02-01-08 59 45 52 0 13 4 13 47 41
SAN 23188 02-02-08 58 50 54 0 11 0 5.4 12 48 43
SAN 23188 02-03-08 57 50 54 0 11 0.25 11.8 22 50 47
SAN 23188 02-04-08 57 48 53 0 12 0.04 7.3 22 46 39
SAN 23188 02-05-08 60 43 52 0 13 0 3.1 10 44 34
SAN 23188 02-06-08 59 43 51 0 14 0 2.8 12 45 38
SAN 23188 02-07-08 67 45 56 0 9 0 3 12 48 41
SAN 23188 02-08-08 73 47 60 0 5 0 2.7 12 50 44
SAN 23188 02-09-08 77 48 63 0 2 0 2.9 12 50 38
SAN 23188 02-10-08 73 49 61 0 4 0 2 10 50 40
SAN 23188 02-11-08 71 50 61 0 4 0 3.2 14 51 44
SAN 23188 02-12-08 72 50 61 0 4 0 3.8 14 53 48
SAN 23188 02-13-08 57 51 54 0 11 0.01 7.1 15 51 48
SAN 23188 02-14-08 57 43 50 0 15 0.21 11.3 24 46 42
SAN 23188 02-15-08 62 41 52 0 13 0 3.1 13 44 34
SAN 23188 02-16-08 64 44 54 0 11 0 3.4 14 47 40
SAN 23188 02-17-08 59 47 53 0 12 0 3.4 14 49 44
SAN 23188 02-18-08 60 48 54 0 11 0 4.3 15 49 46
SAN 23188 02-19-08 59 54 57 0 8 0 4.6 13 50 46
SAN 23188 02-20-08 58 53 56 0 9 0.04 7.6 15 52 49
SAN 23188 02-21-08 59 51 55 0 10 6.5 16 50 46
SAN 23188 02-22-08 58 53 56 0 9 0.45 12.1 26 52 50
SAN 23188 02-23-08 62 48 55 0 10 4.5 14 50 44
SAN 23188 02-24-08 60 53 57 0 8 0.22 5 15 51 48
SAN 23188 02-25-08 61 48 55 0 10 0 5.4 17 51 47
SAN 23188 02-26-08 73 47 60 0 5 0 3.5 10 52 45
SAN